<?xml version='1.0' encoding='UTF-8'?>
<gpx version="1.1" creator="https://www.komoot.de" xmlns="http://www.topografix.com/GPX/1/1" xmlns:xsi="http://www.w3.org/2001/XMLSchema-instance" xsi:schemaLocation="http://www.topografix.com/GPX/1/1 http://www.topografix.com/GPX/1/1/gpx.xsd">
  <metadata>
    <name>52_650RamlinsbWindent</name>
    <author>
      <link href="https://www.komoot.de">
        <text>komoot</text>
        <type>text/html</type>
      </link>
    </author>
  </metadata>
  <trk>
    <name>52_650RamlinsbWindent</name>
    <trkseg>
      <trkpt lat="47.541461" lon="7.870752">
        <ele>342.165891</ele>
        <time>2021-11-13T13:15:26.217Z</time>
      </trkpt>
      <trkpt lat="47.541410" lon="7.870791">
        <ele>342.165891</ele>
        <time>2021-11-13T13:15:27.591Z</time>
      </trkpt>
      <trkpt lat="47.540933" lon="7.871187">
        <ele>342.165891</ele>
        <time>2021-11-13T13:15:40.139Z</time>
      </trkpt>
      <trkpt lat="47.540894" lon="7.871220">
        <ele>342.165891</ele>
        <time>2021-11-13T13:15:41.275Z</time>
      </trkpt>
      <trkpt lat="47.540693" lon="7.871390">
        <ele>342.165891</ele>
        <time>2021-11-13T13:15:46.823Z</time>
      </trkpt>
      <trkpt lat="47.540463" lon="7.871584">
        <ele>342.643915</ele>
        <time>2021-11-13T13:15:53.154Z</time>
      </trkpt>
      <trkpt lat="47.540265" lon="7.871808">
        <ele>343.128208</ele>
        <time>2021-11-13T13:15:58.676Z</time>
      </trkpt>
      <trkpt lat="47.540216" lon="7.871851">
        <ele>343.238916</ele>
        <time>2021-11-13T13:16:00.168Z</time>
      </trkpt>
      <trkpt lat="47.540034" lon="7.871970">
        <ele>343.625631</ele>
        <time>2021-11-13T13:16:04.864Z</time>
      </trkpt>
      <trkpt lat="47.539930" lon="7.872041">
        <ele>343.848230</ele>
        <time>2021-11-13T13:16:07.451Z</time>
      </trkpt>
      <trkpt lat="47.539841" lon="7.872151">
        <ele>344.073545</ele>
        <time>2021-11-13T13:16:10.481Z</time>
      </trkpt>
      <trkpt lat="47.539678" lon="7.872430">
        <ele>344.557733</ele>
        <time>2021-11-13T13:16:16.003Z</time>
      </trkpt>
      <trkpt lat="47.539222" lon="7.873416">
        <ele>345.909427</ele>
        <time>2021-11-13T13:16:33.545Z</time>
      </trkpt>
      <trkpt lat="47.538278" lon="7.874319">
        <ele>347.073434</ele>
        <time>2021-11-13T13:16:53.198Z</time>
      </trkpt>
      <trkpt lat="47.537716" lon="7.874966">
        <ele>348.005396</ele>
        <time>2021-11-13T13:17:07.173Z</time>
      </trkpt>
      <trkpt lat="47.537261" lon="7.875237">
        <ele>348.859874</ele>
        <time>2021-11-13T13:17:16.690Z</time>
      </trkpt>
      <trkpt lat="47.537182" lon="7.875293">
        <ele>349.012474</ele>
        <time>2021-11-13T13:17:18.679Z</time>
      </trkpt>
      <trkpt lat="47.536921" lon="7.875537">
        <ele>349.550239</ele>
        <time>2021-11-13T13:17:24.646Z</time>
      </trkpt>
      <trkpt lat="47.536757" lon="7.875759">
        <ele>349.937343</ele>
        <time>2021-11-13T13:17:29.247Z</time>
      </trkpt>
      <trkpt lat="47.536632" lon="7.875912">
        <ele>350.219882</ele>
        <time>2021-11-13T13:17:32.415Z</time>
      </trkpt>
      <trkpt lat="47.536444" lon="7.876177">
        <ele>350.693088</ele>
        <time>2021-11-13T13:17:39.377Z</time>
      </trkpt>
      <trkpt lat="47.535851" lon="7.877319">
        <ele>355.171092</ele>
        <time>2021-11-13T13:18:10.691Z</time>
      </trkpt>
      <trkpt lat="47.535770" lon="7.877432">
        <ele>355.683364</ele>
        <time>2021-11-13T13:18:14.871Z</time>
      </trkpt>
      <trkpt lat="47.535635" lon="7.877484">
        <ele>356.325555</ele>
        <time>2021-11-13T13:18:20.738Z</time>
      </trkpt>
      <trkpt lat="47.535551" lon="7.877487">
        <ele>356.712390</ele>
        <time>2021-11-13T13:18:22.646Z</time>
      </trkpt>
      <trkpt lat="47.535322" lon="7.877590">
        <ele>357.814208</ele>
        <time>2021-11-13T13:18:32.698Z</time>
      </trkpt>
      <trkpt lat="47.535088" lon="7.877742">
        <ele>358.996768</ele>
        <time>2021-11-13T13:18:40.530Z</time>
      </trkpt>
      <trkpt lat="47.534855" lon="7.878090">
        <ele>360.707302</ele>
        <time>2021-11-13T13:18:52.513Z</time>
      </trkpt>
      <trkpt lat="47.534778" lon="7.878270">
        <ele>361.451011</ele>
        <time>2021-11-13T13:18:59.820Z</time>
      </trkpt>
      <trkpt lat="47.534825" lon="7.878414">
        <ele>362.009236</ele>
        <time>2021-11-13T13:19:02.447Z</time>
      </trkpt>
      <trkpt lat="47.534946" lon="7.878790">
        <ele>363.462968</ele>
        <time>2021-11-13T13:19:14.495Z</time>
      </trkpt>
      <trkpt lat="47.534908" lon="7.878975">
        <ele>364.137859</ele>
        <time>2021-11-13T13:19:18.553Z</time>
      </trkpt>
      <trkpt lat="47.534616" lon="7.879490">
        <ele>366.485031</ele>
        <time>2021-11-13T13:19:35.499Z</time>
      </trkpt>
      <trkpt lat="47.533892" lon="7.880353">
        <ele>369.740275</ele>
        <time>2021-11-13T13:20:03.239Z</time>
      </trkpt>
      <trkpt lat="47.533606" lon="7.880961">
        <ele>371.013677</ele>
        <time>2021-11-13T13:20:15.547Z</time>
      </trkpt>
      <trkpt lat="47.533374" lon="7.881639">
        <ele>372.319889</ele>
        <time>2021-11-13T13:20:26.593Z</time>
      </trkpt>
      <trkpt lat="47.533014" lon="7.882949">
        <ele>372.892608</ele>
        <time>2021-11-13T13:20:44.508Z</time>
      </trkpt>
      <trkpt lat="47.532859" lon="7.883508">
        <ele>372.933746</ele>
        <time>2021-11-13T13:20:50.386Z</time>
      </trkpt>
      <trkpt lat="47.532713" lon="7.884122">
        <ele>372.978059</ele>
        <time>2021-11-13T13:20:56.083Z</time>
      </trkpt>
      <trkpt lat="47.532699" lon="7.884224">
        <ele>372.985145</ele>
        <time>2021-11-13T13:20:57.037Z</time>
      </trkpt>
      <trkpt lat="47.532670" lon="7.884773">
        <ele>372.622473</ele>
        <time>2021-11-13T13:21:01.531Z</time>
      </trkpt>
      <trkpt lat="47.532658" lon="7.884989">
        <ele>372.403909</ele>
        <time>2021-11-13T13:21:03.143Z</time>
      </trkpt>
      <trkpt lat="47.532650" lon="7.885569">
        <ele>371.818876</ele>
        <time>2021-11-13T13:21:07.645Z</time>
      </trkpt>
      <trkpt lat="47.532505" lon="7.887120">
        <ele>370.232019</ele>
        <time>2021-11-13T13:21:19.596Z</time>
      </trkpt>
      <trkpt lat="47.532288" lon="7.887728">
        <ele>369.462233</ele>
        <time>2021-11-13T13:21:24.773Z</time>
      </trkpt>
      <trkpt lat="47.532011" lon="7.888896">
        <ele>368.076547</ele>
        <time>2021-11-13T13:21:34.003Z</time>
      </trkpt>
      <trkpt lat="47.531843" lon="7.889349">
        <ele>367.498031</ele>
        <time>2021-11-13T13:21:38.040Z</time>
      </trkpt>
      <trkpt lat="47.531560" lon="7.889776">
        <ele>367.278489</ele>
        <time>2021-11-13T13:21:42.980Z</time>
      </trkpt>
      <trkpt lat="47.531265" lon="7.889937">
        <ele>367.225974</ele>
        <time>2021-11-13T13:21:46.948Z</time>
      </trkpt>
      <trkpt lat="47.531076" lon="7.890029">
        <ele>367.192743</ele>
        <time>2021-11-13T13:21:49.789Z</time>
      </trkpt>
      <trkpt lat="47.530606" lon="7.890373">
        <ele>367.105174</ele>
        <time>2021-11-13T13:21:57.638Z</time>
      </trkpt>
      <trkpt lat="47.530322" lon="7.890690">
        <ele>367.045772</ele>
        <time>2021-11-13T13:22:03.631Z</time>
      </trkpt>
      <trkpt lat="47.529972" lon="7.891210">
        <ele>367.432872</ele>
        <time>2021-11-13T13:22:12.793Z</time>
      </trkpt>
      <trkpt lat="47.529714" lon="7.891609">
        <ele>367.817353</ele>
        <time>2021-11-13T13:22:20.127Z</time>
      </trkpt>
      <trkpt lat="47.529695" lon="7.891638">
        <ele>367.845475</ele>
        <time>2021-11-13T13:22:21.113Z</time>
      </trkpt>
      <trkpt lat="47.529235" lon="7.892158">
        <ele>368.441941</ele>
        <time>2021-11-13T13:22:32.047Z</time>
      </trkpt>
      <trkpt lat="47.528331" lon="7.892682">
        <ele>369.613358</ele>
        <time>2021-11-13T13:22:50.749Z</time>
      </trkpt>
      <trkpt lat="47.528003" lon="7.892732">
        <ele>370.056864</ele>
        <time>2021-11-13T13:22:56.455Z</time>
      </trkpt>
      <trkpt lat="47.527498" lon="7.892650">
        <ele>370.740184</ele>
        <time>2021-11-13T13:23:05.928Z</time>
      </trkpt>
      <trkpt lat="47.527011" lon="7.893061">
        <ele>371.694831</ele>
        <time>2021-11-13T13:23:19.121Z</time>
      </trkpt>
      <trkpt lat="47.526709" lon="7.893617">
        <ele>373.018796</ele>
        <time>2021-11-13T13:23:31.653Z</time>
      </trkpt>
      <trkpt lat="47.526504" lon="7.894030">
        <ele>373.969861</ele>
        <time>2021-11-13T13:23:41.834Z</time>
      </trkpt>
      <trkpt lat="47.526451" lon="7.893983">
        <ele>374.139608</ele>
        <time>2021-11-13T13:23:43.223Z</time>
      </trkpt>
      <trkpt lat="47.526401" lon="7.893964">
        <ele>374.281449</ele>
        <time>2021-11-13T13:23:44.040Z</time>
      </trkpt>
      <trkpt lat="47.526335" lon="7.893960">
        <ele>374.462956</ele>
        <time>2021-11-13T13:23:46.114Z</time>
      </trkpt>
      <trkpt lat="47.526257" lon="7.894278">
        <ele>375.090714</ele>
        <time>2021-11-13T13:23:52.326Z</time>
      </trkpt>
      <trkpt lat="47.525725" lon="7.895110">
        <ele>376.874942</ele>
        <time>2021-11-13T13:24:11.408Z</time>
      </trkpt>
      <trkpt lat="47.525603" lon="7.895265">
        <ele>377.161428</ele>
        <time>2021-11-13T13:24:17.024Z</time>
      </trkpt>
      <trkpt lat="47.525631" lon="7.895442">
        <ele>377.380212</ele>
        <time>2021-11-13T13:24:19.874Z</time>
      </trkpt>
      <trkpt lat="47.525631" lon="7.895583">
        <ele>377.549903</ele>
        <time>2021-11-13T13:24:21.065Z</time>
      </trkpt>
      <trkpt lat="47.525622" lon="7.895944">
        <ele>377.984655</ele>
        <time>2021-11-13T13:24:28.501Z</time>
      </trkpt>
      <trkpt lat="47.525590" lon="7.896117">
        <ele>378.200527</ele>
        <time>2021-11-13T13:24:30.054Z</time>
      </trkpt>
      <trkpt lat="47.525518" lon="7.896336">
        <ele>378.493668</ele>
        <time>2021-11-13T13:24:34.861Z</time>
      </trkpt>
      <trkpt lat="47.524834" lon="7.897636">
        <ele>379.445832</ele>
        <time>2021-11-13T13:24:51.784Z</time>
      </trkpt>
      <trkpt lat="47.524617" lon="7.898216">
        <ele>379.442898</ele>
        <time>2021-11-13T13:24:57.958Z</time>
      </trkpt>
      <trkpt lat="47.524360" lon="7.898951">
        <ele>379.439236</ele>
        <time>2021-11-13T13:25:05.498Z</time>
      </trkpt>
      <trkpt lat="47.524309" lon="7.899115">
        <ele>379.438437</ele>
        <time>2021-11-13T13:25:07.412Z</time>
      </trkpt>
      <trkpt lat="47.523896" lon="7.900001">
        <ele>380.299552</ele>
        <time>2021-11-13T13:25:19.335Z</time>
      </trkpt>
      <trkpt lat="47.523861" lon="7.900049">
        <ele>380.364446</ele>
        <time>2021-11-13T13:25:20.314Z</time>
      </trkpt>
      <trkpt lat="47.523890" lon="7.900131">
        <ele>380.449479</ele>
        <time>2021-11-13T13:25:21.269Z</time>
      </trkpt>
      <trkpt lat="47.523945" lon="7.900256">
        <ele>380.586533</ele>
        <time>2021-11-13T13:25:22.860Z</time>
      </trkpt>
      <trkpt lat="47.523989" lon="7.900340">
        <ele>380.684192</ele>
        <time>2021-11-13T13:25:23.910Z</time>
      </trkpt>
      <trkpt lat="47.523957" lon="7.900371">
        <ele>380.736211</ele>
        <time>2021-11-13T13:25:24.615Z</time>
      </trkpt>
      <trkpt lat="47.523878" lon="7.900445">
        <ele>380.863375</ele>
        <time>2021-11-13T13:25:26.732Z</time>
      </trkpt>
      <trkpt lat="47.523739" lon="7.900557">
        <ele>381.078645</ele>
        <time>2021-11-13T13:25:29.663Z</time>
      </trkpt>
      <trkpt lat="47.523648" lon="7.900606">
        <ele>381.210368</ele>
        <time>2021-11-13T13:25:31.842Z</time>
      </trkpt>
      <trkpt lat="47.523620" lon="7.900698">
        <ele>381.303070</ele>
        <time>2021-11-13T13:25:33.805Z</time>
      </trkpt>
      <trkpt lat="47.523567" lon="7.900820">
        <ele>381.436332</ele>
        <time>2021-11-13T13:25:35.903Z</time>
      </trkpt>
      <trkpt lat="47.523433" lon="7.901043">
        <ele>381.710550</ele>
        <time>2021-11-13T13:25:41.147Z</time>
      </trkpt>
      <trkpt lat="47.523340" lon="7.901197">
        <ele>381.931258</ele>
        <time>2021-11-13T13:25:45.189Z</time>
      </trkpt>
      <trkpt lat="47.523036" lon="7.901580">
        <ele>383.543566</ele>
        <time>2021-11-13T13:25:56.885Z</time>
      </trkpt>
      <trkpt lat="47.522688" lon="7.901843">
        <ele>385.121800</ele>
        <time>2021-11-13T13:26:09.203Z</time>
      </trkpt>
      <trkpt lat="47.522554" lon="7.901999">
        <ele>385.810342</ele>
        <time>2021-11-13T13:26:15.524Z</time>
      </trkpt>
      <trkpt lat="47.522260" lon="7.902356">
        <ele>387.346186</ele>
        <time>2021-11-13T13:26:27.897Z</time>
      </trkpt>
      <trkpt lat="47.522132" lon="7.902476">
        <ele>387.958153</ele>
        <time>2021-11-13T13:26:32.455Z</time>
      </trkpt>
      <trkpt lat="47.522065" lon="7.902526">
        <ele>388.261226</ele>
        <time>2021-11-13T13:26:34.649Z</time>
      </trkpt>
      <trkpt lat="47.522038" lon="7.902562">
        <ele>388.407990</ele>
        <time>2021-11-13T13:26:36.164Z</time>
      </trkpt>
      <trkpt lat="47.522013" lon="7.902637">
        <ele>388.636149</ele>
        <time>2021-11-13T13:26:38.314Z</time>
      </trkpt>
      <trkpt lat="47.521792" lon="7.903347">
        <ele>390.437548</ele>
        <time>2021-11-13T13:26:54.380Z</time>
      </trkpt>
      <trkpt lat="47.521297" lon="7.904312">
        <ele>393.066734</ele>
        <time>2021-11-13T13:27:18.302Z</time>
      </trkpt>
      <trkpt lat="47.521172" lon="7.904644">
        <ele>393.891438</ele>
        <time>2021-11-13T13:27:25.212Z</time>
      </trkpt>
      <trkpt lat="47.521027" lon="7.905028">
        <ele>394.845976</ele>
        <time>2021-11-13T13:27:31.986Z</time>
      </trkpt>
      <trkpt lat="47.520989" lon="7.905130">
        <ele>394.968389</ele>
        <time>2021-11-13T13:27:33.827Z</time>
      </trkpt>
      <trkpt lat="47.520678" lon="7.906050">
        <ele>395.487701</ele>
        <time>2021-11-13T13:27:47.221Z</time>
      </trkpt>
      <trkpt lat="47.520566" lon="7.906668">
        <ele>395.810682</ele>
        <time>2021-11-13T13:27:54.256Z</time>
      </trkpt>
      <trkpt lat="47.520528" lon="7.906930">
        <ele>395.945946</ele>
        <time>2021-11-13T13:27:57.286Z</time>
      </trkpt>
      <trkpt lat="47.520515" lon="7.907103">
        <ele>396.033809</ele>
        <time>2021-11-13T13:27:59.268Z</time>
      </trkpt>
      <trkpt lat="47.520506" lon="7.907236">
        <ele>396.101279</ele>
        <time>2021-11-13T13:28:00.365Z</time>
      </trkpt>
      <trkpt lat="47.520551" lon="7.907422">
        <ele>396.201008</ele>
        <time>2021-11-13T13:28:02.775Z</time>
      </trkpt>
      <trkpt lat="47.520733" lon="7.907655">
        <ele>396.291403</ele>
        <time>2021-11-13T13:28:05.961Z</time>
      </trkpt>
      <trkpt lat="47.520738" lon="7.907839">
        <ele>396.307087</ele>
        <time>2021-11-13T13:28:08.104Z</time>
      </trkpt>
      <trkpt lat="47.520493" lon="7.908683">
        <ele>396.385327</ele>
        <time>2021-11-13T13:28:16.283Z</time>
      </trkpt>
      <trkpt lat="47.519997" lon="7.910833">
        <ele>397.101507</ele>
        <time>2021-11-13T13:28:42.230Z</time>
      </trkpt>
      <trkpt lat="47.519891" lon="7.911129">
        <ele>397.319447</ele>
        <time>2021-11-13T13:28:46.820Z</time>
      </trkpt>
      <trkpt lat="47.519720" lon="7.911522">
        <ele>397.623557</ele>
        <time>2021-11-13T13:28:52.904Z</time>
      </trkpt>
      <trkpt lat="47.519421" lon="7.912098">
        <ele>398.096139</ele>
        <time>2021-11-13T13:29:02.471Z</time>
      </trkpt>
      <trkpt lat="47.517688" lon="7.914418">
        <ele>400.555023</ele>
        <time>2021-11-13T13:29:47.049Z</time>
      </trkpt>
      <trkpt lat="47.517281" lon="7.915238">
        <ele>401.218722</ele>
        <time>2021-11-13T13:30:00.063Z</time>
      </trkpt>
      <trkpt lat="47.517140" lon="7.915259">
        <ele>401.355573</ele>
        <time>2021-11-13T13:30:02.563Z</time>
      </trkpt>
      <trkpt lat="47.516806" lon="7.914896">
        <ele>401.755680</ele>
        <time>2021-11-13T13:30:10.138Z</time>
      </trkpt>
      <trkpt lat="47.516748" lon="7.914873">
        <ele>401.813664</ele>
        <time>2021-11-13T13:30:11.310Z</time>
      </trkpt>
      <trkpt lat="47.516662" lon="7.914835">
        <ele>401.900334</ele>
        <time>2021-11-13T13:30:13.101Z</time>
      </trkpt>
      <trkpt lat="47.516626" lon="7.914830">
        <ele>401.933428</ele>
        <time>2021-11-13T13:30:13.796Z</time>
      </trkpt>
      <trkpt lat="47.516590" lon="7.914840">
        <ele>401.966289</ele>
        <time>2021-11-13T13:30:14.392Z</time>
      </trkpt>
      <trkpt lat="47.516569" lon="7.914864">
        <ele>401.990089</ele>
        <time>2021-11-13T13:30:14.926Z</time>
      </trkpt>
      <trkpt lat="47.516544" lon="7.914936">
        <ele>402.039144</ele>
        <time>2021-11-13T13:30:15.773Z</time>
      </trkpt>
      <trkpt lat="47.516391" lon="7.915243">
        <ele>402.270327</ele>
        <time>2021-11-13T13:30:20.566Z</time>
      </trkpt>
      <trkpt lat="47.515014" lon="7.917030">
        <ele>404.085158</ele>
        <time>2021-11-13T13:30:54.342Z</time>
      </trkpt>
      <trkpt lat="47.514635" lon="7.917349">
        <ele>404.648908</ele>
        <time>2021-11-13T13:31:02.461Z</time>
      </trkpt>
      <trkpt lat="47.514561" lon="7.917409">
        <ele>404.758008</ele>
        <time>2021-11-13T13:31:04.353Z</time>
      </trkpt>
      <trkpt lat="47.514255" lon="7.917714">
        <ele>405.235014</ele>
        <time>2021-11-13T13:31:11.821Z</time>
      </trkpt>
      <trkpt lat="47.513378" lon="7.918393">
        <ele>406.820117</ele>
        <time>2021-11-13T13:31:33.548Z</time>
      </trkpt>
      <trkpt lat="47.513160" lon="7.918764">
        <ele>407.446615</ele>
        <time>2021-11-13T13:31:41.056Z</time>
      </trkpt>
      <trkpt lat="47.513058" lon="7.918896">
        <ele>407.702152</ele>
        <time>2021-11-13T13:31:44.205Z</time>
      </trkpt>
      <trkpt lat="47.512938" lon="7.919052">
        <ele>408.003376</ele>
        <time>2021-11-13T13:31:48.000Z</time>
      </trkpt>
      <trkpt lat="47.512664" lon="7.919306">
        <ele>408.613163</ele>
        <time>2021-11-13T13:31:55.330Z</time>
      </trkpt>
      <trkpt lat="47.512255" lon="7.919538">
        <ele>409.370808</ele>
        <time>2021-11-13T13:32:05.005Z</time>
      </trkpt>
      <trkpt lat="47.512085" lon="7.919732">
        <ele>409.635209</ele>
        <time>2021-11-13T13:32:09.620Z</time>
      </trkpt>
      <trkpt lat="47.512055" lon="7.919797">
        <ele>409.700711</ele>
        <time>2021-11-13T13:32:10.796Z</time>
      </trkpt>
      <trkpt lat="47.511964" lon="7.919989">
        <ele>409.895867</ele>
        <time>2021-11-13T13:32:14.157Z</time>
      </trkpt>
      <trkpt lat="47.511883" lon="7.920133">
        <ele>410.051786</ele>
        <time>2021-11-13T13:32:16.811Z</time>
      </trkpt>
      <trkpt lat="47.511632" lon="7.920105">
        <ele>410.361854</ele>
        <time>2021-11-13T13:32:23.461Z</time>
      </trkpt>
      <trkpt lat="47.511613" lon="7.920183">
        <ele>410.430844</ele>
        <time>2021-11-13T13:32:24.376Z</time>
      </trkpt>
      <trkpt lat="47.511186" lon="7.920984">
        <ele>411.279868</ele>
        <time>2021-11-13T13:32:37.117Z</time>
      </trkpt>
      <trkpt lat="47.511067" lon="7.921207">
        <ele>411.505507</ele>
        <time>2021-11-13T13:32:40.455Z</time>
      </trkpt>
      <trkpt lat="47.511052" lon="7.921232">
        <ele>411.528213</ele>
        <time>2021-11-13T13:32:40.899Z</time>
      </trkpt>
      <trkpt lat="47.510872" lon="7.921477">
        <ele>411.774019</ele>
        <time>2021-11-13T13:32:45.198Z</time>
      </trkpt>
      <trkpt lat="47.510639" lon="7.921796">
        <ele>412.093058</ele>
        <time>2021-11-13T13:32:50.709Z</time>
      </trkpt>
      <trkpt lat="47.510432" lon="7.921974">
        <ele>412.333711</ele>
        <time>2021-11-13T13:32:54.531Z</time>
      </trkpt>
      <trkpt lat="47.509688" lon="7.922616">
        <ele>413.199427</ele>
        <time>2021-11-13T13:33:11.197Z</time>
      </trkpt>
      <trkpt lat="47.509615" lon="7.922742">
        <ele>413.361049</ele>
        <time>2021-11-13T13:33:14.225Z</time>
      </trkpt>
      <trkpt lat="47.509583" lon="7.922962">
        <ele>413.674546</ele>
        <time>2021-11-13T13:33:17.011Z</time>
      </trkpt>
      <trkpt lat="47.509550" lon="7.923245">
        <ele>414.074613</ele>
        <time>2021-11-13T13:33:21.775Z</time>
      </trkpt>
      <trkpt lat="47.509595" lon="7.923295">
        <ele>414.190649</ele>
        <time>2021-11-13T13:33:22.883Z</time>
      </trkpt>
      <trkpt lat="47.509668" lon="7.923400">
        <ele>414.400556</ele>
        <time>2021-11-13T13:33:24.790Z</time>
      </trkpt>
      <trkpt lat="47.509817" lon="7.923703">
        <ele>414.922660</ele>
        <time>2021-11-13T13:33:30.948Z</time>
      </trkpt>
      <trkpt lat="47.509869" lon="7.923971">
        <ele>415.311094</ele>
        <time>2021-11-13T13:33:34.805Z</time>
      </trkpt>
      <trkpt lat="47.509886" lon="7.924134">
        <ele>415.540852</ele>
        <time>2021-11-13T13:33:38.150Z</time>
      </trkpt>
      <trkpt lat="47.509806" lon="7.924174">
        <ele>415.714996</ele>
        <time>2021-11-13T13:33:39.902Z</time>
      </trkpt>
      <trkpt lat="47.509676" lon="7.924247">
        <ele>416.001741</ele>
        <time>2021-11-13T13:33:42.776Z</time>
      </trkpt>
      <trkpt lat="47.509605" lon="7.924290">
        <ele>416.159947</ele>
        <time>2021-11-13T13:33:44.770Z</time>
      </trkpt>
      <trkpt lat="47.509572" lon="7.924311">
        <ele>416.234026</ele>
        <time>2021-11-13T13:33:46.027Z</time>
      </trkpt>
      <trkpt lat="47.509223" lon="7.924628">
        <ele>417.089760</ele>
        <time>2021-11-13T13:33:56.107Z</time>
      </trkpt>
      <trkpt lat="47.509032" lon="7.924863">
        <ele>417.657937</ele>
        <time>2021-11-13T13:34:02.001Z</time>
      </trkpt>
      <trkpt lat="47.509016" lon="7.924882">
        <ele>417.704863</ele>
        <time>2021-11-13T13:34:02.599Z</time>
      </trkpt>
      <trkpt lat="47.508667" lon="7.925295">
        <ele>418.727043</ele>
        <time>2021-11-13T13:34:13.844Z</time>
      </trkpt>
      <trkpt lat="47.508355" lon="7.925609">
        <ele>419.590156</ele>
        <time>2021-11-13T13:34:22.216Z</time>
      </trkpt>
      <trkpt lat="47.508106" lon="7.925799">
        <ele>420.231038</ele>
        <time>2021-11-13T13:34:28.531Z</time>
      </trkpt>
      <trkpt lat="47.508002" lon="7.925879">
        <ele>420.499172</ele>
        <time>2021-11-13T13:34:30.918Z</time>
      </trkpt>
      <trkpt lat="47.507856" lon="7.925990">
        <ele>420.874663</ele>
        <time>2021-11-13T13:34:34.775Z</time>
      </trkpt>
      <trkpt lat="47.506112" lon="7.927414">
        <ele>426.846716</ele>
        <time>2021-11-13T13:35:27.770Z</time>
      </trkpt>
      <trkpt lat="47.505881" lon="7.927601">
        <ele>427.755363</ele>
        <time>2021-11-13T13:35:36.466Z</time>
      </trkpt>
      <trkpt lat="47.505868" lon="7.927611">
        <ele>427.805924</ele>
        <time>2021-11-13T13:35:36.929Z</time>
      </trkpt>
      <trkpt lat="47.505814" lon="7.927657">
        <ele>428.020943</ele>
        <time>2021-11-13T13:35:39.486Z</time>
      </trkpt>
      <trkpt lat="47.505253" lon="7.928170">
        <ele>430.296685</ele>
        <time>2021-11-13T13:36:00.155Z</time>
      </trkpt>
      <trkpt lat="47.504799" lon="7.928777">
        <ele>432.408006</ele>
        <time>2021-11-13T13:36:15.555Z</time>
      </trkpt>
      <trkpt lat="47.504724" lon="7.928871">
        <ele>432.726390</ele>
        <time>2021-11-13T13:36:19.520Z</time>
      </trkpt>
      <trkpt lat="47.504650" lon="7.928941">
        <ele>432.845836</ele>
        <time>2021-11-13T13:36:22.053Z</time>
      </trkpt>
      <trkpt lat="47.504005" lon="7.929312">
        <ele>433.787031</ele>
        <time>2021-11-13T13:36:36.494Z</time>
      </trkpt>
      <trkpt lat="47.503815" lon="7.929426">
        <ele>434.065880</ele>
        <time>2021-11-13T13:36:39.454Z</time>
      </trkpt>
      <trkpt lat="47.503598" lon="7.929585">
        <ele>434.395210</ele>
        <time>2021-11-13T13:36:44.730Z</time>
      </trkpt>
      <trkpt lat="47.503528" lon="7.929650">
        <ele>434.507602</ele>
        <time>2021-11-13T13:36:45.802Z</time>
      </trkpt>
      <trkpt lat="47.503485" lon="7.929688">
        <ele>434.575718</ele>
        <time>2021-11-13T13:36:47.313Z</time>
      </trkpt>
      <trkpt lat="47.503014" lon="7.930220">
        <ele>435.291999</ele>
        <time>2021-11-13T13:36:57.225Z</time>
      </trkpt>
      <trkpt lat="47.502761" lon="7.930610">
        <ele>435.588650</ele>
        <time>2021-11-13T13:37:03.579Z</time>
      </trkpt>
      <trkpt lat="47.502613" lon="7.930856">
        <ele>435.769379</ele>
        <time>2021-11-13T13:37:07.377Z</time>
      </trkpt>
      <trkpt lat="47.502400" lon="7.931256">
        <ele>436.048818</ele>
        <time>2021-11-13T13:37:14.180Z</time>
      </trkpt>
      <trkpt lat="47.502023" lon="7.932158">
        <ele>436.627074</ele>
        <time>2021-11-13T13:37:27.167Z</time>
      </trkpt>
      <trkpt lat="47.501901" lon="7.932351">
        <ele>436.722251</ele>
        <time>2021-11-13T13:37:30.925Z</time>
      </trkpt>
      <trkpt lat="47.501794" lon="7.932466">
        <ele>436.792732</ele>
        <time>2021-11-13T13:37:32.805Z</time>
      </trkpt>
      <trkpt lat="47.501463" lon="7.932668">
        <ele>436.983569</ele>
        <time>2021-11-13T13:37:38.944Z</time>
      </trkpt>
      <trkpt lat="47.501075" lon="7.932885">
        <ele>437.204652</ele>
        <time>2021-11-13T13:37:46.483Z</time>
      </trkpt>
      <trkpt lat="47.500990" lon="7.932950">
        <ele>437.255648</ele>
        <time>2021-11-13T13:37:48.301Z</time>
      </trkpt>
      <trkpt lat="47.500843" lon="7.933102">
        <ele>437.351226</ele>
        <time>2021-11-13T13:37:51.180Z</time>
      </trkpt>
      <trkpt lat="47.500435" lon="7.933872">
        <ele>437.768705</ele>
        <time>2021-11-13T13:38:01.011Z</time>
      </trkpt>
      <trkpt lat="47.500386" lon="7.933937">
        <ele>437.822060</ele>
        <time>2021-11-13T13:38:01.871Z</time>
      </trkpt>
      <trkpt lat="47.500352" lon="7.933976">
        <ele>437.856940</ele>
        <time>2021-11-13T13:38:02.633Z</time>
      </trkpt>
      <trkpt lat="47.500275" lon="7.934029">
        <ele>437.925800</ele>
        <time>2021-11-13T13:38:03.740Z</time>
      </trkpt>
      <trkpt lat="47.500208" lon="7.934071">
        <ele>437.984802</ele>
        <time>2021-11-13T13:38:04.974Z</time>
      </trkpt>
      <trkpt lat="47.500193" lon="7.934023">
        <ele>438.013775</ele>
        <time>2021-11-13T13:38:05.452Z</time>
      </trkpt>
      <trkpt lat="47.500169" lon="7.933984">
        <ele>438.042676</ele>
        <time>2021-11-13T13:38:05.885Z</time>
      </trkpt>
      <trkpt lat="47.500138" lon="7.933956">
        <ele>438.072124</ele>
        <time>2021-11-13T13:38:06.429Z</time>
      </trkpt>
      <trkpt lat="47.500067" lon="7.933946">
        <ele>438.129958</ele>
        <time>2021-11-13T13:38:07.377Z</time>
      </trkpt>
      <trkpt lat="47.500034" lon="7.933965">
        <ele>438.158671</ele>
        <time>2021-11-13T13:38:08.196Z</time>
      </trkpt>
      <trkpt lat="47.499993" lon="7.933864">
        <ele>438.223223</ele>
        <time>2021-11-13T13:38:09.738Z</time>
      </trkpt>
      <trkpt lat="47.499822" lon="7.933272">
        <ele>438.575943</ele>
        <time>2021-11-13T13:38:17.718Z</time>
      </trkpt>
      <trkpt lat="47.499538" lon="7.932868">
        <ele>438.895352</ele>
        <time>2021-11-13T13:38:25.700Z</time>
      </trkpt>
      <trkpt lat="47.499421" lon="7.932805">
        <ele>438.996310</ele>
        <time>2021-11-13T13:38:28.754Z</time>
      </trkpt>
      <trkpt lat="47.499354" lon="7.932769">
        <ele>439.074268</ele>
        <time>2021-11-13T13:38:30.482Z</time>
      </trkpt>
      <trkpt lat="47.499088" lon="7.932741">
        <ele>439.549574</ele>
        <time>2021-11-13T13:38:36.359Z</time>
      </trkpt>
      <trkpt lat="47.498997" lon="7.932758">
        <ele>439.713056</ele>
        <time>2021-11-13T13:38:38.396Z</time>
      </trkpt>
      <trkpt lat="47.498925" lon="7.932781">
        <ele>439.844341</ele>
        <time>2021-11-13T13:38:40.103Z</time>
      </trkpt>
      <trkpt lat="47.498481" lon="7.933011">
        <ele>440.682775</ele>
        <time>2021-11-13T13:38:49.357Z</time>
      </trkpt>
      <trkpt lat="47.498431" lon="7.932995">
        <ele>440.773953</ele>
        <time>2021-11-13T13:38:50.580Z</time>
      </trkpt>
      <trkpt lat="47.498391" lon="7.932972">
        <ele>440.850438</ele>
        <time>2021-11-13T13:38:51.498Z</time>
      </trkpt>
      <trkpt lat="47.498196" lon="7.932613">
        <ele>441.405131</ele>
        <time>2021-11-13T13:38:58.222Z</time>
      </trkpt>
      <trkpt lat="47.498138" lon="7.932522">
        <ele>441.555779</ele>
        <time>2021-11-13T13:39:00.222Z</time>
      </trkpt>
      <trkpt lat="47.498068" lon="7.932426">
        <ele>441.725868</ele>
        <time>2021-11-13T13:39:02.670Z</time>
      </trkpt>
      <trkpt lat="47.497907" lon="7.932254">
        <ele>442.079768</ele>
        <time>2021-11-13T13:39:07.372Z</time>
      </trkpt>
      <trkpt lat="47.497676" lon="7.932013">
        <ele>442.539430</ele>
        <time>2021-11-13T13:39:13.850Z</time>
      </trkpt>
      <trkpt lat="47.497430" lon="7.931757">
        <ele>443.006029</ele>
        <time>2021-11-13T13:39:21.442Z</time>
      </trkpt>
      <trkpt lat="47.497221" lon="7.931528">
        <ele>443.409505</ele>
        <time>2021-11-13T13:39:27.438Z</time>
      </trkpt>
      <trkpt lat="47.497104" lon="7.931414">
        <ele>443.626850</ele>
        <time>2021-11-13T13:39:30.236Z</time>
      </trkpt>
      <trkpt lat="47.496998" lon="7.931330">
        <ele>443.813412</ele>
        <time>2021-11-13T13:39:32.648Z</time>
      </trkpt>
      <trkpt lat="47.496424" lon="7.931075">
        <ele>444.743294</ele>
        <time>2021-11-13T13:39:43.396Z</time>
      </trkpt>
      <trkpt lat="47.496205" lon="7.930904">
        <ele>445.158260</ele>
        <time>2021-11-13T13:39:47.416Z</time>
      </trkpt>
      <trkpt lat="47.496162" lon="7.930842">
        <ele>445.282044</ele>
        <time>2021-11-13T13:39:48.982Z</time>
      </trkpt>
      <trkpt lat="47.496117" lon="7.930763">
        <ele>445.426000</ele>
        <time>2021-11-13T13:39:50.250Z</time>
      </trkpt>
      <trkpt lat="47.496051" lon="7.930607">
        <ele>445.682427</ele>
        <time>2021-11-13T13:39:53.032Z</time>
      </trkpt>
      <trkpt lat="47.495985" lon="7.930428">
        <ele>445.966523</ele>
        <time>2021-11-13T13:39:55.864Z</time>
      </trkpt>
      <trkpt lat="47.495801" lon="7.929891">
        <ele>446.805364</ele>
        <time>2021-11-13T13:40:05.521Z</time>
      </trkpt>
      <trkpt lat="47.495622" lon="7.929400">
        <ele>447.582640</ele>
        <time>2021-11-13T13:40:14.134Z</time>
      </trkpt>
      <trkpt lat="47.495562" lon="7.929221">
        <ele>447.861023</ele>
        <time>2021-11-13T13:40:17.094Z</time>
      </trkpt>
      <trkpt lat="47.495530" lon="7.929063">
        <ele>448.090823</ele>
        <time>2021-11-13T13:40:19.568Z</time>
      </trkpt>
      <trkpt lat="47.495455" lon="7.928595">
        <ele>448.775266</ele>
        <time>2021-11-13T13:40:28.395Z</time>
      </trkpt>
      <trkpt lat="47.495268" lon="7.927740">
        <ele>451.014027</ele>
        <time>2021-11-13T13:40:45.404Z</time>
      </trkpt>
      <trkpt lat="47.495031" lon="7.927006">
        <ele>453.040619</ele>
        <time>2021-11-13T13:41:02.306Z</time>
      </trkpt>
      <trkpt lat="47.494945" lon="7.926765">
        <ele>453.719585</ele>
        <time>2021-11-13T13:41:08.950Z</time>
      </trkpt>
      <trkpt lat="47.494515" lon="7.925509">
        <ele>457.154108</ele>
        <time>2021-11-13T13:41:37.369Z</time>
      </trkpt>
      <trkpt lat="47.494438" lon="7.925289">
        <ele>457.746967</ele>
        <time>2021-11-13T13:41:42.802Z</time>
      </trkpt>
      <trkpt lat="47.494034" lon="7.924101">
        <ele>460.929417</ele>
        <time>2021-11-13T13:42:07.865Z</time>
      </trkpt>
      <trkpt lat="47.493708" lon="7.923049">
        <ele>463.734258</ele>
        <time>2021-11-13T13:42:29.437Z</time>
      </trkpt>
      <trkpt lat="47.493397" lon="7.921760">
        <ele>467.068783</ele>
        <time>2021-11-13T13:42:56.417Z</time>
      </trkpt>
      <trkpt lat="47.493307" lon="7.921373">
        <ele>468.065897</ele>
        <time>2021-11-13T13:43:04.911Z</time>
      </trkpt>
      <trkpt lat="47.493236" lon="7.921091">
        <ele>468.962322</ele>
        <time>2021-11-13T13:43:11.292Z</time>
      </trkpt>
      <trkpt lat="47.493132" lon="7.920716">
        <ele>470.232977</ele>
        <time>2021-11-13T13:43:20.342Z</time>
      </trkpt>
      <trkpt lat="47.492813" lon="7.919900">
        <ele>473.188124</ele>
        <time>2021-11-13T13:43:41.825Z</time>
      </trkpt>
      <trkpt lat="47.492584" lon="7.919482">
        <ele>474.874994</ele>
        <time>2021-11-13T13:43:54.597Z</time>
      </trkpt>
      <trkpt lat="47.492227" lon="7.918989">
        <ele>477.088278</ele>
        <time>2021-11-13T13:44:11.499Z</time>
      </trkpt>
      <trkpt lat="47.491324" lon="7.917985">
        <ele>481.847342</ele>
        <time>2021-11-13T13:44:48.284Z</time>
      </trkpt>
      <trkpt lat="47.490822" lon="7.917158">
        <ele>484.707592</ele>
        <time>2021-11-13T13:45:10.444Z</time>
      </trkpt>
      <trkpt lat="47.490607" lon="7.916690">
        <ele>485.747369</ele>
        <time>2021-11-13T13:45:20.642Z</time>
      </trkpt>
      <trkpt lat="47.490429" lon="7.916164">
        <ele>486.828227</ele>
        <time>2021-11-13T13:45:30.511Z</time>
      </trkpt>
      <trkpt lat="47.490283" lon="7.915612">
        <ele>487.917364</ele>
        <time>2021-11-13T13:45:40.339Z</time>
      </trkpt>
      <trkpt lat="47.489987" lon="7.914083">
        <ele>490.684590</ele>
        <time>2021-11-13T13:46:06.120Z</time>
      </trkpt>
      <trkpt lat="47.489951" lon="7.913893">
        <ele>491.015846</ele>
        <time>2021-11-13T13:46:09.113Z</time>
      </trkpt>
      <trkpt lat="47.489922" lon="7.913738">
        <ele>491.285835</ele>
        <time>2021-11-13T13:46:11.618Z</time>
      </trkpt>
      <trkpt lat="47.489843" lon="7.913398">
        <ele>491.889397</ele>
        <time>2021-11-13T13:46:16.965Z</time>
      </trkpt>
      <trkpt lat="47.489607" lon="7.912646">
        <ele>493.281296</ele>
        <time>2021-11-13T13:46:31.194Z</time>
      </trkpt>
      <trkpt lat="47.489216" lon="7.911685">
        <ele>496.142124</ele>
        <time>2021-11-13T13:46:53.508Z</time>
      </trkpt>
      <trkpt lat="47.489040" lon="7.911300">
        <ele>497.384110</ele>
        <time>2021-11-13T13:47:02.975Z</time>
      </trkpt>
      <trkpt lat="47.488908" lon="7.911009">
        <ele>498.320587</ele>
        <time>2021-11-13T13:47:11.536Z</time>
      </trkpt>
      <trkpt lat="47.488699" lon="7.910498">
        <ele>499.916579</ele>
        <time>2021-11-13T13:47:25.199Z</time>
      </trkpt>
      <trkpt lat="47.488366" lon="7.909318">
        <ele>502.972029</ele>
        <time>2021-11-13T13:47:51.071Z</time>
      </trkpt>
      <trkpt lat="47.488241" lon="7.908835">
        <ele>504.169684</ele>
        <time>2021-11-13T13:48:00.258Z</time>
      </trkpt>
      <trkpt lat="47.488185" lon="7.908663">
        <ele>504.611787</ele>
        <time>2021-11-13T13:48:04.309Z</time>
      </trkpt>
      <trkpt lat="47.488080" lon="7.908344">
        <ele>505.433438</ele>
        <time>2021-11-13T13:48:10.271Z</time>
      </trkpt>
      <trkpt lat="47.487763" lon="7.907711">
        <ele>507.295307</ele>
        <time>2021-11-13T13:48:25.328Z</time>
      </trkpt>
      <trkpt lat="47.487587" lon="7.907459">
        <ele>508.201305</ele>
        <time>2021-11-13T13:48:31.788Z</time>
      </trkpt>
      <trkpt lat="47.487378" lon="7.907191">
        <ele>509.224399</ele>
        <time>2021-11-13T13:48:38.986Z</time>
      </trkpt>
      <trkpt lat="47.487197" lon="7.906946">
        <ele>510.131882</ele>
        <time>2021-11-13T13:48:45.128Z</time>
      </trkpt>
      <trkpt lat="47.486969" lon="7.906583">
        <ele>511.370839</ele>
        <time>2021-11-13T13:48:53.436Z</time>
      </trkpt>
      <trkpt lat="47.486769" lon="7.905976">
        <ele>513.059102</ele>
        <time>2021-11-13T13:49:09.465Z</time>
      </trkpt>
      <trkpt lat="47.486724" lon="7.905485">
        <ele>514.844836</ele>
        <time>2021-11-13T13:49:22.137Z</time>
      </trkpt>
      <trkpt lat="47.486755" lon="7.904487">
        <ele>518.938052</ele>
        <time>2021-11-13T13:49:49.003Z</time>
      </trkpt>
      <trkpt lat="47.486721" lon="7.904326">
        <ele>519.629144</ele>
        <time>2021-11-13T13:49:54.019Z</time>
      </trkpt>
      <trkpt lat="47.486688" lon="7.904238">
        <ele>520.041482</ele>
        <time>2021-11-13T13:49:57.173Z</time>
      </trkpt>
      <trkpt lat="47.486480" lon="7.904016">
        <ele>521.596360</ele>
        <time>2021-11-13T13:50:06.278Z</time>
      </trkpt>
      <trkpt lat="47.486247" lon="7.904043">
        <ele>523.013348</ele>
        <time>2021-11-13T13:50:14.945Z</time>
      </trkpt>
      <trkpt lat="47.486049" lon="7.904262">
        <ele>524.452505</ele>
        <time>2021-11-13T13:50:26.341Z</time>
      </trkpt>
      <trkpt lat="47.485593" lon="7.905145">
        <ele>527.365945</ele>
        <time>2021-11-13T13:50:56.107Z</time>
      </trkpt>
      <trkpt lat="47.485331" lon="7.905337">
        <ele>528.500166</ele>
        <time>2021-11-13T13:51:04.691Z</time>
      </trkpt>
      <trkpt lat="47.485073" lon="7.905345">
        <ele>529.501280</ele>
        <time>2021-11-13T13:51:11.304Z</time>
      </trkpt>
      <trkpt lat="47.485049" lon="7.905336">
        <ele>529.597329</ele>
        <time>2021-11-13T13:51:12.901Z</time>
      </trkpt>
      <trkpt lat="47.484936" lon="7.905289">
        <ele>530.052693</ele>
        <time>2021-11-13T13:51:15.529Z</time>
      </trkpt>
      <trkpt lat="47.484713" lon="7.905133">
        <ele>531.009608</ele>
        <time>2021-11-13T13:51:21.149Z</time>
      </trkpt>
      <trkpt lat="47.484481" lon="7.904947">
        <ele>530.765661</ele>
        <time>2021-11-13T13:51:24.526Z</time>
      </trkpt>
      <trkpt lat="47.484248" lon="7.904856">
        <ele>530.028840</ele>
        <time>2021-11-13T13:51:27.554Z</time>
      </trkpt>
      <trkpt lat="47.484124" lon="7.904824">
        <ele>529.643974</ele>
        <time>2021-11-13T13:51:29.032Z</time>
      </trkpt>
      <trkpt lat="47.484064" lon="7.904808">
        <ele>529.457562</ele>
        <time>2021-11-13T13:51:29.700Z</time>
      </trkpt>
      <trkpt lat="47.484005" lon="7.904793">
        <ele>529.274520</ele>
        <time>2021-11-13T13:51:30.432Z</time>
      </trkpt>
      <trkpt lat="47.483385" lon="7.904708">
        <ele>527.370681</ele>
        <time>2021-11-13T13:51:36.886Z</time>
      </trkpt>
      <trkpt lat="47.483329" lon="7.904705">
        <ele>527.199343</ele>
        <time>2021-11-13T13:51:37.394Z</time>
      </trkpt>
      <trkpt lat="47.483101" lon="7.904680">
        <ele>526.500296</ele>
        <time>2021-11-13T13:51:39.523Z</time>
      </trkpt>
      <trkpt lat="47.482433" lon="7.904538">
        <ele>522.686485</ele>
        <time>2021-11-13T13:51:45.494Z</time>
      </trkpt>
      <trkpt lat="47.482157" lon="7.904346">
        <ele>520.577997</ele>
        <time>2021-11-13T13:51:48.208Z</time>
      </trkpt>
      <trkpt lat="47.481709" lon="7.903892">
        <ele>516.823979</ele>
        <time>2021-11-13T13:51:53.046Z</time>
      </trkpt>
      <trkpt lat="47.481588" lon="7.903776">
        <ele>515.827210</ele>
        <time>2021-11-13T13:51:54.332Z</time>
      </trkpt>
      <trkpt lat="47.481478" lon="7.903693">
        <ele>514.973550</ele>
        <time>2021-11-13T13:51:55.465Z</time>
      </trkpt>
      <trkpt lat="47.480980" lon="7.903461">
        <ele>511.827718</ele>
        <time>2021-11-13T13:52:00.295Z</time>
      </trkpt>
      <trkpt lat="47.478367" lon="7.903166">
        <ele>497.486584</ele>
        <time>2021-11-13T13:52:24.928Z</time>
      </trkpt>
      <trkpt lat="47.478182" lon="7.903109">
        <ele>496.416362</ele>
        <time>2021-11-13T13:52:26.671Z</time>
      </trkpt>
      <trkpt lat="47.478118" lon="7.903075">
        <ele>496.031242</ele>
        <time>2021-11-13T13:52:27.269Z</time>
      </trkpt>
      <trkpt lat="47.476982" lon="7.902234">
        <ele>488.299540</ele>
        <time>2021-11-13T13:52:38.763Z</time>
      </trkpt>
      <trkpt lat="47.476536" lon="7.901977">
        <ele>485.283824</ele>
        <time>2021-11-13T13:52:43.131Z</time>
      </trkpt>
      <trkpt lat="47.476364" lon="7.901870">
        <ele>484.108203</ele>
        <time>2021-11-13T13:52:44.826Z</time>
      </trkpt>
      <trkpt lat="47.475300" lon="7.901112">
        <ele>477.329369</ele>
        <time>2021-11-13T13:52:55.735Z</time>
      </trkpt>
      <trkpt lat="47.475163" lon="7.901034">
        <ele>476.513489</ele>
        <time>2021-11-13T13:52:57.061Z</time>
      </trkpt>
      <trkpt lat="47.474888" lon="7.900841">
        <ele>474.821792</ele>
        <time>2021-11-13T13:52:59.913Z</time>
      </trkpt>
      <trkpt lat="47.474617" lon="7.900560">
        <ele>472.982482</ele>
        <time>2021-11-13T13:53:03.043Z</time>
      </trkpt>
      <trkpt lat="47.474336" lon="7.900125">
        <ele>470.941705</ele>
        <time>2021-11-13T13:53:06.884Z</time>
      </trkpt>
      <trkpt lat="47.474186" lon="7.899915">
        <ele>469.955232</ele>
        <time>2021-11-13T13:53:08.819Z</time>
      </trkpt>
      <trkpt lat="47.474087" lon="7.899774">
        <ele>469.298809</ele>
        <time>2021-11-13T13:53:10.130Z</time>
      </trkpt>
      <trkpt lat="47.473931" lon="7.899567">
        <ele>468.297817</ele>
        <time>2021-11-13T13:53:12.090Z</time>
      </trkpt>
      <trkpt lat="47.473317" lon="7.898945">
        <ele>464.743180</ele>
        <time>2021-11-13T13:53:19.330Z</time>
      </trkpt>
      <trkpt lat="47.471910" lon="7.898392">
        <ele>457.214713</ele>
        <time>2021-11-13T13:53:32.924Z</time>
      </trkpt>
      <trkpt lat="47.471825" lon="7.898370">
        <ele>456.762419</ele>
        <time>2021-11-13T13:53:33.712Z</time>
      </trkpt>
      <trkpt lat="47.471597" lon="7.898344">
        <ele>455.563814</ele>
        <time>2021-11-13T13:53:35.864Z</time>
      </trkpt>
      <trkpt lat="47.471002" lon="7.898222">
        <ele>452.713590</ele>
        <time>2021-11-13T13:53:41.459Z</time>
      </trkpt>
      <trkpt lat="47.469999" lon="7.897879">
        <ele>448.187481</ele>
        <time>2021-11-13T13:53:51.210Z</time>
      </trkpt>
      <trkpt lat="47.469806" lon="7.897795">
        <ele>447.302969</ele>
        <time>2021-11-13T13:53:53.239Z</time>
      </trkpt>
      <trkpt lat="47.469534" lon="7.897638">
        <ele>446.224357</ele>
        <time>2021-11-13T13:53:56.325Z</time>
      </trkpt>
      <trkpt lat="47.469598" lon="7.897405">
        <ele>445.929659</ele>
        <time>2021-11-13T13:53:58.116Z</time>
      </trkpt>
      <trkpt lat="47.469652" lon="7.897139">
        <ele>445.604219</ele>
        <time>2021-11-13T13:54:00.140Z</time>
      </trkpt>
      <trkpt lat="47.469678" lon="7.896938">
        <ele>445.364422</ele>
        <time>2021-11-13T13:54:01.603Z</time>
      </trkpt>
      <trkpt lat="47.469692" lon="7.896826">
        <ele>445.230961</ele>
        <time>2021-11-13T13:54:02.499Z</time>
      </trkpt>
      <trkpt lat="47.469738" lon="7.896220">
        <ele>444.516414</ele>
        <time>2021-11-13T13:54:07.092Z</time>
      </trkpt>
      <trkpt lat="47.469747" lon="7.895922">
        <ele>444.166882</ele>
        <time>2021-11-13T13:54:09.328Z</time>
      </trkpt>
      <trkpt lat="47.469734" lon="7.895575">
        <ele>443.759659</ele>
        <time>2021-11-13T13:54:12.369Z</time>
      </trkpt>
      <trkpt lat="47.469728" lon="7.895384">
        <ele>443.535612</ele>
        <time>2021-11-13T13:54:13.962Z</time>
      </trkpt>
      <trkpt lat="47.469714" lon="7.895204">
        <ele>443.323305</ele>
        <time>2021-11-13T13:54:15.636Z</time>
      </trkpt>
      <trkpt lat="47.469691" lon="7.894970">
        <ele>443.162957</ele>
        <time>2021-11-13T13:54:17.773Z</time>
      </trkpt>
      <trkpt lat="47.469658" lon="7.894567">
        <ele>442.973777</ele>
        <time>2021-11-13T13:54:21.442Z</time>
      </trkpt>
      <trkpt lat="47.469623" lon="7.894244">
        <ele>442.821330</ele>
        <time>2021-11-13T13:54:24.405Z</time>
      </trkpt>
      <trkpt lat="47.469496" lon="7.893085">
        <ele>442.274159</ele>
        <time>2021-11-13T13:54:34.661Z</time>
      </trkpt>
      <trkpt lat="47.469288" lon="7.891996">
        <ele>441.612409</ele>
        <time>2021-11-13T13:54:44.173Z</time>
      </trkpt>
      <trkpt lat="47.468951" lon="7.890216">
        <ele>440.293876</ele>
        <time>2021-11-13T13:54:59.190Z</time>
      </trkpt>
      <trkpt lat="47.468718" lon="7.888938">
        <ele>439.676851</ele>
        <time>2021-11-13T13:55:10.068Z</time>
      </trkpt>
      <trkpt lat="47.468546" lon="7.888014">
        <ele>439.290463</ele>
        <time>2021-11-13T13:55:18.395Z</time>
      </trkpt>
      <trkpt lat="47.468250" lon="7.886308">
        <ele>440.120632</ele>
        <time>2021-11-13T13:55:36.641Z</time>
      </trkpt>
      <trkpt lat="47.468174" lon="7.885724">
        <ele>440.703307</ele>
        <time>2021-11-13T13:55:45.495Z</time>
      </trkpt>
      <trkpt lat="47.468160" lon="7.885412">
        <ele>441.009660</ele>
        <time>2021-11-13T13:55:50.563Z</time>
      </trkpt>
      <trkpt lat="47.468160" lon="7.885131">
        <ele>441.284968</ele>
        <time>2021-11-13T13:55:55.216Z</time>
      </trkpt>
      <trkpt lat="47.468170" lon="7.884753">
        <ele>441.676256</ele>
        <time>2021-11-13T13:56:01.321Z</time>
      </trkpt>
      <trkpt lat="47.468175" lon="7.884477">
        <ele>442.235369</ele>
        <time>2021-11-13T13:56:07.043Z</time>
      </trkpt>
      <trkpt lat="47.468125" lon="7.883951">
        <ele>443.311021</ele>
        <time>2021-11-13T13:56:18.279Z</time>
      </trkpt>
      <trkpt lat="47.468085" lon="7.883534">
        <ele>444.163925</ele>
        <time>2021-11-13T13:56:26.542Z</time>
      </trkpt>
      <trkpt lat="47.467832" lon="7.882502">
        <ele>446.386961</ele>
        <time>2021-11-13T13:56:48.122Z</time>
      </trkpt>
      <trkpt lat="47.467789" lon="7.882188">
        <ele>447.012441</ele>
        <time>2021-11-13T13:56:53.758Z</time>
      </trkpt>
      <trkpt lat="47.467755" lon="7.881902">
        <ele>446.403707</ele>
        <time>2021-11-13T13:56:57.874Z</time>
      </trkpt>
      <trkpt lat="47.467712" lon="7.880819">
        <ele>444.129530</ele>
        <time>2021-11-13T13:57:06.648Z</time>
      </trkpt>
      <trkpt lat="47.467695" lon="7.879712">
        <ele>441.808355</ele>
        <time>2021-11-13T13:57:13.517Z</time>
      </trkpt>
      <trkpt lat="47.467758" lon="7.879308">
        <ele>440.184512</ele>
        <time>2021-11-13T13:57:16.003Z</time>
      </trkpt>
      <trkpt lat="47.467814" lon="7.879126">
        <ele>439.141997</ele>
        <time>2021-11-13T13:57:17.172Z</time>
      </trkpt>
      <trkpt lat="47.467908" lon="7.878819">
        <ele>437.384942</ele>
        <time>2021-11-13T13:57:19.199Z</time>
      </trkpt>
      <trkpt lat="47.468067" lon="7.878427">
        <ele>435.001618</ele>
        <time>2021-11-13T13:57:21.970Z</time>
      </trkpt>
      <trkpt lat="47.468104" lon="7.878354">
        <ele>434.525943</ele>
        <time>2021-11-13T13:57:22.482Z</time>
      </trkpt>
      <trkpt lat="47.468268" lon="7.878083">
        <ele>432.629679</ele>
        <time>2021-11-13T13:57:24.687Z</time>
      </trkpt>
      <trkpt lat="47.468308" lon="7.877998">
        <ele>432.089738</ele>
        <time>2021-11-13T13:57:25.317Z</time>
      </trkpt>
      <trkpt lat="47.468327" lon="7.877957">
        <ele>431.830585</ele>
        <time>2021-11-13T13:57:25.595Z</time>
      </trkpt>
      <trkpt lat="47.468377" lon="7.877826">
        <ele>431.046287</ele>
        <time>2021-11-13T13:57:26.473Z</time>
      </trkpt>
      <trkpt lat="47.468557" lon="7.876917">
        <ele>426.855696</ele>
        <time>2021-11-13T13:57:32.141Z</time>
      </trkpt>
      <trkpt lat="47.468639" lon="7.876439">
        <ele>425.594654</ele>
        <time>2021-11-13T13:57:35.334Z</time>
      </trkpt>
      <trkpt lat="47.468698" lon="7.876140">
        <ele>424.798171</ele>
        <time>2021-11-13T13:57:37.421Z</time>
      </trkpt>
      <trkpt lat="47.468806" lon="7.875696">
        <ele>423.591552</ele>
        <time>2021-11-13T13:57:40.693Z</time>
      </trkpt>
      <trkpt lat="47.468925" lon="7.875205">
        <ele>422.257760</ele>
        <time>2021-11-13T13:57:44.627Z</time>
      </trkpt>
      <trkpt lat="47.468989" lon="7.874967">
        <ele>421.602787</ele>
        <time>2021-11-13T13:57:46.443Z</time>
      </trkpt>
      <trkpt lat="47.469050" lon="7.874738">
        <ele>420.973390</ele>
        <time>2021-11-13T13:57:48.306Z</time>
      </trkpt>
      <trkpt lat="47.469068" lon="7.874689">
        <ele>420.830787</ele>
        <time>2021-11-13T13:57:48.709Z</time>
      </trkpt>
      <trkpt lat="47.469097" lon="7.874606">
        <ele>420.680004</ele>
        <time>2021-11-13T13:57:49.364Z</time>
      </trkpt>
      <trkpt lat="47.469136" lon="7.874516">
        <ele>420.540752</ele>
        <time>2021-11-13T13:57:50.124Z</time>
      </trkpt>
      <trkpt lat="47.469173" lon="7.874432">
        <ele>420.410155</ele>
        <time>2021-11-13T13:57:50.880Z</time>
      </trkpt>
      <trkpt lat="47.469224" lon="7.874328">
        <ele>420.242794</ele>
        <time>2021-11-13T13:57:51.886Z</time>
      </trkpt>
      <trkpt lat="47.469422" lon="7.873965">
        <ele>419.635220</ele>
        <time>2021-11-13T13:57:55.348Z</time>
      </trkpt>
      <trkpt lat="47.469489" lon="7.873809">
        <ele>419.394471</ele>
        <time>2021-11-13T13:57:56.753Z</time>
      </trkpt>
      <trkpt lat="47.469626" lon="7.873477">
        <ele>418.887805</ele>
        <time>2021-11-13T13:57:59.650Z</time>
      </trkpt>
      <trkpt lat="47.469682" lon="7.873326">
        <ele>418.663459</ele>
        <time>2021-11-13T13:58:00.978Z</time>
      </trkpt>
      <trkpt lat="47.469710" lon="7.873249">
        <ele>418.549569</ele>
        <time>2021-11-13T13:58:01.569Z</time>
      </trkpt>
      <trkpt lat="47.469969" lon="7.872276">
        <ele>417.214853</ele>
        <time>2021-11-13T13:58:09.516Z</time>
      </trkpt>
      <trkpt lat="47.470156" lon="7.871491">
        <ele>416.382181</ele>
        <time>2021-11-13T13:58:15.858Z</time>
      </trkpt>
      <trkpt lat="47.470217" lon="7.871214">
        <ele>416.090730</ele>
        <time>2021-11-13T13:58:18.019Z</time>
      </trkpt>
      <trkpt lat="47.470245" lon="7.871088">
        <ele>415.958040</ele>
        <time>2021-11-13T13:58:19.033Z</time>
      </trkpt>
      <trkpt lat="47.470316" lon="7.870753">
        <ele>415.606812</ele>
        <time>2021-11-13T13:58:21.853Z</time>
      </trkpt>
      <trkpt lat="47.470333" lon="7.870669">
        <ele>415.519091</ele>
        <time>2021-11-13T13:58:22.497Z</time>
      </trkpt>
      <trkpt lat="47.470350" lon="7.870570">
        <ele>415.416904</ele>
        <time>2021-11-13T13:58:23.289Z</time>
      </trkpt>
      <trkpt lat="47.470379" lon="7.870338">
        <ele>415.180871</ele>
        <time>2021-11-13T13:58:25.234Z</time>
      </trkpt>
      <trkpt lat="47.470397" lon="7.870147">
        <ele>414.987943</ele>
        <time>2021-11-13T13:58:27.365Z</time>
      </trkpt>
      <trkpt lat="47.470378" lon="7.869626">
        <ele>414.559747</ele>
        <time>2021-11-13T13:58:33.375Z</time>
      </trkpt>
      <trkpt lat="47.470309" lon="7.869201">
        <ele>414.353230</ele>
        <time>2021-11-13T13:58:38.664Z</time>
      </trkpt>
      <trkpt lat="47.470234" lon="7.868884">
        <ele>414.194542</ele>
        <time>2021-11-13T13:58:42.719Z</time>
      </trkpt>
      <trkpt lat="47.470127" lon="7.868484">
        <ele>413.991286</ele>
        <time>2021-11-13T13:58:48.173Z</time>
      </trkpt>
      <trkpt lat="47.469915" lon="7.867494">
        <ele>413.500611</ele>
        <time>2021-11-13T13:59:01.340Z</time>
      </trkpt>
      <trkpt lat="47.469808" lon="7.866690">
        <ele>412.894885</ele>
        <time>2021-11-13T13:59:11.064Z</time>
      </trkpt>
      <trkpt lat="47.469764" lon="7.866452">
        <ele>412.684984</ele>
        <time>2021-11-13T13:59:14.072Z</time>
      </trkpt>
      <trkpt lat="47.469710" lon="7.866208">
        <ele>412.466573</ele>
        <time>2021-11-13T13:59:17.036Z</time>
      </trkpt>
      <trkpt lat="47.469629" lon="7.865918">
        <ele>412.199640</ele>
        <time>2021-11-13T13:59:20.784Z</time>
      </trkpt>
      <trkpt lat="47.469305" lon="7.864692">
        <ele>411.061411</ele>
        <time>2021-11-13T13:59:35.156Z</time>
      </trkpt>
      <trkpt lat="47.469011" lon="7.863405">
        <ele>409.412732</ele>
        <time>2021-11-13T13:59:49.857Z</time>
      </trkpt>
      <trkpt lat="47.468986" lon="7.863323">
        <ele>409.303563</ele>
        <time>2021-11-13T13:59:50.714Z</time>
      </trkpt>
      <trkpt lat="47.468943" lon="7.863195">
        <ele>409.130097</ele>
        <time>2021-11-13T13:59:52.271Z</time>
      </trkpt>
      <trkpt lat="47.468859" lon="7.862978">
        <ele>408.826622</ele>
        <time>2021-11-13T13:59:55.041Z</time>
      </trkpt>
      <trkpt lat="47.468825" lon="7.862900">
        <ele>408.713986</ele>
        <time>2021-11-13T13:59:55.998Z</time>
      </trkpt>
      <trkpt lat="47.468543" lon="7.862357">
        <ele>407.886774</ele>
        <time>2021-11-13T14:00:03.425Z</time>
      </trkpt>
      <trkpt lat="47.468224" lon="7.861805">
        <ele>407.313998</ele>
        <time>2021-11-13T14:00:11.600Z</time>
      </trkpt>
      <trkpt lat="47.467944" lon="7.861300">
        <ele>406.798857</ele>
        <time>2021-11-13T14:00:18.980Z</time>
      </trkpt>
      <trkpt lat="47.467266" lon="7.860107">
        <ele>405.592858</ele>
        <time>2021-11-13T14:00:37.723Z</time>
      </trkpt>
      <trkpt lat="47.467047" lon="7.859682">
        <ele>405.214853</ele>
        <time>2021-11-13T14:00:43.924Z</time>
      </trkpt>
      <trkpt lat="47.466922" lon="7.859398">
        <ele>404.975136</ele>
        <time>2021-11-13T14:00:47.888Z</time>
      </trkpt>
      <trkpt lat="47.466824" lon="7.859137">
        <ele>404.763949</ele>
        <time>2021-11-13T14:00:51.586Z</time>
      </trkpt>
      <trkpt lat="47.466673" lon="7.858620">
        <ele>404.365571</ele>
        <time>2021-11-13T14:00:58.141Z</time>
      </trkpt>
      <trkpt lat="47.466576" lon="7.858236">
        <ele>404.075600</ele>
        <time>2021-11-13T14:01:02.842Z</time>
      </trkpt>
      <trkpt lat="47.466518" lon="7.858022">
        <ele>403.912141</ele>
        <time>2021-11-13T14:01:04.644Z</time>
      </trkpt>
      <trkpt lat="47.466347" lon="7.856973">
        <ele>402.761908</ele>
        <time>2021-11-13T14:01:13.078Z</time>
      </trkpt>
      <trkpt lat="47.466344" lon="7.856945">
        <ele>402.731689</ele>
        <time>2021-11-13T14:01:13.259Z</time>
      </trkpt>
      <trkpt lat="47.466322" lon="7.856655">
        <ele>402.420622</ele>
        <time>2021-11-13T14:01:15.626Z</time>
      </trkpt>
      <trkpt lat="47.466310" lon="7.856541">
        <ele>402.297639</ele>
        <time>2021-11-13T14:01:16.499Z</time>
      </trkpt>
      <trkpt lat="47.466334" lon="7.856525">
        <ele>402.256130</ele>
        <time>2021-11-13T14:01:16.809Z</time>
      </trkpt>
      <trkpt lat="47.466353" lon="7.856496">
        <ele>402.213081</ele>
        <time>2021-11-13T14:01:17.118Z</time>
      </trkpt>
      <trkpt lat="47.466361" lon="7.856459">
        <ele>402.171673</ele>
        <time>2021-11-13T14:01:17.385Z</time>
      </trkpt>
      <trkpt lat="47.466359" lon="7.856420">
        <ele>402.129981</ele>
        <time>2021-11-13T14:01:17.677Z</time>
      </trkpt>
      <trkpt lat="47.466324" lon="7.856362">
        <ele>402.047107</ele>
        <time>2021-11-13T14:01:18.314Z</time>
      </trkpt>
      <trkpt lat="47.466298" lon="7.856354">
        <ele>402.005233</ele>
        <time>2021-11-13T14:01:18.624Z</time>
      </trkpt>
      <trkpt lat="47.466295" lon="7.856234">
        <ele>401.877231</ele>
        <time>2021-11-13T14:01:19.544Z</time>
      </trkpt>
      <trkpt lat="47.466298" lon="7.855895">
        <ele>401.515842</ele>
        <time>2021-11-13T14:01:22.054Z</time>
      </trkpt>
      <trkpt lat="47.466324" lon="7.855062">
        <ele>400.665489</ele>
        <time>2021-11-13T14:01:28.432Z</time>
      </trkpt>
      <trkpt lat="47.466332" lon="7.854775">
        <ele>400.385508</ele>
        <time>2021-11-13T14:01:30.611Z</time>
      </trkpt>
      <trkpt lat="47.466338" lon="7.854554">
        <ele>400.169923</ele>
        <time>2021-11-13T14:01:32.297Z</time>
      </trkpt>
      <trkpt lat="47.466331" lon="7.853936">
        <ele>399.567465</ele>
        <time>2021-11-13T14:01:37.138Z</time>
      </trkpt>
      <trkpt lat="47.466256" lon="7.853287">
        <ele>398.925699</ele>
        <time>2021-11-13T14:01:42.399Z</time>
      </trkpt>
      <trkpt lat="47.465906" lon="7.851776">
        <ele>397.618124</ele>
        <time>2021-11-13T14:01:55.389Z</time>
      </trkpt>
      <trkpt lat="47.465871" lon="7.851620">
        <ele>397.493733</ele>
        <time>2021-11-13T14:01:56.703Z</time>
      </trkpt>
      <trkpt lat="47.465896" lon="7.851603">
        <ele>397.462930</ele>
        <time>2021-11-13T14:01:57.031Z</time>
      </trkpt>
      <trkpt lat="47.465931" lon="7.851497">
        <ele>397.373653</ele>
        <time>2021-11-13T14:01:58.023Z</time>
      </trkpt>
      <trkpt lat="47.465925" lon="7.851458">
        <ele>397.343384</ele>
        <time>2021-11-13T14:01:58.347Z</time>
      </trkpt>
      <trkpt lat="47.465914" lon="7.851427">
        <ele>397.316888</ele>
        <time>2021-11-13T14:01:58.631Z</time>
      </trkpt>
      <trkpt lat="47.465853" lon="7.851380">
        <ele>397.239892</ele>
        <time>2021-11-13T14:01:59.480Z</time>
      </trkpt>
      <trkpt lat="47.465829" lon="7.851383">
        <ele>397.212929</ele>
        <time>2021-11-13T14:01:59.766Z</time>
      </trkpt>
      <trkpt lat="47.465714" lon="7.850917">
        <ele>396.837500</ele>
        <time>2021-11-13T14:02:03.832Z</time>
      </trkpt>
      <trkpt lat="47.465620" lon="7.850585">
        <ele>396.565097</ele>
        <time>2021-11-13T14:02:06.783Z</time>
      </trkpt>
      <trkpt lat="47.465558" lon="7.850405">
        <ele>396.401350</ele>
        <time>2021-11-13T14:02:08.454Z</time>
      </trkpt>
      <trkpt lat="47.465348" lon="7.849875">
        <ele>395.849458</ele>
        <time>2021-11-13T14:02:13.348Z</time>
      </trkpt>
      <trkpt lat="47.465152" lon="7.849351">
        <ele>395.311458</ele>
        <time>2021-11-13T14:02:18.063Z</time>
      </trkpt>
      <trkpt lat="47.464952" lon="7.848443">
        <ele>394.453524</ele>
        <time>2021-11-13T14:02:25.553Z</time>
      </trkpt>
      <trkpt lat="47.464909" lon="7.848219">
        <ele>394.244332</ele>
        <time>2021-11-13T14:02:27.397Z</time>
      </trkpt>
      <trkpt lat="47.464850" lon="7.847870">
        <ele>393.949851</ele>
        <time>2021-11-13T14:02:30.198Z</time>
      </trkpt>
      <trkpt lat="47.464820" lon="7.847644">
        <ele>393.780314</ele>
        <time>2021-11-13T14:02:32.110Z</time>
      </trkpt>
      <trkpt lat="47.464784" lon="7.847333">
        <ele>393.548053</ele>
        <time>2021-11-13T14:02:34.617Z</time>
      </trkpt>
      <trkpt lat="47.464771" lon="7.847028">
        <ele>393.323094</ele>
        <time>2021-11-13T14:02:37.113Z</time>
      </trkpt>
      <trkpt lat="47.464737" lon="7.846119">
        <ele>392.652948</ele>
        <time>2021-11-13T14:02:44.427Z</time>
      </trkpt>
      <trkpt lat="47.464585" lon="7.844988">
        <ele>392.033767</ele>
        <time>2021-11-13T14:02:54.223Z</time>
      </trkpt>
      <trkpt lat="47.464433" lon="7.844273">
        <ele>391.881087</ele>
        <time>2021-11-13T14:03:00.938Z</time>
      </trkpt>
      <trkpt lat="47.464386" lon="7.844088">
        <ele>391.840829</ele>
        <time>2021-11-13T14:03:02.586Z</time>
      </trkpt>
      <trkpt lat="47.464354" lon="7.843960">
        <ele>391.813029</ele>
        <time>2021-11-13T14:03:03.989Z</time>
      </trkpt>
      <trkpt lat="47.464234" lon="7.843434">
        <ele>391.699944</ele>
        <time>2021-11-13T14:03:09.161Z</time>
      </trkpt>
      <trkpt lat="47.464176" lon="7.843178">
        <ele>391.644945</ele>
        <time>2021-11-13T14:03:11.579Z</time>
      </trkpt>
      <trkpt lat="47.464165" lon="7.843130">
        <ele>391.634621</ele>
        <time>2021-11-13T14:03:12.113Z</time>
      </trkpt>
      <trkpt lat="47.464075" lon="7.842774">
        <ele>391.608273</ele>
        <time>2021-11-13T14:03:17.005Z</time>
      </trkpt>
      <trkpt lat="47.464053" lon="7.842690">
        <ele>391.631623</ele>
        <time>2021-11-13T14:03:17.728Z</time>
      </trkpt>
      <trkpt lat="47.463971" lon="7.842355">
        <ele>391.723973</ele>
        <time>2021-11-13T14:03:22.658Z</time>
      </trkpt>
      <trkpt lat="47.463922" lon="7.842123">
        <ele>391.786975</ele>
        <time>2021-11-13T14:03:24.988Z</time>
      </trkpt>
      <trkpt lat="47.463874" lon="7.841863">
        <ele>391.856836</ele>
        <time>2021-11-13T14:03:29.194Z</time>
      </trkpt>
      <trkpt lat="47.463685" lon="7.841203">
        <ele>392.042627</ele>
        <time>2021-11-13T14:03:37.584Z</time>
      </trkpt>
      <trkpt lat="47.463616" lon="7.840992">
        <ele>392.103382</ele>
        <time>2021-11-13T14:03:40.531Z</time>
      </trkpt>
      <trkpt lat="47.463588" lon="7.840904">
        <ele>392.128592</ele>
        <time>2021-11-13T14:03:41.424Z</time>
      </trkpt>
      <trkpt lat="47.463287" lon="7.840028">
        <ele>392.046152</ele>
        <time>2021-11-13T14:03:50.165Z</time>
      </trkpt>
      <trkpt lat="47.463133" lon="7.839561">
        <ele>391.782558</ele>
        <time>2021-11-13T14:03:54.737Z</time>
      </trkpt>
      <trkpt lat="47.463043" lon="7.839292">
        <ele>391.630296</ele>
        <time>2021-11-13T14:03:57.188Z</time>
      </trkpt>
      <trkpt lat="47.462982" lon="7.839106">
        <ele>391.525420</ele>
        <time>2021-11-13T14:03:59.584Z</time>
      </trkpt>
      <trkpt lat="47.462967" lon="7.839047">
        <ele>391.493443</ele>
        <time>2021-11-13T14:04:00.068Z</time>
      </trkpt>
      <trkpt lat="47.462936" lon="7.838934">
        <ele>391.431577</ele>
        <time>2021-11-13T14:04:01.014Z</time>
      </trkpt>
      <trkpt lat="47.462883" lon="7.838488">
        <ele>391.201848</ele>
        <time>2021-11-13T14:04:04.967Z</time>
      </trkpt>
      <trkpt lat="47.462873" lon="7.838016">
        <ele>390.962280</ele>
        <time>2021-11-13T14:04:08.846Z</time>
      </trkpt>
      <trkpt lat="47.462871" lon="7.837954">
        <ele>390.930791</ele>
        <time>2021-11-13T14:04:09.294Z</time>
      </trkpt>
      <trkpt lat="47.462869" lon="7.837866">
        <ele>390.868410</ele>
        <time>2021-11-13T14:04:09.914Z</time>
      </trkpt>
      <trkpt lat="47.462865" lon="7.837711">
        <ele>390.748109</ele>
        <time>2021-11-13T14:04:11.218Z</time>
      </trkpt>
      <trkpt lat="47.462856" lon="7.837506">
        <ele>390.588781</ele>
        <time>2021-11-13T14:04:13.058Z</time>
      </trkpt>
      <trkpt lat="47.462851" lon="7.837404">
        <ele>390.509465</ele>
        <time>2021-11-13T14:04:13.767Z</time>
      </trkpt>
      <trkpt lat="47.462748" lon="7.836556">
        <ele>389.841247</ele>
        <time>2021-11-13T14:04:20.364Z</time>
      </trkpt>
      <trkpt lat="47.462730" lon="7.836472">
        <ele>389.772904</ele>
        <time>2021-11-13T14:04:21.217Z</time>
      </trkpt>
      <trkpt lat="47.462700" lon="7.836337">
        <ele>389.662690</ele>
        <time>2021-11-13T14:04:22.398Z</time>
      </trkpt>
      <trkpt lat="47.462666" lon="7.836201">
        <ele>389.550231</ele>
        <time>2021-11-13T14:04:23.605Z</time>
      </trkpt>
      <trkpt lat="47.462586" lon="7.835900">
        <ele>389.299391</ele>
        <time>2021-11-13T14:04:26.256Z</time>
      </trkpt>
      <trkpt lat="47.462388" lon="7.834991">
        <ele>388.634313</ele>
        <time>2021-11-13T14:04:34.721Z</time>
      </trkpt>
      <trkpt lat="47.462375" lon="7.834910">
        <ele>388.586154</ele>
        <time>2021-11-13T14:04:35.374Z</time>
      </trkpt>
      <trkpt lat="47.462357" lon="7.834782">
        <ele>388.510523</ele>
        <time>2021-11-13T14:04:36.417Z</time>
      </trkpt>
      <trkpt lat="47.462317" lon="7.834216">
        <ele>388.181315</ele>
        <time>2021-11-13T14:04:41.365Z</time>
      </trkpt>
      <trkpt lat="47.462296" lon="7.833933">
        <ele>388.016620</ele>
        <time>2021-11-13T14:04:43.803Z</time>
      </trkpt>
      <trkpt lat="47.462285" lon="7.833721">
        <ele>387.893620</ele>
        <time>2021-11-13T14:04:45.452Z</time>
      </trkpt>
      <trkpt lat="47.462217" lon="7.832953">
        <ele>387.445547</ele>
        <time>2021-11-13T14:04:51.966Z</time>
      </trkpt>
      <trkpt lat="47.462179" lon="7.832744">
        <ele>387.320347</ele>
        <time>2021-11-13T14:04:53.671Z</time>
      </trkpt>
      <trkpt lat="47.462080" lon="7.832335">
        <ele>386.999403</ele>
        <time>2021-11-13T14:04:57.403Z</time>
      </trkpt>
      <trkpt lat="47.462048" lon="7.832204">
        <ele>386.896218</ele>
        <time>2021-11-13T14:04:58.622Z</time>
      </trkpt>
      <trkpt lat="47.461918" lon="7.831668">
        <ele>386.474370</ele>
        <time>2021-11-13T14:05:03.433Z</time>
      </trkpt>
      <trkpt lat="47.461787" lon="7.831158">
        <ele>386.070212</ele>
        <time>2021-11-13T14:05:07.902Z</time>
      </trkpt>
      <trkpt lat="47.461585" lon="7.830158">
        <ele>385.268663</ele>
        <time>2021-11-13T14:05:16.297Z</time>
      </trkpt>
      <trkpt lat="47.461548" lon="7.829918">
        <ele>384.981415</ele>
        <time>2021-11-13T14:05:18.146Z</time>
      </trkpt>
      <trkpt lat="47.461539" lon="7.829782">
        <ele>384.821955</ele>
        <time>2021-11-13T14:05:19.203Z</time>
      </trkpt>
      <trkpt lat="47.461525" lon="7.829524">
        <ele>384.519922</ele>
        <time>2021-11-13T14:05:21.294Z</time>
      </trkpt>
      <trkpt lat="47.461536" lon="7.829345">
        <ele>384.310183</ele>
        <time>2021-11-13T14:05:22.572Z</time>
      </trkpt>
      <trkpt lat="47.461804" lon="7.827389">
        <ele>382.090538</ele>
        <time>2021-11-13T14:05:37.575Z</time>
      </trkpt>
      <trkpt lat="47.461850" lon="7.826816">
        <ele>381.699399</ele>
        <time>2021-11-13T14:05:41.977Z</time>
      </trkpt>
      <trkpt lat="47.461900" lon="7.826316">
        <ele>381.356786</ele>
        <time>2021-11-13T14:05:46.200Z</time>
      </trkpt>
      <trkpt lat="47.461963" lon="7.826038">
        <ele>381.158039</ele>
        <time>2021-11-13T14:05:48.775Z</time>
      </trkpt>
      <trkpt lat="47.462057" lon="7.825761">
        <ele>380.947949</ele>
        <time>2021-11-13T14:05:51.397Z</time>
      </trkpt>
      <trkpt lat="47.462244" lon="7.825463">
        <ele>380.672347</ele>
        <time>2021-11-13T14:05:55.107Z</time>
      </trkpt>
      <trkpt lat="47.462312" lon="7.825390">
        <ele>380.588105</ele>
        <time>2021-11-13T14:05:56.110Z</time>
      </trkpt>
      <trkpt lat="47.462338" lon="7.825420">
        <ele>380.555043</ele>
        <time>2021-11-13T14:05:56.521Z</time>
      </trkpt>
      <trkpt lat="47.462433" lon="7.825422">
        <ele>380.459785</ele>
        <time>2021-11-13T14:05:57.913Z</time>
      </trkpt>
      <trkpt lat="47.462485" lon="7.825257">
        <ele>380.400952</ele>
        <time>2021-11-13T14:05:59.641Z</time>
      </trkpt>
      <trkpt lat="47.462472" lon="7.825212">
        <ele>380.388736</ele>
        <time>2021-11-13T14:06:00.027Z</time>
      </trkpt>
      <trkpt lat="47.462449" lon="7.825174">
        <ele>380.376003</ele>
        <time>2021-11-13T14:06:00.468Z</time>
      </trkpt>
      <trkpt lat="47.462352" lon="7.825151">
        <ele>380.339730</ele>
        <time>2021-11-13T14:06:01.720Z</time>
      </trkpt>
      <trkpt lat="47.462323" lon="7.825177">
        <ele>380.327208</ele>
        <time>2021-11-13T14:06:02.307Z</time>
      </trkpt>
      <trkpt lat="47.462266" lon="7.825058">
        <ele>380.290802</ele>
        <time>2021-11-13T14:06:03.700Z</time>
      </trkpt>
      <trkpt lat="47.462266" lon="7.825058">
        <ele>380.290802</ele>
        <time>2021-11-13T14:06:03.747Z</time>
      </trkpt>
      <trkpt lat="47.462220" lon="7.824965">
        <ele>380.262036</ele>
        <time>2021-11-13T14:06:04.833Z</time>
      </trkpt>
      <trkpt lat="47.462172" lon="7.824876">
        <ele>380.233615</ele>
        <time>2021-11-13T14:06:05.800Z</time>
      </trkpt>
      <trkpt lat="47.462119" lon="7.824792">
        <ele>380.204933</ele>
        <time>2021-11-13T14:06:06.847Z</time>
      </trkpt>
      <trkpt lat="47.462138" lon="7.824743">
        <ele>380.190832</ele>
        <time>2021-11-13T14:06:07.508Z</time>
      </trkpt>
      <trkpt lat="47.462108" lon="7.824587">
        <ele>380.150344</ele>
        <time>2021-11-13T14:06:09.104Z</time>
      </trkpt>
      <trkpt lat="47.462075" lon="7.824560">
        <ele>380.136419</ele>
        <time>2021-11-13T14:06:09.712Z</time>
      </trkpt>
      <trkpt lat="47.462104" lon="7.824385">
        <ele>380.091440</ele>
        <time>2021-11-13T14:06:11.243Z</time>
      </trkpt>
      <trkpt lat="47.462122" lon="7.824085">
        <ele>380.016255</ele>
        <time>2021-11-13T14:06:14.397Z</time>
      </trkpt>
      <trkpt lat="47.461990" lon="7.821930">
        <ele>379.101973</ele>
        <time>2021-11-13T14:06:33.741Z</time>
      </trkpt>
      <trkpt lat="47.461985" lon="7.821867">
        <ele>379.066283</ele>
        <time>2021-11-13T14:06:34.200Z</time>
      </trkpt>
      <trkpt lat="47.462017" lon="7.821859">
        <ele>379.039275</ele>
        <time>2021-11-13T14:06:34.761Z</time>
      </trkpt>
      <trkpt lat="47.461957" lon="7.821317">
        <ele>378.730262</ele>
        <time>2021-11-13T14:06:41.226Z</time>
      </trkpt>
      <trkpt lat="47.461915" lon="7.820994">
        <ele>378.545198</ele>
        <time>2021-11-13T14:06:45.091Z</time>
      </trkpt>
      <trkpt lat="47.461850" lon="7.820572">
        <ele>378.301679</ele>
        <time>2021-11-13T14:06:50.072Z</time>
      </trkpt>
      <trkpt lat="47.461826" lon="7.820279">
        <ele>378.147144</ele>
        <time>2021-11-13T14:06:53.468Z</time>
      </trkpt>
      <trkpt lat="47.461829" lon="7.819984">
        <ele>377.994620</ele>
        <time>2021-11-13T14:06:56.927Z</time>
      </trkpt>
      <trkpt lat="47.461852" lon="7.819816">
        <ele>377.906005</ele>
        <time>2021-11-13T14:06:58.868Z</time>
      </trkpt>
      <trkpt lat="47.461962" lon="7.819234">
        <ele>377.593590</ele>
        <time>2021-11-13T14:07:06.099Z</time>
      </trkpt>
      <trkpt lat="47.461960" lon="7.819120">
        <ele>377.534636</ele>
        <time>2021-11-13T14:07:07.439Z</time>
      </trkpt>
      <trkpt lat="47.462012" lon="7.818948">
        <ele>377.437231</ele>
        <time>2021-11-13T14:07:09.055Z</time>
      </trkpt>
      <trkpt lat="47.462122" lon="7.818441">
        <ele>377.161960</ele>
        <time>2021-11-13T14:07:13.697Z</time>
      </trkpt>
      <trkpt lat="47.462262" lon="7.817447">
        <ele>376.855108</ele>
        <time>2021-11-13T14:07:23.049Z</time>
      </trkpt>
      <trkpt lat="47.462434" lon="7.816598">
        <ele>376.773654</ele>
        <time>2021-11-13T14:07:31.842Z</time>
      </trkpt>
      <trkpt lat="47.462785" lon="7.815763">
        <ele>376.683290</ele>
        <time>2021-11-13T14:07:41.569Z</time>
      </trkpt>
      <trkpt lat="47.462859" lon="7.815548">
        <ele>376.661118</ele>
        <time>2021-11-13T14:07:44.134Z</time>
      </trkpt>
      <trkpt lat="47.462865" lon="7.815524">
        <ele>376.658766</ele>
        <time>2021-11-13T14:07:44.416Z</time>
      </trkpt>
      <trkpt lat="47.462867" lon="7.815468">
        <ele>376.650209</ele>
        <time>2021-11-13T14:07:44.942Z</time>
      </trkpt>
      <trkpt lat="47.462863" lon="7.815440">
        <ele>376.645415</ele>
        <time>2021-11-13T14:07:45.251Z</time>
      </trkpt>
      <trkpt lat="47.462902" lon="7.815377">
        <ele>376.631106</ele>
        <time>2021-11-13T14:07:46.292Z</time>
      </trkpt>
      <trkpt lat="47.463209" lon="7.814244">
        <ele>376.426646</ele>
        <time>2021-11-13T14:08:02.462Z</time>
      </trkpt>
      <trkpt lat="47.463323" lon="7.813790">
        <ele>376.345522</ele>
        <time>2021-11-13T14:08:08.843Z</time>
      </trkpt>
      <trkpt lat="47.463516" lon="7.813197">
        <ele>376.235281</ele>
        <time>2021-11-13T14:08:17.463Z</time>
      </trkpt>
      <trkpt lat="47.463585" lon="7.813014">
        <ele>376.184636</ele>
        <time>2021-11-13T14:08:20.098Z</time>
      </trkpt>
      <trkpt lat="47.463671" lon="7.812852">
        <ele>376.105151</ele>
        <time>2021-11-13T14:08:22.625Z</time>
      </trkpt>
      <trkpt lat="47.463905" lon="7.812397">
        <ele>375.884540</ele>
        <time>2021-11-13T14:08:29.390Z</time>
      </trkpt>
      <trkpt lat="47.463958" lon="7.812269">
        <ele>375.826618</ele>
        <time>2021-11-13T14:08:31.281Z</time>
      </trkpt>
      <trkpt lat="47.464174" lon="7.811536">
        <ele>375.518056</ele>
        <time>2021-11-13T14:08:40.912Z</time>
      </trkpt>
      <trkpt lat="47.464316" lon="7.810976">
        <ele>375.287257</ele>
        <time>2021-11-13T14:08:48.377Z</time>
      </trkpt>
      <trkpt lat="47.464325" lon="7.810936">
        <ele>375.270989</ele>
        <time>2021-11-13T14:08:48.825Z</time>
      </trkpt>
      <trkpt lat="47.464370" lon="7.810752">
        <ele>375.195482</ele>
        <time>2021-11-13T14:08:51.500Z</time>
      </trkpt>
      <trkpt lat="47.464364" lon="7.810630">
        <ele>375.181516</ele>
        <time>2021-11-13T14:08:53.025Z</time>
      </trkpt>
      <trkpt lat="47.464385" lon="7.810619">
        <ele>375.180174</ele>
        <time>2021-11-13T14:08:53.286Z</time>
      </trkpt>
      <trkpt lat="47.464417" lon="7.810573">
        <ele>375.177486</ele>
        <time>2021-11-13T14:08:54.081Z</time>
      </trkpt>
      <trkpt lat="47.464452" lon="7.810429">
        <ele>375.171255</ele>
        <time>2021-11-13T14:08:55.519Z</time>
      </trkpt>
      <trkpt lat="47.464510" lon="7.810204">
        <ele>375.161449</ele>
        <time>2021-11-13T14:08:57.917Z</time>
      </trkpt>
      <trkpt lat="47.464553" lon="7.810043">
        <ele>375.154400</ele>
        <time>2021-11-13T14:08:59.727Z</time>
      </trkpt>
      <trkpt lat="47.464574" lon="7.809967">
        <ele>375.151057</ele>
        <time>2021-11-13T14:09:00.451Z</time>
      </trkpt>
      <trkpt lat="47.464595" lon="7.809881">
        <ele>375.147333</ele>
        <time>2021-11-13T14:09:01.425Z</time>
      </trkpt>
      <trkpt lat="47.464602" lon="7.809851">
        <ele>375.146041</ele>
        <time>2021-11-13T14:09:01.784Z</time>
      </trkpt>
      <trkpt lat="47.464662" lon="7.809564">
        <ele>375.133808</ele>
        <time>2021-11-13T14:09:04.966Z</time>
      </trkpt>
      <trkpt lat="47.464811" lon="7.808597">
        <ele>375.093421</ele>
        <time>2021-11-13T14:09:14.748Z</time>
      </trkpt>
      <trkpt lat="47.464826" lon="7.808468">
        <ele>375.088091</ele>
        <time>2021-11-13T14:09:16.238Z</time>
      </trkpt>
      <trkpt lat="47.464869" lon="7.807851">
        <ele>374.903872</ele>
        <time>2021-11-13T14:09:22.372Z</time>
      </trkpt>
      <trkpt lat="47.464860" lon="7.807604">
        <ele>374.781549</ele>
        <time>2021-11-13T14:09:24.925Z</time>
      </trkpt>
      <trkpt lat="47.464839" lon="7.807091">
        <ele>374.527399</ele>
        <time>2021-11-13T14:09:30.005Z</time>
      </trkpt>
      <trkpt lat="47.464820" lon="7.806610">
        <ele>374.289132</ele>
        <time>2021-11-13T14:09:34.693Z</time>
      </trkpt>
      <trkpt lat="47.464821" lon="7.806590">
        <ele>374.279215</ele>
        <time>2021-11-13T14:09:34.832Z</time>
      </trkpt>
      <trkpt lat="47.464830" lon="7.806346">
        <ele>374.158374</ele>
        <time>2021-11-13T14:09:36.996Z</time>
      </trkpt>
      <trkpt lat="47.464852" lon="7.806188">
        <ele>374.078601</ele>
        <time>2021-11-13T14:09:38.430Z</time>
      </trkpt>
      <trkpt lat="47.464879" lon="7.806011">
        <ele>373.988871</ele>
        <time>2021-11-13T14:09:39.903Z</time>
      </trkpt>
      <trkpt lat="47.464899" lon="7.805942">
        <ele>373.951746</ele>
        <time>2021-11-13T14:09:40.420Z</time>
      </trkpt>
      <trkpt lat="47.465361" lon="7.804383">
        <ele>371.776569</ele>
        <time>2021-11-13T14:09:52.709Z</time>
      </trkpt>
      <trkpt lat="47.465464" lon="7.803785">
        <ele>370.846769</ele>
        <time>2021-11-13T14:09:57.131Z</time>
      </trkpt>
      <trkpt lat="47.465562" lon="7.802933">
        <ele>369.594782</ele>
        <time>2021-11-13T14:10:03.450Z</time>
      </trkpt>
      <trkpt lat="47.465594" lon="7.802678">
        <ele>369.298243</ele>
        <time>2021-11-13T14:10:05.376Z</time>
      </trkpt>
      <trkpt lat="47.465633" lon="7.802373">
        <ele>368.943333</ele>
        <time>2021-11-13T14:10:07.661Z</time>
      </trkpt>
      <trkpt lat="47.465735" lon="7.801577">
        <ele>368.017010</ele>
        <time>2021-11-13T14:10:13.652Z</time>
      </trkpt>
      <trkpt lat="47.465866" lon="7.800659">
        <ele>366.944275</ele>
        <time>2021-11-13T14:10:21.116Z</time>
      </trkpt>
      <trkpt lat="47.466033" lon="7.800108">
        <ele>366.360756</ele>
        <time>2021-11-13T14:10:26.205Z</time>
      </trkpt>
      <trkpt lat="47.466090" lon="7.800039">
        <ele>366.265336</ele>
        <time>2021-11-13T14:10:27.067Z</time>
      </trkpt>
      <trkpt lat="47.466050" lon="7.799819">
        <ele>366.065810</ele>
        <time>2021-11-13T14:10:43.727Z</time>
      </trkpt>
      <trkpt lat="47.466042" lon="7.799777">
        <ele>366.027593</ele>
        <time>2021-11-13T14:10:46.884Z</time>
      </trkpt>
      <trkpt lat="47.466172" lon="7.799019">
        <ele>365.342696</ele>
        <time>2021-11-13T14:11:43.301Z</time>
      </trkpt>
      <trkpt lat="47.466186" lon="7.797669">
        <ele>364.180782</ele>
        <time>2021-11-13T14:13:19.588Z</time>
      </trkpt>
      <trkpt lat="47.466430" lon="7.795789">
        <ele>362.660788</ele>
        <time>2021-11-13T14:15:36.856Z</time>
      </trkpt>
      <trkpt lat="47.466774" lon="7.793016">
        <ele>361.810361</ele>
        <time>2021-11-13T14:19:06.372Z</time>
      </trkpt>
      <trkpt lat="47.467163" lon="7.789876">
        <ele>361.856170</ele>
        <time>2021-11-13T14:23:08.650Z</time>
      </trkpt>
      <trkpt lat="47.467228" lon="7.789417">
        <ele>361.451602</ele>
        <time>2021-11-13T14:23:14.565Z</time>
      </trkpt>
      <trkpt lat="47.467240" lon="7.789331">
        <ele>361.375847</ele>
        <time>2021-11-13T14:23:15.530Z</time>
      </trkpt>
      <trkpt lat="47.467307" lon="7.788932">
        <ele>361.021175</ele>
        <time>2021-11-13T14:23:20.519Z</time>
      </trkpt>
      <trkpt lat="47.467339" lon="7.788734">
        <ele>360.845550</ele>
        <time>2021-11-13T14:23:22.645Z</time>
      </trkpt>
      <trkpt lat="47.467451" lon="7.788042">
        <ele>360.231702</ele>
        <time>2021-11-13T14:23:30.546Z</time>
      </trkpt>
      <trkpt lat="47.467504" lon="7.787622">
        <ele>359.863117</ele>
        <time>2021-11-13T14:23:34.934Z</time>
      </trkpt>
      <trkpt lat="47.467538" lon="7.787352">
        <ele>359.604510</ele>
        <time>2021-11-13T14:23:37.836Z</time>
      </trkpt>
      <trkpt lat="47.467566" lon="7.787128">
        <ele>359.366763</ele>
        <time>2021-11-13T14:23:40.102Z</time>
      </trkpt>
      <trkpt lat="47.467577" lon="7.787046">
        <ele>359.279512</ele>
        <time>2021-11-13T14:23:40.961Z</time>
      </trkpt>
      <trkpt lat="47.467559" lon="7.786904">
        <ele>359.128727</ele>
        <time>2021-11-13T14:23:42.637Z</time>
      </trkpt>
      <trkpt lat="47.467636" lon="7.786830">
        <ele>358.986963</ele>
        <time>2021-11-13T14:23:43.938Z</time>
      </trkpt>
      <trkpt lat="47.468403" lon="7.786854">
        <ele>357.802539</ele>
        <time>2021-11-13T14:23:56.132Z</time>
      </trkpt>
      <trkpt lat="47.468535" lon="7.786880">
        <ele>357.596948</ele>
        <time>2021-11-13T14:23:58.286Z</time>
      </trkpt>
      <trkpt lat="47.468582" lon="7.786483">
        <ele>357.176310</ele>
        <time>2021-11-13T14:24:03.194Z</time>
      </trkpt>
      <trkpt lat="47.468800" lon="7.784631">
        <ele>358.280460</ele>
        <time>2021-11-13T14:24:30.067Z</time>
      </trkpt>
      <trkpt lat="47.468701" lon="7.784599">
        <ele>358.399975</ele>
        <time>2021-11-13T14:24:32.679Z</time>
      </trkpt>
      <trkpt lat="47.468262" lon="7.784478">
        <ele>358.926640</ele>
        <time>2021-11-13T14:24:44.518Z</time>
      </trkpt>
      <trkpt lat="47.467967" lon="7.784535">
        <ele>359.472420</ele>
        <time>2021-11-13T14:24:52.580Z</time>
      </trkpt>
      <trkpt lat="47.467898" lon="7.784577">
        <ele>359.644657</ele>
        <time>2021-11-13T14:24:54.856Z</time>
      </trkpt>
      <trkpt lat="47.467487" lon="7.784862">
        <ele>360.692478</ele>
        <time>2021-11-13T14:25:07.212Z</time>
      </trkpt>
      <trkpt lat="47.467418" lon="7.784909">
        <ele>360.867833</ele>
        <time>2021-11-13T14:25:09.454Z</time>
      </trkpt>
      <trkpt lat="47.467180" lon="7.785057">
        <ele>361.463803</ele>
        <time>2021-11-13T14:25:16.004Z</time>
      </trkpt>
      <trkpt lat="47.467119" lon="7.785066">
        <ele>361.605314</ele>
        <time>2021-11-13T14:25:17.915Z</time>
      </trkpt>
      <trkpt lat="47.467092" lon="7.784779">
        <ele>362.057497</ele>
        <time>2021-11-13T14:25:22.129Z</time>
      </trkpt>
      <trkpt lat="47.467074" lon="7.784580">
        <ele>362.370806</ele>
        <time>2021-11-13T14:25:25.375Z</time>
      </trkpt>
      <trkpt lat="47.467114" lon="7.784127">
        <ele>363.083723</ele>
        <time>2021-11-13T14:25:31.733Z</time>
      </trkpt>
      <trkpt lat="47.467189" lon="7.783725">
        <ele>362.923412</ele>
        <time>2021-11-13T14:25:36.977Z</time>
      </trkpt>
      <trkpt lat="47.467275" lon="7.783266">
        <ele>362.481335</ele>
        <time>2021-11-13T14:25:41.858Z</time>
      </trkpt>
      <trkpt lat="47.467308" lon="7.783125">
        <ele>362.342845</ele>
        <time>2021-11-13T14:25:43.021Z</time>
      </trkpt>
      <trkpt lat="47.467374" lon="7.782864">
        <ele>362.084207</ele>
        <time>2021-11-13T14:25:45.491Z</time>
      </trkpt>
      <trkpt lat="47.467411" lon="7.782717">
        <ele>361.938620</ele>
        <time>2021-11-13T14:25:46.688Z</time>
      </trkpt>
      <trkpt lat="47.467673" lon="7.781405">
        <ele>360.520822</ele>
        <time>2021-11-13T14:25:56.322Z</time>
      </trkpt>
      <trkpt lat="47.467837" lon="7.780341">
        <ele>357.794859</ele>
        <time>2021-11-13T14:26:03.587Z</time>
      </trkpt>
      <trkpt lat="47.467858" lon="7.780201">
        <ele>357.436650</ele>
        <time>2021-11-13T14:26:04.498Z</time>
      </trkpt>
      <trkpt lat="47.468054" lon="7.778980">
        <ele>354.301931</ele>
        <time>2021-11-13T14:26:12.837Z</time>
      </trkpt>
      <trkpt lat="47.468174" lon="7.778263">
        <ele>353.180878</ele>
        <time>2021-11-13T14:26:17.770Z</time>
      </trkpt>
      <trkpt lat="47.468193" lon="7.778169">
        <ele>353.043117</ele>
        <time>2021-11-13T14:26:18.401Z</time>
      </trkpt>
      <trkpt lat="47.468501" lon="7.776957">
        <ele>351.225060</ele>
        <time>2021-11-13T14:26:27.839Z</time>
      </trkpt>
      <trkpt lat="47.468600" lon="7.776294">
        <ele>350.452612</ele>
        <time>2021-11-13T14:26:33.572Z</time>
      </trkpt>
      <trkpt lat="47.468932" lon="7.773715">
        <ele>353.329347</ele>
        <time>2021-11-13T14:27:12.394Z</time>
      </trkpt>
      <trkpt lat="47.468986" lon="7.773126">
        <ele>355.020431</ele>
        <time>2021-11-13T14:27:23.548Z</time>
      </trkpt>
      <trkpt lat="47.468989" lon="7.772749">
        <ele>356.093094</ele>
        <time>2021-11-13T14:27:32.113Z</time>
      </trkpt>
      <trkpt lat="47.468967" lon="7.772389">
        <ele>357.121493</ele>
        <time>2021-11-13T14:27:39.569Z</time>
      </trkpt>
      <trkpt lat="47.468873" lon="7.771700">
        <ele>359.121268</ele>
        <time>2021-11-13T14:27:54.606Z</time>
      </trkpt>
      <trkpt lat="47.468826" lon="7.771365">
        <ele>360.094677</ele>
        <time>2021-11-13T14:28:02.402Z</time>
      </trkpt>
      <trkpt lat="47.468536" lon="7.771456">
        <ele>361.650898</ele>
        <time>2021-11-13T14:28:14.512Z</time>
      </trkpt>
      <trkpt lat="47.468386" lon="7.771493">
        <ele>362.649755</ele>
        <time>2021-11-13T14:28:21.058Z</time>
      </trkpt>
      <trkpt lat="47.468243" lon="7.771539">
        <ele>363.610981</ele>
        <time>2021-11-13T14:28:27.197Z</time>
      </trkpt>
      <trkpt lat="47.467645" lon="7.771735">
        <ele>367.634117</ele>
        <time>2021-11-13T14:28:51.095Z</time>
      </trkpt>
      <trkpt lat="47.467401" lon="7.771730">
        <ele>369.236950</ele>
        <time>2021-11-13T14:29:00.864Z</time>
      </trkpt>
      <trkpt lat="47.467189" lon="7.771712">
        <ele>370.631734</ele>
        <time>2021-11-13T14:29:11.126Z</time>
      </trkpt>
      <trkpt lat="47.466562" lon="7.771587">
        <ele>375.268349</ele>
        <time>2021-11-13T14:29:39.187Z</time>
      </trkpt>
      <trkpt lat="47.465847" lon="7.771333">
        <ele>381.163429</ele>
        <time>2021-11-13T14:30:11.603Z</time>
      </trkpt>
      <trkpt lat="47.465703" lon="7.771236">
        <ele>382.431931</ele>
        <time>2021-11-13T14:30:19.296Z</time>
      </trkpt>
      <trkpt lat="47.465526" lon="7.771121">
        <ele>383.981772</ele>
        <time>2021-11-13T14:30:29.409Z</time>
      </trkpt>
      <trkpt lat="47.465368" lon="7.771073">
        <ele>385.274884</ele>
        <time>2021-11-13T14:30:36.808Z</time>
      </trkpt>
      <trkpt lat="47.464478" lon="7.771253">
        <ele>394.343216</ele>
        <time>2021-11-13T14:31:24.138Z</time>
      </trkpt>
      <trkpt lat="47.464404" lon="7.771263">
        <ele>395.142982</ele>
        <time>2021-11-13T14:31:28.394Z</time>
      </trkpt>
      <trkpt lat="47.464288" lon="7.771281">
        <ele>396.398321</ele>
        <time>2021-11-13T14:31:34.315Z</time>
      </trkpt>
      <trkpt lat="47.464242" lon="7.771294">
        <ele>396.902366</ele>
        <time>2021-11-13T14:31:39.314Z</time>
      </trkpt>
      <trkpt lat="47.463553" lon="7.771602">
        <ele>404.649198</ele>
        <time>2021-11-13T14:32:21.599Z</time>
      </trkpt>
      <trkpt lat="47.463299" lon="7.771649">
        <ele>407.531924</ele>
        <time>2021-11-13T14:32:37.423Z</time>
      </trkpt>
      <trkpt lat="47.462518" lon="7.771714">
        <ele>417.004690</ele>
        <time>2021-11-13T14:33:30.761Z</time>
      </trkpt>
      <trkpt lat="47.462061" lon="7.771749">
        <ele>422.546314</ele>
        <time>2021-11-13T14:33:58.037Z</time>
      </trkpt>
      <trkpt lat="47.462028" lon="7.771752">
        <ele>422.946693</ele>
        <time>2021-11-13T14:34:00.081Z</time>
      </trkpt>
      <trkpt lat="47.461913" lon="7.771756">
        <ele>424.339713</ele>
        <time>2021-11-13T14:34:08.271Z</time>
      </trkpt>
      <trkpt lat="47.461805" lon="7.771735">
        <ele>425.658831</ele>
        <time>2021-11-13T14:34:14.390Z</time>
      </trkpt>
      <trkpt lat="47.461018" lon="7.771505">
        <ele>434.516140</ele>
        <time>2021-11-13T14:35:03.514Z</time>
      </trkpt>
      <trkpt lat="47.460712" lon="7.771416">
        <ele>437.843486</ele>
        <time>2021-11-13T14:35:21.784Z</time>
      </trkpt>
      <trkpt lat="47.460283" lon="7.771307">
        <ele>442.487684</ele>
        <time>2021-11-13T14:35:46.238Z</time>
      </trkpt>
      <trkpt lat="47.459942" lon="7.771269">
        <ele>446.136246</ele>
        <time>2021-11-13T14:36:04.188Z</time>
      </trkpt>
      <trkpt lat="47.458785" lon="7.771330">
        <ele>458.264436</ele>
        <time>2021-11-13T14:37:07.256Z</time>
      </trkpt>
      <trkpt lat="47.457577" lon="7.771218">
        <ele>471.068006</ele>
        <time>2021-11-13T14:38:19.995Z</time>
      </trkpt>
      <trkpt lat="47.456814" lon="7.771144">
        <ele>479.313385</ele>
        <time>2021-11-13T14:39:05.917Z</time>
      </trkpt>
      <trkpt lat="47.456467" lon="7.771104">
        <ele>483.066561</ele>
        <time>2021-11-13T14:39:25.788Z</time>
      </trkpt>
      <trkpt lat="47.455755" lon="7.771310">
        <ele>489.039146</ele>
        <time>2021-11-13T14:40:04.580Z</time>
      </trkpt>
      <trkpt lat="47.454564" lon="7.772194">
        <ele>498.353341</ele>
        <time>2021-11-13T14:40:57.366Z</time>
      </trkpt>
      <trkpt lat="47.454404" lon="7.772245">
        <ele>499.105179</ele>
        <time>2021-11-13T14:41:02.485Z</time>
      </trkpt>
      <trkpt lat="47.453980" lon="7.772200">
        <ele>501.057835</ele>
        <time>2021-11-13T14:41:15.286Z</time>
      </trkpt>
      <trkpt lat="47.453848" lon="7.772112">
        <ele>501.722939</ele>
        <time>2021-11-13T14:41:19.561Z</time>
      </trkpt>
      <trkpt lat="47.453416" lon="7.771572">
        <ele>504.321223</ele>
        <time>2021-11-13T14:41:38.305Z</time>
      </trkpt>
      <trkpt lat="47.452871" lon="7.771333">
        <ele>506.937773</ele>
        <time>2021-11-13T14:41:56.897Z</time>
      </trkpt>
      <trkpt lat="47.452509" lon="7.771079">
        <ele>508.800212</ele>
        <time>2021-11-13T14:42:10.831Z</time>
      </trkpt>
      <trkpt lat="47.452291" lon="7.770916">
        <ele>509.935675</ele>
        <time>2021-11-13T14:42:19.624Z</time>
      </trkpt>
      <trkpt lat="47.452041" lon="7.770729">
        <ele>511.237918</ele>
        <time>2021-11-13T14:42:29.928Z</time>
      </trkpt>
      <trkpt lat="47.451426" lon="7.770036">
        <ele>514.831869</ele>
        <time>2021-11-13T14:42:56.025Z</time>
      </trkpt>
      <trkpt lat="47.451308" lon="7.769875">
        <ele>514.871893</ele>
        <time>2021-11-13T14:43:00.394Z</time>
      </trkpt>
      <trkpt lat="47.451217" lon="7.769745">
        <ele>514.893922</ele>
        <time>2021-11-13T14:43:04.257Z</time>
      </trkpt>
      <trkpt lat="47.451197" lon="7.769677">
        <ele>514.902653</ele>
        <time>2021-11-13T14:43:05.785Z</time>
      </trkpt>
      <trkpt lat="47.451184" lon="7.769584">
        <ele>514.913833</ele>
        <time>2021-11-13T14:43:07.448Z</time>
      </trkpt>
      <trkpt lat="47.451171" lon="7.769212">
        <ele>514.957689</ele>
        <time>2021-11-13T14:43:11.961Z</time>
      </trkpt>
      <trkpt lat="47.451134" lon="7.768791">
        <ele>515.007672</ele>
        <time>2021-11-13T14:43:16.620Z</time>
      </trkpt>
      <trkpt lat="47.451069" lon="7.768123">
        <ele>515.087129</ele>
        <time>2021-11-13T14:43:21.965Z</time>
      </trkpt>
      <trkpt lat="47.451065" lon="7.767935">
        <ele>515.109274</ele>
        <time>2021-11-13T14:43:23.750Z</time>
      </trkpt>
      <trkpt lat="47.451066" lon="7.767828">
        <ele>515.121873</ele>
        <time>2021-11-13T14:43:24.517Z</time>
      </trkpt>
      <trkpt lat="47.451120" lon="7.767294">
        <ele>514.246855</ele>
        <time>2021-11-13T14:43:28.264Z</time>
      </trkpt>
      <trkpt lat="47.451119" lon="7.767203">
        <ele>513.896785</ele>
        <time>2021-11-13T14:43:28.844Z</time>
      </trkpt>
      <trkpt lat="47.451103" lon="7.767132">
        <ele>513.608925</ele>
        <time>2021-11-13T14:43:29.320Z</time>
      </trkpt>
      <trkpt lat="47.451026" lon="7.766973">
        <ele>512.856688</ele>
        <time>2021-11-13T14:43:30.751Z</time>
      </trkpt>
      <trkpt lat="47.450777" lon="7.766704">
        <ele>511.102665</ele>
        <time>2021-11-13T14:43:33.687Z</time>
      </trkpt>
      <trkpt lat="47.450678" lon="7.766592">
        <ele>510.393653</ele>
        <time>2021-11-13T14:43:34.884Z</time>
      </trkpt>
      <trkpt lat="47.450521" lon="7.766413">
        <ele>509.266018</ele>
        <time>2021-11-13T14:43:36.633Z</time>
      </trkpt>
      <trkpt lat="47.449615" lon="7.765656">
        <ele>502.682803</ele>
        <time>2021-11-13T14:43:45.911Z</time>
      </trkpt>
      <trkpt lat="47.449522" lon="7.765582">
        <ele>501.829584</ele>
        <time>2021-11-13T14:43:46.816Z</time>
      </trkpt>
      <trkpt lat="47.449371" lon="7.765478">
        <ele>500.483814</ele>
        <time>2021-11-13T14:43:48.354Z</time>
      </trkpt>
      <trkpt lat="47.449330" lon="7.765441">
        <ele>500.095762</ele>
        <time>2021-11-13T14:43:48.786Z</time>
      </trkpt>
      <trkpt lat="47.449309" lon="7.765407">
        <ele>499.844187</ele>
        <time>2021-11-13T14:43:49.044Z</time>
      </trkpt>
      <trkpt lat="47.449197" lon="7.765003">
        <ele>497.458693</ele>
        <time>2021-11-13T14:43:51.697Z</time>
      </trkpt>
      <trkpt lat="47.449117" lon="7.764686">
        <ele>495.610117</ele>
        <time>2021-11-13T14:43:53.678Z</time>
      </trkpt>
      <trkpt lat="47.449104" lon="7.764651">
        <ele>495.391952</ele>
        <time>2021-11-13T14:43:53.928Z</time>
      </trkpt>
      <trkpt lat="47.449090" lon="7.764621">
        <ele>495.192811</ele>
        <time>2021-11-13T14:43:54.161Z</time>
      </trkpt>
      <trkpt lat="47.449068" lon="7.764572">
        <ele>494.871471</ele>
        <time>2021-11-13T14:43:54.525Z</time>
      </trkpt>
      <trkpt lat="47.448997" lon="7.764469">
        <ele>494.067915</ele>
        <time>2021-11-13T14:43:55.393Z</time>
      </trkpt>
      <trkpt lat="47.448981" lon="7.764430">
        <ele>493.818696</ele>
        <time>2021-11-13T14:43:55.659Z</time>
      </trkpt>
      <trkpt lat="47.448974" lon="7.764320">
        <ele>493.215062</ele>
        <time>2021-11-13T14:43:56.555Z</time>
      </trkpt>
      <trkpt lat="47.449018" lon="7.763977">
        <ele>491.307684</ele>
        <time>2021-11-13T14:43:59.609Z</time>
      </trkpt>
      <trkpt lat="47.449068" lon="7.763893">
        <ele>490.696297</ele>
        <time>2021-11-13T14:44:00.516Z</time>
      </trkpt>
      <trkpt lat="47.449181" lon="7.763898">
        <ele>489.890355</ele>
        <time>2021-11-13T14:44:01.909Z</time>
      </trkpt>
      <trkpt lat="47.449423" lon="7.763910">
        <ele>488.277220</ele>
        <time>2021-11-13T14:44:04.932Z</time>
      </trkpt>
      <trkpt lat="47.449641" lon="7.763856">
        <ele>486.804648</ele>
        <time>2021-11-13T14:44:07.656Z</time>
      </trkpt>
      <trkpt lat="47.450213" lon="7.763596">
        <ele>482.817967</ele>
        <time>2021-11-13T14:44:15.221Z</time>
      </trkpt>
      <trkpt lat="47.450591" lon="7.763529">
        <ele>480.281669</ele>
        <time>2021-11-13T14:44:20.401Z</time>
      </trkpt>
      <trkpt lat="47.450817" lon="7.763325">
        <ele>478.517707</ele>
        <time>2021-11-13T14:44:24.362Z</time>
      </trkpt>
      <trkpt lat="47.450847" lon="7.763266">
        <ele>478.283067</ele>
        <time>2021-11-13T14:44:24.954Z</time>
      </trkpt>
      <trkpt lat="47.450962" lon="7.763039">
        <ele>477.555410</ele>
        <time>2021-11-13T14:44:28.306Z</time>
      </trkpt>
      <trkpt lat="47.451450" lon="7.761962">
        <ele>474.229517</ele>
        <time>2021-11-13T14:44:40.653Z</time>
      </trkpt>
      <trkpt lat="47.451792" lon="7.761653">
        <ele>472.709044</ele>
        <time>2021-11-13T14:44:46.315Z</time>
      </trkpt>
      <trkpt lat="47.451874" lon="7.761588">
        <ele>472.356080</ele>
        <time>2021-11-13T14:44:47.775Z</time>
      </trkpt>
      <trkpt lat="47.452020" lon="7.761471">
        <ele>471.726089</ele>
        <time>2021-11-13T14:44:50.241Z</time>
      </trkpt>
      <trkpt lat="47.452197" lon="7.761331">
        <ele>470.668121</ele>
        <time>2021-11-13T14:44:53.008Z</time>
      </trkpt>
      <trkpt lat="47.452691" lon="7.760914">
        <ele>467.485491</ele>
        <time>2021-11-13T14:45:00.904Z</time>
      </trkpt>
      <trkpt lat="47.452915" lon="7.760485">
        <ele>465.434800</ele>
        <time>2021-11-13T14:45:05.791Z</time>
      </trkpt>
      <trkpt lat="47.453001" lon="7.760058">
        <ele>463.749121</ele>
        <time>2021-11-13T14:45:09.742Z</time>
      </trkpt>
      <trkpt lat="47.453017" lon="7.759831">
        <ele>462.885622</ele>
        <time>2021-11-13T14:45:11.082Z</time>
      </trkpt>
      <trkpt lat="47.452846" lon="7.758955">
        <ele>458.456035</ele>
        <time>2021-11-13T14:45:16.569Z</time>
      </trkpt>
      <trkpt lat="47.452701" lon="7.758559">
        <ele>455.953018</ele>
        <time>2021-11-13T14:45:19.252Z</time>
      </trkpt>
      <trkpt lat="47.452380" lon="7.757949">
        <ele>451.656815</ele>
        <time>2021-11-13T14:45:23.834Z</time>
      </trkpt>
      <trkpt lat="47.452244" lon="7.757544">
        <ele>449.143446</ele>
        <time>2021-11-13T14:45:26.573Z</time>
      </trkpt>
      <trkpt lat="47.452063" lon="7.756562">
        <ele>442.535875</ele>
        <time>2021-11-13T14:45:32.579Z</time>
      </trkpt>
      <trkpt lat="47.452042" lon="7.755215">
        <ele>432.860352</ele>
        <time>2021-11-13T14:45:40.368Z</time>
      </trkpt>
      <trkpt lat="47.452002" lon="7.754929">
        <ele>430.763084</ele>
        <time>2021-11-13T14:45:42.054Z</time>
      </trkpt>
      <trkpt lat="47.451966" lon="7.754676">
        <ele>428.906473</ele>
        <time>2021-11-13T14:45:43.529Z</time>
      </trkpt>
      <trkpt lat="47.451925" lon="7.753911">
        <ele>421.825111</ele>
        <time>2021-11-13T14:45:47.948Z</time>
      </trkpt>
      <trkpt lat="47.451908" lon="7.753593">
        <ele>418.686655</ele>
        <time>2021-11-13T14:45:49.714Z</time>
      </trkpt>
      <trkpt lat="47.451984" lon="7.752328">
        <ele>406.191732</ele>
        <time>2021-11-13T14:45:56.860Z</time>
      </trkpt>
      <trkpt lat="47.452191" lon="7.751917">
        <ele>401.187190</ele>
        <time>2021-11-13T14:45:59.741Z</time>
      </trkpt>
      <trkpt lat="47.452229" lon="7.751746">
        <ele>399.623693</ele>
        <time>2021-11-13T14:46:00.747Z</time>
      </trkpt>
      <trkpt lat="47.452225" lon="7.751657">
        <ele>398.848914</ele>
        <time>2021-11-13T14:46:01.243Z</time>
      </trkpt>
      <trkpt lat="47.452217" lon="7.751595">
        <ele>398.300651</ele>
        <time>2021-11-13T14:46:01.595Z</time>
      </trkpt>
      <trkpt lat="47.451775" lon="7.749929">
        <ele>382.755378</ele>
        <time>2021-11-13T14:46:11.782Z</time>
      </trkpt>
      <trkpt lat="47.451732" lon="7.749739">
        <ele>381.015002</ele>
        <time>2021-11-13T14:46:12.925Z</time>
      </trkpt>
      <trkpt lat="47.452067" lon="7.749491">
        <ele>377.465401</ele>
        <time>2021-11-13T14:46:16.113Z</time>
      </trkpt>
      <trkpt lat="47.452651" lon="7.749069">
        <ele>373.991068</ele>
        <time>2021-11-13T14:46:22.117Z</time>
      </trkpt>
      <trkpt lat="47.452785" lon="7.748985">
        <ele>373.213116</ele>
        <time>2021-11-13T14:46:23.451Z</time>
      </trkpt>
      <trkpt lat="47.453184" lon="7.748733">
        <ele>370.894019</ele>
        <time>2021-11-13T14:46:27.639Z</time>
      </trkpt>
      <trkpt lat="47.455618" lon="7.747172">
        <ele>365.400326</ele>
        <time>2021-11-13T14:46:58.774Z</time>
      </trkpt>
      <trkpt lat="47.456072" lon="7.746683">
        <ele>364.495020</ele>
        <time>2021-11-13T14:47:05.482Z</time>
      </trkpt>
      <trkpt lat="47.456101" lon="7.746644">
        <ele>364.431839</ele>
        <time>2021-11-13T14:47:05.851Z</time>
      </trkpt>
      <trkpt lat="47.457103" lon="7.745266">
        <ele>362.507496</ele>
        <time>2021-11-13T14:47:20.901Z</time>
      </trkpt>
      <trkpt lat="47.457302" lon="7.744993">
        <ele>362.192290</ele>
        <time>2021-11-13T14:47:23.848Z</time>
      </trkpt>
      <trkpt lat="47.457850" lon="7.744234">
        <ele>361.320422</ele>
        <time>2021-11-13T14:47:33.518Z</time>
      </trkpt>
      <trkpt lat="47.458097" lon="7.743895">
        <ele>361.214619</ele>
        <time>2021-11-13T14:47:39.170Z</time>
      </trkpt>
      <trkpt lat="47.458209" lon="7.743781">
        <ele>361.267179</ele>
        <time>2021-11-13T14:47:41.523Z</time>
      </trkpt>
      <trkpt lat="47.458441" lon="7.743496">
        <ele>361.383771</ele>
        <time>2021-11-13T14:47:46.195Z</time>
      </trkpt>
      <trkpt lat="47.458615" lon="7.743258">
        <ele>361.475394</ele>
        <time>2021-11-13T14:47:50.531Z</time>
      </trkpt>
      <trkpt lat="47.459046" lon="7.742666">
        <ele>361.702783</ele>
        <time>2021-11-13T14:48:01.134Z</time>
      </trkpt>
      <trkpt lat="47.459076" lon="7.742623">
        <ele>361.718933</ele>
        <time>2021-11-13T14:48:01.770Z</time>
      </trkpt>
      <trkpt lat="47.459181" lon="7.742476">
        <ele>361.774826</ele>
        <time>2021-11-13T14:48:04.359Z</time>
      </trkpt>
      <trkpt lat="47.459214" lon="7.742435">
        <ele>361.791488</ele>
        <time>2021-11-13T14:48:04.897Z</time>
      </trkpt>
      <trkpt lat="47.459352" lon="7.742262">
        <ele>361.787467</ele>
        <time>2021-11-13T14:48:07.799Z</time>
      </trkpt>
      <trkpt lat="47.459421" lon="7.742151">
        <ele>361.698892</ele>
        <time>2021-11-13T14:48:09.548Z</time>
      </trkpt>
      <trkpt lat="47.459496" lon="7.742033">
        <ele>361.603756</ele>
        <time>2021-11-13T14:48:10.955Z</time>
      </trkpt>
      <trkpt lat="47.459941" lon="7.741395">
        <ele>361.065298</ele>
        <time>2021-11-13T14:48:19.239Z</time>
      </trkpt>
      <trkpt lat="47.459971" lon="7.741305">
        <ele>361.006354</ele>
        <time>2021-11-13T14:48:20.022Z</time>
      </trkpt>
      <trkpt lat="47.460198" lon="7.741001">
        <ele>360.740297</ele>
        <time>2021-11-13T14:48:23.613Z</time>
      </trkpt>
      <trkpt lat="47.460849" lon="7.740105">
        <ele>359.763692</ele>
        <time>2021-11-13T14:48:33.646Z</time>
      </trkpt>
      <trkpt lat="47.460986" lon="7.739937">
        <ele>359.506750</ele>
        <time>2021-11-13T14:48:35.608Z</time>
      </trkpt>
      <trkpt lat="47.461070" lon="7.739839">
        <ele>359.352284</ele>
        <time>2021-11-13T14:48:36.873Z</time>
      </trkpt>
      <trkpt lat="47.461511" lon="7.739436">
        <ele>358.603844</ele>
        <time>2021-11-13T14:48:42.789Z</time>
      </trkpt>
      <trkpt lat="47.461764" lon="7.739271">
        <ele>358.204629</ele>
        <time>2021-11-13T14:48:46.156Z</time>
      </trkpt>
      <trkpt lat="47.462058" lon="7.739121">
        <ele>357.755607</ele>
        <time>2021-11-13T14:48:49.842Z</time>
      </trkpt>
      <trkpt lat="47.462257" lon="7.739044">
        <ele>357.486392</ele>
        <time>2021-11-13T14:48:52.207Z</time>
      </trkpt>
      <trkpt lat="47.462428" lon="7.738996">
        <ele>357.266755</ele>
        <time>2021-11-13T14:48:54.450Z</time>
      </trkpt>
      <trkpt lat="47.462754" lon="7.738927">
        <ele>356.851183</ele>
        <time>2021-11-13T14:48:58.548Z</time>
      </trkpt>
      <trkpt lat="47.464246" lon="7.738800">
        <ele>354.894729</ele>
        <time>2021-11-13T14:49:15.974Z</time>
      </trkpt>
      <trkpt lat="47.464525" lon="7.738789">
        <ele>354.486551</ele>
        <time>2021-11-13T14:49:19.235Z</time>
      </trkpt>
      <trkpt lat="47.464818" lon="7.738771">
        <ele>354.057673</ele>
        <time>2021-11-13T14:49:22.641Z</time>
      </trkpt>
      <trkpt lat="47.465111" lon="7.738724">
        <ele>353.626653</ele>
        <time>2021-11-13T14:49:26.091Z</time>
      </trkpt>
      <trkpt lat="47.465278" lon="7.738667">
        <ele>353.376001</ele>
        <time>2021-11-13T14:49:28.058Z</time>
      </trkpt>
      <trkpt lat="47.466017" lon="7.738617">
        <ele>352.124117</ele>
        <time>2021-11-13T14:49:36.486Z</time>
      </trkpt>
      <trkpt lat="47.466070" lon="7.738615">
        <ele>352.019392</ele>
        <time>2021-11-13T14:49:37.085Z</time>
      </trkpt>
      <trkpt lat="47.466320" lon="7.738600">
        <ele>351.525159</ele>
        <time>2021-11-13T14:49:39.825Z</time>
      </trkpt>
      <trkpt lat="47.467080" lon="7.738726">
        <ele>350.014526</ele>
        <time>2021-11-13T14:49:48.200Z</time>
      </trkpt>
      <trkpt lat="47.467174" lon="7.738757">
        <ele>349.824288</ele>
        <time>2021-11-13T14:49:49.241Z</time>
      </trkpt>
      <trkpt lat="47.467405" lon="7.738857">
        <ele>349.348855</ele>
        <time>2021-11-13T14:49:51.834Z</time>
      </trkpt>
      <trkpt lat="47.467978" lon="7.739203">
        <ele>347.996783</ele>
        <time>2021-11-13T14:49:58.477Z</time>
      </trkpt>
      <trkpt lat="47.470256" lon="7.740990">
        <ele>342.673856</ele>
        <time>2021-11-13T14:50:26.351Z</time>
      </trkpt>
      <trkpt lat="47.470851" lon="7.741453">
        <ele>341.649982</ele>
        <time>2021-11-13T14:50:34.096Z</time>
      </trkpt>
      <trkpt lat="47.472097" lon="7.742408">
        <ele>340.771499</ele>
        <time>2021-11-13T14:50:52.654Z</time>
      </trkpt>
      <trkpt lat="47.472647" lon="7.742849">
        <ele>340.398667</ele>
        <time>2021-11-13T14:51:01.799Z</time>
      </trkpt>
      <trkpt lat="47.472975" lon="7.743113">
        <ele>340.180848</ele>
        <time>2021-11-13T14:51:07.117Z</time>
      </trkpt>
      <trkpt lat="47.473017" lon="7.743146">
        <ele>340.153106</ele>
        <time>2021-11-13T14:51:07.799Z</time>
      </trkpt>
      <trkpt lat="47.473167" lon="7.743264">
        <ele>340.054004</ele>
        <time>2021-11-13T14:51:10.239Z</time>
      </trkpt>
      <trkpt lat="47.474415" lon="7.744233">
        <ele>338.364665</ele>
        <time>2021-11-13T14:51:27.257Z</time>
      </trkpt>
      <trkpt lat="47.474802" lon="7.744534">
        <ele>337.519090</ele>
        <time>2021-11-13T14:51:32.017Z</time>
      </trkpt>
      <trkpt lat="47.474825" lon="7.744552">
        <ele>337.468769</ele>
        <time>2021-11-13T14:51:32.304Z</time>
      </trkpt>
      <trkpt lat="47.474911" lon="7.744614">
        <ele>337.283751</ele>
        <time>2021-11-13T14:51:33.411Z</time>
      </trkpt>
      <trkpt lat="47.475040" lon="7.744695">
        <ele>337.012728</ele>
        <time>2021-11-13T14:51:34.868Z</time>
      </trkpt>
      <trkpt lat="47.475240" lon="7.744800">
        <ele>336.602301</ele>
        <time>2021-11-13T14:51:37.151Z</time>
      </trkpt>
      <trkpt lat="47.475301" lon="7.744824">
        <ele>336.480228</ele>
        <time>2021-11-13T14:51:37.797Z</time>
      </trkpt>
      <trkpt lat="47.475512" lon="7.744926">
        <ele>336.004324</ele>
        <time>2021-11-13T14:51:40.075Z</time>
      </trkpt>
      <trkpt lat="47.476298" lon="7.745084">
        <ele>333.540381</ele>
        <time>2021-11-13T14:51:48.193Z</time>
      </trkpt>
      <trkpt lat="47.476587" lon="7.745147">
        <ele>332.632983</ele>
        <time>2021-11-13T14:51:51.121Z</time>
      </trkpt>
      <trkpt lat="47.476791" lon="7.745201">
        <ele>331.989247</ele>
        <time>2021-11-13T14:51:53.208Z</time>
      </trkpt>
      <trkpt lat="47.476839" lon="7.745235">
        <ele>331.823941</ele>
        <time>2021-11-13T14:51:53.741Z</time>
      </trkpt>
      <trkpt lat="47.477022" lon="7.745305">
        <ele>331.236807</ele>
        <time>2021-11-13T14:51:55.698Z</time>
      </trkpt>
      <trkpt lat="47.477122" lon="7.745341">
        <ele>330.917119</ele>
        <time>2021-11-13T14:51:56.724Z</time>
      </trkpt>
      <trkpt lat="47.477525" lon="7.745516">
        <ele>329.700847</ele>
        <time>2021-11-13T14:52:01.004Z</time>
      </trkpt>
      <trkpt lat="47.477688" lon="7.745598">
        <ele>329.216959</ele>
        <time>2021-11-13T14:52:02.767Z</time>
      </trkpt>
      <trkpt lat="47.477739" lon="7.745618">
        <ele>329.068668</ele>
        <time>2021-11-13T14:52:03.291Z</time>
      </trkpt>
      <trkpt lat="47.477786" lon="7.745592">
        <ele>328.927638</ele>
        <time>2021-11-13T14:52:03.776Z</time>
      </trkpt>
      <trkpt lat="47.477825" lon="7.745563">
        <ele>328.804960</ele>
        <time>2021-11-13T14:52:04.202Z</time>
      </trkpt>
      <trkpt lat="47.477880" lon="7.745253">
        <ele>328.196125</ele>
        <time>2021-11-13T14:52:06.400Z</time>
      </trkpt>
      <trkpt lat="47.477896" lon="7.745170">
        <ele>328.032168</ele>
        <time>2021-11-13T14:52:06.982Z</time>
      </trkpt>
      <trkpt lat="47.477909" lon="7.745102">
        <ele>327.897926</ele>
        <time>2021-11-13T14:52:07.455Z</time>
      </trkpt>
      <trkpt lat="47.478002" lon="7.744565">
        <ele>326.844873</ele>
        <time>2021-11-13T14:52:11.316Z</time>
      </trkpt>
      <trkpt lat="47.478055" lon="7.744302">
        <ele>326.323539</ele>
        <time>2021-11-13T14:52:13.349Z</time>
      </trkpt>
      <trkpt lat="47.478062" lon="7.744180">
        <ele>326.090952</ele>
        <time>2021-11-13T14:52:14.223Z</time>
      </trkpt>
      <trkpt lat="47.478089" lon="7.744093">
        <ele>325.909096</ele>
        <time>2021-11-13T14:52:14.945Z</time>
      </trkpt>
      <trkpt lat="47.478130" lon="7.743970">
        <ele>325.648572</ele>
        <time>2021-11-13T14:52:15.981Z</time>
      </trkpt>
      <trkpt lat="47.478238" lon="7.743706">
        <ele>325.295261</ele>
        <time>2021-11-13T14:52:18.210Z</time>
      </trkpt>
      <trkpt lat="47.478238" lon="7.743706">
        <ele>325.295261</ele>
        <time>2021-11-13T14:52:18.214Z</time>
      </trkpt>
      <trkpt lat="47.478238" lon="7.743706">
        <ele>325.295261</ele>
        <time>2021-11-13T14:52:18.258Z</time>
      </trkpt>
      <trkpt lat="47.478402" lon="7.743393">
        <ele>324.957033</ele>
        <time>2021-11-13T14:52:21.291Z</time>
      </trkpt>
      <trkpt lat="47.478481" lon="7.743277">
        <ele>324.816396</ele>
        <time>2021-11-13T14:52:22.541Z</time>
      </trkpt>
      <trkpt lat="47.478673" lon="7.743018">
        <ele>324.488090</ele>
        <time>2021-11-13T14:52:25.621Z</time>
      </trkpt>
      <trkpt lat="47.478747" lon="7.742916">
        <ele>324.360296</ele>
        <time>2021-11-13T14:52:26.781Z</time>
      </trkpt>
      <trkpt lat="47.478848" lon="7.742778">
        <ele>324.186580</ele>
        <time>2021-11-13T14:52:28.462Z</time>
      </trkpt>
      <trkpt lat="47.478895" lon="7.742714">
        <ele>324.105868</ele>
        <time>2021-11-13T14:52:29.227Z</time>
      </trkpt>
      <trkpt lat="47.478949" lon="7.742644">
        <ele>324.015151</ele>
        <time>2021-11-13T14:52:30.115Z</time>
      </trkpt>
      <trkpt lat="47.479105" lon="7.742414">
        <ele>323.736874</ele>
        <time>2021-11-13T14:52:32.901Z</time>
      </trkpt>
      <trkpt lat="47.479130" lon="7.742380">
        <ele>323.693967</ele>
        <time>2021-11-13T14:52:33.299Z</time>
      </trkpt>
      <trkpt lat="47.479629" lon="7.741696">
        <ele>322.838095</ele>
        <time>2021-11-13T14:52:42.369Z</time>
      </trkpt>
      <trkpt lat="47.479843" lon="7.741440">
        <ele>322.493726</ele>
        <time>2021-11-13T14:52:45.696Z</time>
      </trkpt>
      <trkpt lat="47.479963" lon="7.741350">
        <ele>322.325371</ele>
        <time>2021-11-13T14:52:47.403Z</time>
      </trkpt>
      <trkpt lat="47.480104" lon="7.741241">
        <ele>322.126296</ele>
        <time>2021-11-13T14:52:49.248Z</time>
      </trkpt>
      <trkpt lat="47.480294" lon="7.741119">
        <ele>321.867112</ele>
        <time>2021-11-13T14:52:51.742Z</time>
      </trkpt>
      <trkpt lat="47.480539" lon="7.740961">
        <ele>321.532670</ele>
        <time>2021-11-13T14:52:54.820Z</time>
      </trkpt>
      <trkpt lat="47.480591" lon="7.740959">
        <ele>321.467577</ele>
        <time>2021-11-13T14:52:55.618Z</time>
      </trkpt>
      <trkpt lat="47.480648" lon="7.741012">
        <ele>321.383334</ele>
        <time>2021-11-13T14:52:56.288Z</time>
      </trkpt>
      <trkpt lat="47.480850" lon="7.741288">
        <ele>321.039267</ele>
        <time>2021-11-13T14:52:59.494Z</time>
      </trkpt>
      <trkpt lat="47.481177" lon="7.741735">
        <ele>320.335918</ele>
        <time>2021-11-13T14:53:04.265Z</time>
      </trkpt>
      <trkpt lat="47.481605" lon="7.742324">
        <ele>319.381535</ele>
        <time>2021-11-13T14:53:10.852Z</time>
      </trkpt>
      <trkpt lat="47.481698" lon="7.742446">
        <ele>319.178597</ele>
        <time>2021-11-13T14:53:12.177Z</time>
      </trkpt>
      <trkpt lat="47.481898" lon="7.742719">
        <ele>318.734300</ele>
        <time>2021-11-13T14:53:15.342Z</time>
      </trkpt>
      <trkpt lat="47.481963" lon="7.742814">
        <ele>318.585122</ele>
        <time>2021-11-13T14:53:16.355Z</time>
      </trkpt>
      <trkpt lat="47.482182" lon="7.743222">
        <ele>318.017027</ele>
        <time>2021-11-13T14:53:20.568Z</time>
      </trkpt>
      <trkpt lat="47.482456" lon="7.742926">
        <ele>317.717661</ele>
        <time>2021-11-13T14:53:24.676Z</time>
      </trkpt>
      <trkpt lat="47.482599" lon="7.742771">
        <ele>317.561240</ele>
        <time>2021-11-13T14:53:26.887Z</time>
      </trkpt>
      <trkpt lat="47.482889" lon="7.742461">
        <ele>317.245545</ele>
        <time>2021-11-13T14:53:31.328Z</time>
      </trkpt>
      <trkpt lat="47.482927" lon="7.742421">
        <ele>317.204394</ele>
        <time>2021-11-13T14:53:32.010Z</time>
      </trkpt>
      <trkpt lat="47.483275" lon="7.742050">
        <ele>316.825910</ele>
        <time>2021-11-13T14:53:37.302Z</time>
      </trkpt>
      <trkpt lat="47.483828" lon="7.741475">
        <ele>316.350838</ele>
        <time>2021-11-13T14:53:46.184Z</time>
      </trkpt>
      <trkpt lat="47.483946" lon="7.741362">
        <ele>316.299014</ele>
        <time>2021-11-13T14:53:47.941Z</time>
      </trkpt>
      <trkpt lat="47.484154" lon="7.741142">
        <ele>316.204745</ele>
        <time>2021-11-13T14:53:51.170Z</time>
      </trkpt>
      <trkpt lat="47.484268" lon="7.741010">
        <ele>316.151373</ele>
        <time>2021-11-13T14:53:52.926Z</time>
      </trkpt>
      <trkpt lat="47.484365" lon="7.740878">
        <ele>316.102784</ele>
        <time>2021-11-13T14:53:54.504Z</time>
      </trkpt>
      <trkpt lat="47.484807" lon="7.739866">
        <ele>315.802545</ele>
        <time>2021-11-13T14:54:06.345Z</time>
      </trkpt>
      <trkpt lat="47.484997" lon="7.738871">
        <ele>315.531963</ele>
        <time>2021-11-13T14:54:17.894Z</time>
      </trkpt>
      <trkpt lat="47.485014" lon="7.738715">
        <ele>315.490372</ele>
        <time>2021-11-13T14:54:19.432Z</time>
      </trkpt>
      <trkpt lat="47.485032" lon="7.738535">
        <ele>315.442478</ele>
        <time>2021-11-13T14:54:21.389Z</time>
      </trkpt>
      <trkpt lat="47.485045" lon="7.738427">
        <ele>315.413604</ele>
        <time>2021-11-13T14:54:22.266Z</time>
      </trkpt>
      <trkpt lat="47.485067" lon="7.738278">
        <ele>315.373461</ele>
        <time>2021-11-13T14:54:23.716Z</time>
      </trkpt>
      <trkpt lat="47.485088" lon="7.738190">
        <ele>315.348897</ele>
        <time>2021-11-13T14:54:24.469Z</time>
      </trkpt>
      <trkpt lat="47.485121" lon="7.738124">
        <ele>315.327287</ele>
        <time>2021-11-13T14:54:25.474Z</time>
      </trkpt>
      <trkpt lat="47.485202" lon="7.737978">
        <ele>315.277567</ele>
        <time>2021-11-13T14:54:27.043Z</time>
      </trkpt>
      <trkpt lat="47.485384" lon="7.737678">
        <ele>315.171454</ele>
        <time>2021-11-13T14:54:30.438Z</time>
      </trkpt>
      <trkpt lat="47.485530" lon="7.737434">
        <ele>315.085674</ele>
        <time>2021-11-13T14:54:32.940Z</time>
      </trkpt>
      <trkpt lat="47.485631" lon="7.737265">
        <ele>314.932265</ele>
        <time>2021-11-13T14:54:34.988Z</time>
      </trkpt>
      <trkpt lat="47.485696" lon="7.737158">
        <ele>314.820067</ele>
        <time>2021-11-13T14:54:36.087Z</time>
      </trkpt>
      <trkpt lat="47.485750" lon="7.737070">
        <ele>314.727373</ele>
        <time>2021-11-13T14:54:36.971Z</time>
      </trkpt>
      <trkpt lat="47.485806" lon="7.737111">
        <ele>314.655275</ele>
        <time>2021-11-13T14:54:37.651Z</time>
      </trkpt>
      <trkpt lat="47.485875" lon="7.737156">
        <ele>314.568262</ele>
        <time>2021-11-13T14:54:38.818Z</time>
      </trkpt>
      <trkpt lat="47.485976" lon="7.737217">
        <ele>314.442379</ele>
        <time>2021-11-13T14:54:40.106Z</time>
      </trkpt>
      <trkpt lat="47.486087" lon="7.737329">
        <ele>314.287348</ele>
        <time>2021-11-13T14:54:41.585Z</time>
      </trkpt>
      <trkpt lat="47.486287" lon="7.737642">
        <ele>313.951432</ele>
        <time>2021-11-13T14:54:45.038Z</time>
      </trkpt>
      <trkpt lat="47.486314" lon="7.737686">
        <ele>313.905086</ele>
        <time>2021-11-13T14:54:45.439Z</time>
      </trkpt>
      <trkpt lat="47.486354" lon="7.737753">
        <ele>313.835370</ele>
        <time>2021-11-13T14:54:46.078Z</time>
      </trkpt>
      <trkpt lat="47.486384" lon="7.737805">
        <ele>313.782052</ele>
        <time>2021-11-13T14:54:46.701Z</time>
      </trkpt>
      <trkpt lat="47.486495" lon="7.737981">
        <ele>313.594321</ele>
        <time>2021-11-13T14:54:48.720Z</time>
      </trkpt>
      <trkpt lat="47.486621" lon="7.738169">
        <ele>313.387843</ele>
        <time>2021-11-13T14:54:50.677Z</time>
      </trkpt>
      <trkpt lat="47.486676" lon="7.738293">
        <ele>313.272180</ele>
        <time>2021-11-13T14:54:52.026Z</time>
      </trkpt>
      <trkpt lat="47.486689" lon="7.738358">
        <ele>313.219320</ele>
        <time>2021-11-13T14:54:52.588Z</time>
      </trkpt>
      <trkpt lat="47.486696" lon="7.738489">
        <ele>313.116847</ele>
        <time>2021-11-13T14:54:53.632Z</time>
      </trkpt>
      <trkpt lat="47.486688" lon="7.738613">
        <ele>313.019712</ele>
        <time>2021-11-13T14:54:54.531Z</time>
      </trkpt>
      <trkpt lat="47.486652" lon="7.738745">
        <ele>313.178561</ele>
        <time>2021-11-13T14:54:56.091Z</time>
      </trkpt>
      <trkpt lat="47.486599" lon="7.738994">
        <ele>313.585822</ele>
        <time>2021-11-13T14:54:58.460Z</time>
      </trkpt>
      <trkpt lat="47.486588" lon="7.739167">
        <ele>313.856900</ele>
        <time>2021-11-13T14:55:00.258Z</time>
      </trkpt>
      <trkpt lat="47.486574" lon="7.739389">
        <ele>314.204731</ele>
        <time>2021-11-13T14:55:03.157Z</time>
      </trkpt>
      <trkpt lat="47.486546" lon="7.739919">
        <ele>315.034071</ele>
        <time>2021-11-13T14:55:10.240Z</time>
      </trkpt>
      <trkpt lat="47.486498" lon="7.740674">
        <ele>316.217098</ele>
        <time>2021-11-13T14:55:24.835Z</time>
      </trkpt>
      <trkpt lat="47.486493" lon="7.740755">
        <ele>316.343986</ele>
        <time>2021-11-13T14:55:26.673Z</time>
      </trkpt>
      <trkpt lat="47.486469" lon="7.741035">
        <ele>316.784296</ele>
        <time>2021-11-13T14:55:33.373Z</time>
      </trkpt>
      <trkpt lat="47.486458" lon="7.741135">
        <ele>316.942353</ele>
        <time>2021-11-13T14:55:35.722Z</time>
      </trkpt>
      <trkpt lat="47.486413" lon="7.741401">
        <ele>317.663292</ele>
        <time>2021-11-13T14:55:42.216Z</time>
      </trkpt>
      <trkpt lat="47.486335" lon="7.741716">
        <ele>318.886529</ele>
        <time>2021-11-13T14:55:50.320Z</time>
      </trkpt>
      <trkpt lat="47.486221" lon="7.742103">
        <ele>320.425855</ele>
        <time>2021-11-13T14:56:01.212Z</time>
      </trkpt>
      <trkpt lat="47.486170" lon="7.742275">
        <ele>321.110722</ele>
        <time>2021-11-13T14:56:05.653Z</time>
      </trkpt>
      <trkpt lat="47.486081" lon="7.742579">
        <ele>322.318728</ele>
        <time>2021-11-13T14:56:15.163Z</time>
      </trkpt>
      <trkpt lat="47.485726" lon="7.743655">
        <ele>326.684707</ele>
        <time>2021-11-13T14:56:44.745Z</time>
      </trkpt>
      <trkpt lat="47.485353" lon="7.744189">
        <ele>328.690083</ele>
        <time>2021-11-13T14:57:02.188Z</time>
      </trkpt>
      <trkpt lat="47.485152" lon="7.744380">
        <ele>329.589281</ele>
        <time>2021-11-13T14:57:10.198Z</time>
      </trkpt>
      <trkpt lat="47.484772" lon="7.744741">
        <ele>331.289130</ele>
        <time>2021-11-13T14:57:21.387Z</time>
      </trkpt>
      <trkpt lat="47.484727" lon="7.744803">
        <ele>331.520581</ele>
        <time>2021-11-13T14:57:22.910Z</time>
      </trkpt>
      <trkpt lat="47.484658" lon="7.744938">
        <ele>331.951166</ele>
        <time>2021-11-13T14:57:25.418Z</time>
      </trkpt>
      <trkpt lat="47.484616" lon="7.745052">
        <ele>332.281464</ele>
        <time>2021-11-13T14:57:29.003Z</time>
      </trkpt>
      <trkpt lat="47.484266" lon="7.746897">
        <ele>337.924095</ele>
        <time>2021-11-13T14:58:05.129Z</time>
      </trkpt>
      <trkpt lat="47.484176" lon="7.747166">
        <ele>338.853754</ele>
        <time>2021-11-13T14:58:12.353Z</time>
      </trkpt>
      <trkpt lat="47.483953" lon="7.747697">
        <ele>340.790059</ele>
        <time>2021-11-13T14:58:26.979Z</time>
      </trkpt>
      <trkpt lat="47.483857" lon="7.747917">
        <ele>341.601147</ele>
        <time>2021-11-13T14:58:34.946Z</time>
      </trkpt>
      <trkpt lat="47.483653" lon="7.748384">
        <ele>344.093035</ele>
        <time>2021-11-13T14:58:51.533Z</time>
      </trkpt>
      <trkpt lat="47.483455" lon="7.748863">
        <ele>346.752853</ele>
        <time>2021-11-13T14:59:08.818Z</time>
      </trkpt>
      <trkpt lat="47.483127" lon="7.749663">
        <ele>351.185347</ele>
        <time>2021-11-13T14:59:34.492Z</time>
      </trkpt>
      <trkpt lat="47.483104" lon="7.749789">
        <ele>351.803603</ele>
        <time>2021-11-13T14:59:39.968Z</time>
      </trkpt>
      <trkpt lat="47.483118" lon="7.750142">
        <ele>353.478652</ele>
        <time>2021-11-13T14:59:48.008Z</time>
      </trkpt>
      <trkpt lat="47.483212" lon="7.750380">
        <ele>354.861051</ele>
        <time>2021-11-13T14:59:56.829Z</time>
      </trkpt>
      <trkpt lat="47.483353" lon="7.750495">
        <ele>356.270778</ele>
        <time>2021-11-13T15:00:02.756Z</time>
      </trkpt>
      <trkpt lat="47.483598" lon="7.750514">
        <ele>358.418958</ele>
        <time>2021-11-13T15:00:15.638Z</time>
      </trkpt>
      <trkpt lat="47.483821" lon="7.750312">
        <ele>360.708370</ele>
        <time>2021-11-13T15:00:28.837Z</time>
      </trkpt>
      <trkpt lat="47.484079" lon="7.749775">
        <ele>364.607154</ele>
        <time>2021-11-13T15:00:50.493Z</time>
      </trkpt>
      <trkpt lat="47.484276" lon="7.749526">
        <ele>366.875713</ele>
        <time>2021-11-13T15:01:03.833Z</time>
      </trkpt>
      <trkpt lat="47.484374" lon="7.749499">
        <ele>367.748553</ele>
        <time>2021-11-13T15:01:08.885Z</time>
      </trkpt>
      <trkpt lat="47.484403" lon="7.749499">
        <ele>368.002479</ele>
        <time>2021-11-13T15:01:10.522Z</time>
      </trkpt>
      <trkpt lat="47.484462" lon="7.749511">
        <ele>368.523944</ele>
        <time>2021-11-13T15:01:13.111Z</time>
      </trkpt>
      <trkpt lat="47.484510" lon="7.749532">
        <ele>368.962220</ele>
        <time>2021-11-13T15:01:15.879Z</time>
      </trkpt>
      <trkpt lat="47.484572" lon="7.749580">
        <ele>369.574908</ele>
        <time>2021-11-13T15:01:21.145Z</time>
      </trkpt>
      <trkpt lat="47.484626" lon="7.749715">
        <ele>370.577376</ele>
        <time>2021-11-13T15:01:26.542Z</time>
      </trkpt>
      <trkpt lat="47.484700" lon="7.749896">
        <ele>372.164492</ele>
        <time>2021-11-13T15:01:33.880Z</time>
      </trkpt>
      <trkpt lat="47.484640" lon="7.750440">
        <ele>376.299834</ele>
        <time>2021-11-13T15:01:55.803Z</time>
      </trkpt>
      <trkpt lat="47.484582" lon="7.750743">
        <ele>378.662519</ele>
        <time>2021-11-13T15:02:09.645Z</time>
      </trkpt>
      <trkpt lat="47.484428" lon="7.751559">
        <ele>385.018799</ele>
        <time>2021-11-13T15:02:46.603Z</time>
      </trkpt>
      <trkpt lat="47.484067" lon="7.753436">
        <ele>395.728080</ele>
        <time>2021-11-13T15:04:00.624Z</time>
      </trkpt>
      <trkpt lat="47.483916" lon="7.754251">
        <ele>399.434531</ele>
        <time>2021-11-13T15:04:16.969Z</time>
      </trkpt>
      <trkpt lat="47.483838" lon="7.754668">
        <ele>401.332239</ele>
        <time>2021-11-13T15:04:24.828Z</time>
      </trkpt>
      <trkpt lat="47.483795" lon="7.754908">
        <ele>402.043572</ele>
        <time>2021-11-13T15:04:28.331Z</time>
      </trkpt>
      <trkpt lat="47.483754" lon="7.755239">
        <ele>402.512489</ele>
        <time>2021-11-13T15:04:33.684Z</time>
      </trkpt>
      <trkpt lat="47.483769" lon="7.756121">
        <ele>403.741905</ele>
        <time>2021-11-13T15:04:46.922Z</time>
      </trkpt>
      <trkpt lat="47.483791" lon="7.756407">
        <ele>404.143006</ele>
        <time>2021-11-13T15:04:49.353Z</time>
      </trkpt>
      <trkpt lat="47.483892" lon="7.756713">
        <ele>404.617542</ele>
        <time>2021-11-13T15:04:53.955Z</time>
      </trkpt>
      <trkpt lat="47.484252" lon="7.757357">
        <ele>406.318910</ele>
        <time>2021-11-13T15:05:05.362Z</time>
      </trkpt>
      <trkpt lat="47.484552" lon="7.757716">
        <ele>409.189979</ele>
        <time>2021-11-13T15:05:21.046Z</time>
      </trkpt>
      <trkpt lat="47.485109" lon="7.758040">
        <ele>413.643593</ele>
        <time>2021-11-13T15:05:49.340Z</time>
      </trkpt>
      <trkpt lat="47.485584" lon="7.758116">
        <ele>417.198870</ele>
        <time>2021-11-13T15:06:13.205Z</time>
      </trkpt>
      <trkpt lat="47.485622" lon="7.758125">
        <ele>417.485243</ele>
        <time>2021-11-13T15:06:17.279Z</time>
      </trkpt>
      <trkpt lat="47.485673" lon="7.758136">
        <ele>417.868766</ele>
        <time>2021-11-13T15:06:20.591Z</time>
      </trkpt>
      <trkpt lat="47.485984" lon="7.758280">
        <ele>420.756830</ele>
        <time>2021-11-13T15:06:37.685Z</time>
      </trkpt>
      <trkpt lat="47.486303" lon="7.758588">
        <ele>424.576152</ele>
        <time>2021-11-13T15:06:58.600Z</time>
      </trkpt>
      <trkpt lat="47.486484" lon="7.758798">
        <ele>426.882400</ele>
        <time>2021-11-13T15:07:09.172Z</time>
      </trkpt>
      <trkpt lat="47.486636" lon="7.758922">
        <ele>428.622792</ele>
        <time>2021-11-13T15:07:21.010Z</time>
      </trkpt>
      <trkpt lat="47.487031" lon="7.759652">
        <ele>434.959587</ele>
        <time>2021-11-13T15:07:54.562Z</time>
      </trkpt>
      <trkpt lat="47.487890" lon="7.761232">
        <ele>449.441328</ele>
        <time>2021-11-13T15:09:12.041Z</time>
      </trkpt>
      <trkpt lat="47.488339" lon="7.762200">
        <ele>458.120632</ele>
        <time>2021-11-13T15:09:59.231Z</time>
      </trkpt>
      <trkpt lat="47.488582" lon="7.762924">
        <ele>464.687092</ele>
        <time>2021-11-13T15:10:33.073Z</time>
      </trkpt>
      <trkpt lat="47.488619" lon="7.763292">
        <ele>467.709218</ele>
        <time>2021-11-13T15:10:48.634Z</time>
      </trkpt>
      <trkpt lat="47.488592" lon="7.765070">
        <ele>481.660669</ele>
        <time>2021-11-13T15:12:07.342Z</time>
      </trkpt>
      <trkpt lat="47.488674" lon="7.765750">
        <ele>486.635020</ele>
        <time>2021-11-13T15:12:37.282Z</time>
      </trkpt>
      <trkpt lat="47.488779" lon="7.766201">
        <ele>490.070235</ele>
        <time>2021-11-13T15:12:57.917Z</time>
      </trkpt>
      <trkpt lat="47.488885" lon="7.766666">
        <ele>493.604309</ele>
        <time>2021-11-13T15:13:15.903Z</time>
      </trkpt>
      <trkpt lat="47.489047" lon="7.767376">
        <ele>497.023686</ele>
        <time>2021-11-13T15:13:37.952Z</time>
      </trkpt>
      <trkpt lat="47.489106" lon="7.767650">
        <ele>497.085318</ele>
        <time>2021-11-13T15:13:44.915Z</time>
      </trkpt>
      <trkpt lat="47.489166" lon="7.767905">
        <ele>497.143188</ele>
        <time>2021-11-13T15:13:50.486Z</time>
      </trkpt>
      <trkpt lat="47.489202" lon="7.768057">
        <ele>497.177708</ele>
        <time>2021-11-13T15:13:53.273Z</time>
      </trkpt>
      <trkpt lat="47.489217" lon="7.768114">
        <ele>497.190817</ele>
        <time>2021-11-13T15:13:54.608Z</time>
      </trkpt>
      <trkpt lat="47.489260" lon="7.768283">
        <ele>497.229520</ele>
        <time>2021-11-13T15:13:57.770Z</time>
      </trkpt>
      <trkpt lat="47.489330" lon="7.768521">
        <ele>497.285150</ele>
        <time>2021-11-13T15:13:59.940Z</time>
      </trkpt>
      <trkpt lat="47.489759" lon="7.769607">
        <ele>496.966538</ele>
        <time>2021-11-13T15:14:08.369Z</time>
      </trkpt>
      <trkpt lat="47.489882" lon="7.769861">
        <ele>495.179382</ele>
        <time>2021-11-13T15:14:10.235Z</time>
      </trkpt>
      <trkpt lat="47.490063" lon="7.770088">
        <ele>493.171352</ele>
        <time>2021-11-13T15:14:12.309Z</time>
      </trkpt>
      <trkpt lat="47.490367" lon="7.770241">
        <ele>490.453679</ele>
        <time>2021-11-13T15:14:15.052Z</time>
      </trkpt>
      <trkpt lat="47.491182" lon="7.770222">
        <ele>483.554935</ele>
        <time>2021-11-13T15:14:22.067Z</time>
      </trkpt>
      <trkpt lat="47.492020" lon="7.770184">
        <ele>478.975110</ele>
        <time>2021-11-13T15:14:29.576Z</time>
      </trkpt>
      <trkpt lat="47.492137" lon="7.770169">
        <ele>478.408551</ele>
        <time>2021-11-13T15:14:30.694Z</time>
      </trkpt>
      <trkpt lat="47.492435" lon="7.770039">
        <ele>476.909750</ele>
        <time>2021-11-13T15:14:33.643Z</time>
      </trkpt>
      <trkpt lat="47.492661" lon="7.769832">
        <ele>475.627545</ele>
        <time>2021-11-13T15:14:36.254Z</time>
      </trkpt>
      <trkpt lat="47.492753" lon="7.769701">
        <ele>475.011640</ele>
        <time>2021-11-13T15:14:37.695Z</time>
      </trkpt>
      <trkpt lat="47.492853" lon="7.769527">
        <ele>474.267030</ele>
        <time>2021-11-13T15:14:39.382Z</time>
      </trkpt>
      <trkpt lat="47.493003" lon="7.769128">
        <ele>473.169205</ele>
        <time>2021-11-13T15:14:43.485Z</time>
      </trkpt>
      <trkpt lat="47.493049" lon="7.768906">
        <ele>472.758238</ele>
        <time>2021-11-13T15:14:45.657Z</time>
      </trkpt>
      <trkpt lat="47.493059" lon="7.768825">
        <ele>472.612507</ele>
        <time>2021-11-13T15:14:46.624Z</time>
      </trkpt>
      <trkpt lat="47.493070" lon="7.768289">
        <ele>471.663430</ele>
        <time>2021-11-13T15:14:52.020Z</time>
      </trkpt>
      <trkpt lat="47.493062" lon="7.767908">
        <ele>470.988792</ele>
        <time>2021-11-13T15:14:55.089Z</time>
      </trkpt>
      <trkpt lat="47.493026" lon="7.766838">
        <ele>469.092705</ele>
        <time>2021-11-13T15:15:02.453Z</time>
      </trkpt>
      <trkpt lat="47.493007" lon="7.766226">
        <ele>464.471727</ele>
        <time>2021-11-13T15:15:06.198Z</time>
      </trkpt>
      <trkpt lat="47.492990" lon="7.765695">
        <ele>459.888131</ele>
        <time>2021-11-13T15:15:09.231Z</time>
      </trkpt>
      <trkpt lat="47.493004" lon="7.765343">
        <ele>456.847816</ele>
        <time>2021-11-13T15:15:11.222Z</time>
      </trkpt>
      <trkpt lat="47.493099" lon="7.764952">
        <ele>453.265148</ele>
        <time>2021-11-13T15:15:13.549Z</time>
      </trkpt>
      <trkpt lat="47.493263" lon="7.764681">
        <ele>450.128316</ele>
        <time>2021-11-13T15:15:15.578Z</time>
      </trkpt>
      <trkpt lat="47.493540" lon="7.764515">
        <ele>446.314744</ele>
        <time>2021-11-13T15:15:18.088Z</time>
      </trkpt>
      <trkpt lat="47.493590" lon="7.764507">
        <ele>445.612698</ele>
        <time>2021-11-13T15:15:18.516Z</time>
      </trkpt>
      <trkpt lat="47.493680" lon="7.764500">
        <ele>444.228782</ele>
        <time>2021-11-13T15:15:19.256Z</time>
      </trkpt>
      <trkpt lat="47.493931" lon="7.764617">
        <ele>440.187866</ele>
        <time>2021-11-13T15:15:21.438Z</time>
      </trkpt>
      <trkpt lat="47.494264" lon="7.764935">
        <ele>434.102400</ele>
        <time>2021-11-13T15:15:24.703Z</time>
      </trkpt>
      <trkpt lat="47.494492" lon="7.765172">
        <ele>429.824084</ele>
        <time>2021-11-13T15:15:27.076Z</time>
      </trkpt>
      <trkpt lat="47.494591" lon="7.765251">
        <ele>428.096990</ele>
        <time>2021-11-13T15:15:28.010Z</time>
      </trkpt>
      <trkpt lat="47.495053" lon="7.765476">
        <ele>420.628471</ele>
        <time>2021-11-13T15:15:32.056Z</time>
      </trkpt>
      <trkpt lat="47.495769" lon="7.765706">
        <ele>412.267197</ele>
        <time>2021-11-13T15:15:38.329Z</time>
      </trkpt>
      <trkpt lat="47.496192" lon="7.765793">
        <ele>407.821183</ele>
        <time>2021-11-13T15:15:42.023Z</time>
      </trkpt>
      <trkpt lat="47.496330" lon="7.765821">
        <ele>406.371078</ele>
        <time>2021-11-13T15:15:43.213Z</time>
      </trkpt>
      <trkpt lat="47.496345" lon="7.765747">
        <ele>405.827655</ele>
        <time>2021-11-13T15:15:43.846Z</time>
      </trkpt>
      <trkpt lat="47.496601" lon="7.765776">
        <ele>403.154738</ele>
        <time>2021-11-13T15:15:46.090Z</time>
      </trkpt>
      <trkpt lat="47.496981" lon="7.765800">
        <ele>399.289193</ele>
        <time>2021-11-13T15:15:49.360Z</time>
      </trkpt>
      <trkpt lat="47.497683" lon="7.765775">
        <ele>393.578669</ele>
        <time>2021-11-13T15:15:55.441Z</time>
      </trkpt>
      <trkpt lat="47.497832" lon="7.765749">
        <ele>392.358565</ele>
        <time>2021-11-13T15:15:56.723Z</time>
      </trkpt>
      <trkpt lat="47.498206" lon="7.765691">
        <ele>389.300437</ele>
        <time>2021-11-13T15:16:00.061Z</time>
      </trkpt>
      <trkpt lat="47.498581" lon="7.765578">
        <ele>386.188270</ele>
        <time>2021-11-13T15:16:03.511Z</time>
      </trkpt>
      <trkpt lat="47.499021" lon="7.765388">
        <ele>383.915710</ele>
        <time>2021-11-13T15:16:07.762Z</time>
      </trkpt>
      <trkpt lat="47.500750" lon="7.764229">
        <ele>378.431605</ele>
        <time>2021-11-13T15:16:27.398Z</time>
      </trkpt>
      <trkpt lat="47.501206" lon="7.764177">
        <ele>378.068294</ele>
        <time>2021-11-13T15:16:34.010Z</time>
      </trkpt>
      <trkpt lat="47.501281" lon="7.764267">
        <ele>377.991596</ele>
        <time>2021-11-13T15:16:35.262Z</time>
      </trkpt>
      <trkpt lat="47.501281" lon="7.764267">
        <ele>377.991596</ele>
        <time>2021-11-13T15:16:35.326Z</time>
      </trkpt>
      <trkpt lat="47.501281" lon="7.764267">
        <ele>377.991596</ele>
        <time>2021-11-13T15:16:35.331Z</time>
      </trkpt>
      <trkpt lat="47.501345" lon="7.764315">
        <ele>377.934602</ele>
        <time>2021-11-13T15:16:36.322Z</time>
      </trkpt>
      <trkpt lat="47.501402" lon="7.764367">
        <ele>377.881414</ele>
        <time>2021-11-13T15:16:37.801Z</time>
      </trkpt>
      <trkpt lat="47.501717" lon="7.764903">
        <ele>377.500156</ele>
        <time>2021-11-13T15:16:44.916Z</time>
      </trkpt>
      <trkpt lat="47.501785" lon="7.764941">
        <ele>377.442417</ele>
        <time>2021-11-13T15:16:45.963Z</time>
      </trkpt>
      <trkpt lat="47.501861" lon="7.764937">
        <ele>377.382006</ele>
        <time>2021-11-13T15:16:46.932Z</time>
      </trkpt>
      <trkpt lat="47.502213" lon="7.764795">
        <ele>376.973293</ele>
        <time>2021-11-13T15:16:52.335Z</time>
      </trkpt>
      <trkpt lat="47.502299" lon="7.764761">
        <ele>376.867167</ele>
        <time>2021-11-13T15:16:54.028Z</time>
      </trkpt>
      <trkpt lat="47.502400" lon="7.764717">
        <ele>376.741646</ele>
        <time>2021-11-13T15:16:55.490Z</time>
      </trkpt>
      <trkpt lat="47.502578" lon="7.764620">
        <ele>376.515506</ele>
        <time>2021-11-13T15:16:57.898Z</time>
      </trkpt>
      <trkpt lat="47.503736" lon="7.764325">
        <ele>374.988624</ele>
        <time>2021-11-13T15:17:11.435Z</time>
      </trkpt>
      <trkpt lat="47.504400" lon="7.764478">
        <ele>372.757286</ele>
        <time>2021-11-13T15:17:18.103Z</time>
      </trkpt>
      <trkpt lat="47.505115" lon="7.765011">
        <ele>370.099120</ele>
        <time>2021-11-13T15:17:25.872Z</time>
      </trkpt>
      <trkpt lat="47.506143" lon="7.764883">
        <ele>367.026910</ele>
        <time>2021-11-13T15:17:36.723Z</time>
      </trkpt>
      <trkpt lat="47.506301" lon="7.764884">
        <ele>366.575264</ele>
        <time>2021-11-13T15:17:38.266Z</time>
      </trkpt>
      <trkpt lat="47.506377" lon="7.764894">
        <ele>366.357163</ele>
        <time>2021-11-13T15:17:39.196Z</time>
      </trkpt>
      <trkpt lat="47.506619" lon="7.764938">
        <ele>365.660209</ele>
        <time>2021-11-13T15:17:41.852Z</time>
      </trkpt>
      <trkpt lat="47.506716" lon="7.764971">
        <ele>365.375708</ele>
        <time>2021-11-13T15:17:42.877Z</time>
      </trkpt>
      <trkpt lat="47.506870" lon="7.765037">
        <ele>364.917424</ele>
        <time>2021-11-13T15:17:44.701Z</time>
      </trkpt>
      <trkpt lat="47.507429" lon="7.765409">
        <ele>362.990925</ele>
        <time>2021-11-13T15:17:50.745Z</time>
      </trkpt>
      <trkpt lat="47.507506" lon="7.765470">
        <ele>362.693182</ele>
        <time>2021-11-13T15:17:51.768Z</time>
      </trkpt>
      <trkpt lat="47.507650" lon="7.765503">
        <ele>362.196392</ele>
        <time>2021-11-13T15:17:53.120Z</time>
      </trkpt>
      <trkpt lat="47.507977" lon="7.765561">
        <ele>361.073569</ele>
        <time>2021-11-13T15:17:56.602Z</time>
      </trkpt>
      <trkpt lat="47.508137" lon="7.765584">
        <ele>360.525511</ele>
        <time>2021-11-13T15:17:58.263Z</time>
      </trkpt>
      <trkpt lat="47.508322" lon="7.765556">
        <ele>359.891498</ele>
        <time>2021-11-13T15:18:00.200Z</time>
      </trkpt>
      <trkpt lat="47.508744" lon="7.765478">
        <ele>358.441592</ele>
        <time>2021-11-13T15:18:04.402Z</time>
      </trkpt>
      <trkpt lat="47.509057" lon="7.765447">
        <ele>357.467470</ele>
        <time>2021-11-13T15:18:07.427Z</time>
      </trkpt>
      <trkpt lat="47.509436" lon="7.765441">
        <ele>356.392560</ele>
        <time>2021-11-13T15:18:11.055Z</time>
      </trkpt>
      <trkpt lat="47.509600" lon="7.765443">
        <ele>355.927439</ele>
        <time>2021-11-13T15:18:12.668Z</time>
      </trkpt>
      <trkpt lat="47.509741" lon="7.765454">
        <ele>355.527007</ele>
        <time>2021-11-13T15:18:14.049Z</time>
      </trkpt>
      <trkpt lat="47.509899" lon="7.765445">
        <ele>355.078585</ele>
        <time>2021-11-13T15:18:15.684Z</time>
      </trkpt>
      <trkpt lat="47.509942" lon="7.765436">
        <ele>354.955424</ele>
        <time>2021-11-13T15:18:16.169Z</time>
      </trkpt>
      <trkpt lat="47.510019" lon="7.765402">
        <ele>354.727546</ele>
        <time>2021-11-13T15:18:17.052Z</time>
      </trkpt>
      <trkpt lat="47.510078" lon="7.765363">
        <ele>354.544300</ele>
        <time>2021-11-13T15:18:17.789Z</time>
      </trkpt>
      <trkpt lat="47.510179" lon="7.765273">
        <ele>354.209980</ele>
        <time>2021-11-13T15:18:19.087Z</time>
      </trkpt>
      <trkpt lat="47.510392" lon="7.765088">
        <ele>353.509630</ele>
        <time>2021-11-13T15:18:22.112Z</time>
      </trkpt>
      <trkpt lat="47.510486" lon="7.765012">
        <ele>353.205882</ele>
        <time>2021-11-13T15:18:23.437Z</time>
      </trkpt>
      <trkpt lat="47.510628" lon="7.764909">
        <ele>352.787363</ele>
        <time>2021-11-13T15:18:25.298Z</time>
      </trkpt>
      <trkpt lat="47.510922" lon="7.764773">
        <ele>352.237049</ele>
        <time>2021-11-13T15:18:28.998Z</time>
      </trkpt>
      <trkpt lat="47.511261" lon="7.764772">
        <ele>351.631379</ele>
        <time>2021-11-13T15:18:32.694Z</time>
      </trkpt>
      <trkpt lat="47.511298" lon="7.764777">
        <ele>351.564999</ele>
        <time>2021-11-13T15:18:33.091Z</time>
      </trkpt>
      <trkpt lat="47.511360" lon="7.764807">
        <ele>351.448462</ele>
        <time>2021-11-13T15:18:33.749Z</time>
      </trkpt>
      <trkpt lat="47.511702" lon="7.765093">
        <ele>350.746696</ele>
        <time>2021-11-13T15:18:37.882Z</time>
      </trkpt>
      <trkpt lat="47.511866" lon="7.765218">
        <ele>350.417139</ele>
        <time>2021-11-13T15:18:39.875Z</time>
      </trkpt>
      <trkpt lat="47.511929" lon="7.765269">
        <ele>350.288854</ele>
        <time>2021-11-13T15:18:40.855Z</time>
      </trkpt>
      <trkpt lat="47.512026" lon="7.765311">
        <ele>350.108291</ele>
        <time>2021-11-13T15:18:41.972Z</time>
      </trkpt>
      <trkpt lat="47.512359" lon="7.765319">
        <ele>349.536072</ele>
        <time>2021-11-13T15:18:46.164Z</time>
      </trkpt>
      <trkpt lat="47.512523" lon="7.765308">
        <ele>349.302739</ele>
        <time>2021-11-13T15:18:47.937Z</time>
      </trkpt>
      <trkpt lat="47.512596" lon="7.765294">
        <ele>349.198116</ele>
        <time>2021-11-13T15:18:48.812Z</time>
      </trkpt>
      <trkpt lat="47.512876" lon="7.765238">
        <ele>348.796536</ele>
        <time>2021-11-13T15:18:52.207Z</time>
      </trkpt>
      <trkpt lat="47.512947" lon="7.765205">
        <ele>348.690768</ele>
        <time>2021-11-13T15:18:53.086Z</time>
      </trkpt>
      <trkpt lat="47.512959" lon="7.765198">
        <ele>348.672436</ele>
        <time>2021-11-13T15:18:53.258Z</time>
      </trkpt>
      <trkpt lat="47.513036" lon="7.765134">
        <ele>348.546929</ele>
        <time>2021-11-13T15:18:54.677Z</time>
      </trkpt>
      <trkpt lat="47.513615" lon="7.764654">
        <ele>347.603769</ele>
        <time>2021-11-13T15:19:02.019Z</time>
      </trkpt>
      <trkpt lat="47.513661" lon="7.764590">
        <ele>347.514052</ele>
        <time>2021-11-13T15:19:03.530Z</time>
      </trkpt>
      <trkpt lat="47.513707" lon="7.764494">
        <ele>347.401059</ele>
        <time>2021-11-13T15:19:04.380Z</time>
      </trkpt>
      <trkpt lat="47.513747" lon="7.764397">
        <ele>347.291958</ele>
        <time>2021-11-13T15:19:05.174Z</time>
      </trkpt>
      <trkpt lat="47.513810" lon="7.764252">
        <ele>347.126449</ele>
        <time>2021-11-13T15:19:06.508Z</time>
      </trkpt>
      <trkpt lat="47.513823" lon="7.764227">
        <ele>347.096161</ele>
        <time>2021-11-13T15:19:06.747Z</time>
      </trkpt>
      <trkpt lat="47.514022" lon="7.763802">
        <ele>346.297220</ele>
        <time>2021-11-13T15:19:10.820Z</time>
      </trkpt>
      <trkpt lat="47.514365" lon="7.763357">
        <ele>345.230649</ele>
        <time>2021-11-13T15:19:16.674Z</time>
      </trkpt>
      <trkpt lat="47.514492" lon="7.763207">
        <ele>344.850706</ele>
        <time>2021-11-13T15:19:18.338Z</time>
      </trkpt>
      <trkpt lat="47.515023" lon="7.762891">
        <ele>343.512296</ele>
        <time>2021-11-13T15:19:24.205Z</time>
      </trkpt>
      <trkpt lat="47.515108" lon="7.762767">
        <ele>343.233225</ele>
        <time>2021-11-13T15:19:25.367Z</time>
      </trkpt>
      <trkpt lat="47.515150" lon="7.762617">
        <ele>342.976739</ele>
        <time>2021-11-13T15:19:26.434Z</time>
      </trkpt>
      <trkpt lat="47.515194" lon="7.761991">
        <ele>341.554229</ele>
        <time>2021-11-13T15:19:30.694Z</time>
      </trkpt>
      <trkpt lat="47.515220" lon="7.761710">
        <ele>340.887973</ele>
        <time>2021-11-13T15:19:32.557Z</time>
      </trkpt>
      <trkpt lat="47.515265" lon="7.761533">
        <ele>340.443704</ele>
        <time>2021-11-13T15:19:33.808Z</time>
      </trkpt>
      <trkpt lat="47.515394" lon="7.761200">
        <ele>339.541924</ele>
        <time>2021-11-13T15:19:36.352Z</time>
      </trkpt>
      <trkpt lat="47.515929" lon="7.760077">
        <ele>336.443631</ele>
        <time>2021-11-13T15:19:45.620Z</time>
      </trkpt>
      <trkpt lat="47.516501" lon="7.759179">
        <ele>334.832695</ele>
        <time>2021-11-13T15:19:54.624Z</time>
      </trkpt>
      <trkpt lat="47.516954" lon="7.758506">
        <ele>333.592683</ele>
        <time>2021-11-13T15:20:02.079Z</time>
      </trkpt>
      <trkpt lat="47.517863" lon="7.757421">
        <ele>332.778415</ele>
        <time>2021-11-13T15:20:16.518Z</time>
      </trkpt>
      <trkpt lat="47.518866" lon="7.755813">
        <ele>332.804019</ele>
        <time>2021-11-13T15:20:39.789Z</time>
      </trkpt>
      <trkpt lat="47.519558" lon="7.754516">
        <ele>333.456927</ele>
        <time>2021-11-13T15:21:00.095Z</time>
      </trkpt>
      <trkpt lat="47.519771" lon="7.754124">
        <ele>333.401583</ele>
        <time>2021-11-13T15:21:06.068Z</time>
      </trkpt>
      <trkpt lat="47.520081" lon="7.753575">
        <ele>333.221691</ele>
        <time>2021-11-13T15:21:13.826Z</time>
      </trkpt>
      <trkpt lat="47.520500" lon="7.752840">
        <ele>332.979902</ele>
        <time>2021-11-13T15:21:22.581Z</time>
      </trkpt>
      <trkpt lat="47.520691" lon="7.752581">
        <ele>332.883499</ele>
        <time>2021-11-13T15:21:25.804Z</time>
      </trkpt>
      <trkpt lat="47.521128" lon="7.752139">
        <ele>331.826229</ele>
        <time>2021-11-13T15:21:31.559Z</time>
      </trkpt>
      <trkpt lat="47.522153" lon="7.751504">
        <ele>328.948313</ele>
        <time>2021-11-13T15:21:43.146Z</time>
      </trkpt>
      <trkpt lat="47.522660" lon="7.751079">
        <ele>327.173299</ele>
        <time>2021-11-13T15:21:48.995Z</time>
      </trkpt>
      <trkpt lat="47.523810" lon="7.749861">
        <ele>322.181889</ele>
        <time>2021-11-13T15:22:02.974Z</time>
      </trkpt>
      <trkpt lat="47.524595" lon="7.748826">
        <ele>318.930361</ele>
        <time>2021-11-13T15:22:13.584Z</time>
      </trkpt>
      <trkpt lat="47.524786" lon="7.748513">
        <ele>318.062421</ele>
        <time>2021-11-13T15:22:16.491Z</time>
      </trkpt>
      <trkpt lat="47.524939" lon="7.748210">
        <ele>317.284024</ele>
        <time>2021-11-13T15:22:19.214Z</time>
      </trkpt>
      <trkpt lat="47.525034" lon="7.748003">
        <ele>316.769102</ele>
        <time>2021-11-13T15:22:20.990Z</time>
      </trkpt>
      <trkpt lat="47.525102" lon="7.747843">
        <ele>316.380154</ele>
        <time>2021-11-13T15:22:22.393Z</time>
      </trkpt>
      <trkpt lat="47.525175" lon="7.747653">
        <ele>316.033814</ele>
        <time>2021-11-13T15:22:23.894Z</time>
      </trkpt>
      <trkpt lat="47.525493" lon="7.746648">
        <ele>314.323684</ele>
        <time>2021-11-13T15:22:31.786Z</time>
      </trkpt>
      <trkpt lat="47.525698" lon="7.745676">
        <ele>312.754637</ele>
        <time>2021-11-13T15:22:39.280Z</time>
      </trkpt>
      <trkpt lat="47.525754" lon="7.745361">
        <ele>312.252735</ele>
        <time>2021-11-13T15:22:41.661Z</time>
      </trkpt>
      <trkpt lat="47.525761" lon="7.745310">
        <ele>312.194237</ele>
        <time>2021-11-13T15:22:42.053Z</time>
      </trkpt>
      <trkpt lat="47.525817" lon="7.744920">
        <ele>311.783276</ele>
        <time>2021-11-13T15:22:45.095Z</time>
      </trkpt>
      <trkpt lat="47.525836" lon="7.744800">
        <ele>311.656237</ele>
        <time>2021-11-13T15:22:46.017Z</time>
      </trkpt>
      <trkpt lat="47.525967" lon="7.743983">
        <ele>310.790742</ele>
        <time>2021-11-13T15:22:52.546Z</time>
      </trkpt>
      <trkpt lat="47.525969" lon="7.743974">
        <ele>310.780976</ele>
        <time>2021-11-13T15:22:52.602Z</time>
      </trkpt>
      <trkpt lat="47.526222" lon="7.742784">
        <ele>309.495091</ele>
        <time>2021-11-13T15:23:02.507Z</time>
      </trkpt>
      <trkpt lat="47.526782" lon="7.740808">
        <ele>308.373786</ele>
        <time>2021-11-13T15:23:20.403Z</time>
      </trkpt>
      <trkpt lat="47.527038" lon="7.739424">
        <ele>308.357646</ele>
        <time>2021-11-13T15:23:33.971Z</time>
      </trkpt>
      <trkpt lat="47.527103" lon="7.738847">
        <ele>308.522670</ele>
        <time>2021-11-13T15:23:40.801Z</time>
      </trkpt>
      <trkpt lat="47.527349" lon="7.738840">
        <ele>308.625463</ele>
        <time>2021-11-13T15:23:45.401Z</time>
      </trkpt>
      <trkpt lat="47.527567" lon="7.738827">
        <ele>308.716614</ele>
        <time>2021-11-13T15:23:49.458Z</time>
      </trkpt>
      <trkpt lat="47.527841" lon="7.738820">
        <ele>308.831104</ele>
        <time>2021-11-13T15:23:54.184Z</time>
      </trkpt>
      <trkpt lat="47.528292" lon="7.738774">
        <ele>309.076528</ele>
        <time>2021-11-13T15:24:05.171Z</time>
      </trkpt>
      <trkpt lat="47.528341" lon="7.738762">
        <ele>309.104257</ele>
        <time>2021-11-13T15:24:06.153Z</time>
      </trkpt>
      <trkpt lat="47.528601" lon="7.738620">
        <ele>309.258975</ele>
        <time>2021-11-13T15:24:11.449Z</time>
      </trkpt>
      <trkpt lat="47.528842" lon="7.738378">
        <ele>309.421541</ele>
        <time>2021-11-13T15:24:16.800Z</time>
      </trkpt>
      <trkpt lat="47.528896" lon="7.738303">
        <ele>309.462873</ele>
        <time>2021-11-13T15:24:18.441Z</time>
      </trkpt>
      <trkpt lat="47.528997" lon="7.738134">
        <ele>309.547954</ele>
        <time>2021-11-13T15:24:20.789Z</time>
      </trkpt>
      <trkpt lat="47.529534" lon="7.737005">
        <ele>309.893387</ele>
        <time>2021-11-13T15:24:34.457Z</time>
      </trkpt>
      <trkpt lat="47.529603" lon="7.736896">
        <ele>309.903285</ele>
        <time>2021-11-13T15:24:35.607Z</time>
      </trkpt>
      <trkpt lat="47.529741" lon="7.736731">
        <ele>309.920686</ele>
        <time>2021-11-13T15:24:37.810Z</time>
      </trkpt>
      <trkpt lat="47.530193" lon="7.736351">
        <ele>309.971680</ele>
        <time>2021-11-13T15:24:44.876Z</time>
      </trkpt>
      <trkpt lat="47.530882" lon="7.735983">
        <ele>310.279765</ele>
        <time>2021-11-13T15:24:57.696Z</time>
      </trkpt>
      <trkpt lat="47.531325" lon="7.735684">
        <ele>311.350365</ele>
        <time>2021-11-13T15:25:07.809Z</time>
      </trkpt>
      <trkpt lat="47.531389" lon="7.735745">
        <ele>311.517733</ele>
        <time>2021-11-13T15:25:10.554Z</time>
      </trkpt>
      <trkpt lat="47.531710" lon="7.735855">
        <ele>312.242298</ele>
        <time>2021-11-13T15:25:18.340Z</time>
      </trkpt>
      <trkpt lat="47.531874" lon="7.736048">
        <ele>312.702941</ele>
        <time>2021-11-13T15:25:23.678Z</time>
      </trkpt>
      <trkpt lat="47.533153" lon="7.739664">
        <ele>319.165098</ele>
        <time>2021-11-13T15:26:35.972Z</time>
      </trkpt>
      <trkpt lat="47.533191" lon="7.739816">
        <ele>319.227971</ele>
        <time>2021-11-13T15:26:38.248Z</time>
      </trkpt>
      <trkpt lat="47.533237" lon="7.739990">
        <ele>319.300456</ele>
        <time>2021-11-13T15:26:40.029Z</time>
      </trkpt>
      <trkpt lat="47.533352" lon="7.740430">
        <ele>319.483474</ele>
        <time>2021-11-13T15:26:45.341Z</time>
      </trkpt>
      <trkpt lat="47.533707" lon="7.742025">
        <ele>319.806345</ele>
        <time>2021-11-13T15:27:00.293Z</time>
      </trkpt>
      <trkpt lat="47.533870" lon="7.743466">
        <ele>319.138682</ele>
        <time>2021-11-13T15:27:12.484Z</time>
      </trkpt>
      <trkpt lat="47.534043" lon="7.744207">
        <ele>318.780399</ele>
        <time>2021-11-13T15:27:19.567Z</time>
      </trkpt>
      <trkpt lat="47.534097" lon="7.744343">
        <ele>318.754986</ele>
        <time>2021-11-13T15:27:21.015Z</time>
      </trkpt>
      <trkpt lat="47.534179" lon="7.744495">
        <ele>318.737161</ele>
        <time>2021-11-13T15:27:22.894Z</time>
      </trkpt>
      <trkpt lat="47.534370" lon="7.744709">
        <ele>318.704664</ele>
        <time>2021-11-13T15:27:26.188Z</time>
      </trkpt>
      <trkpt lat="47.534429" lon="7.744856">
        <ele>318.688996</ele>
        <time>2021-11-13T15:27:27.950Z</time>
      </trkpt>
      <trkpt lat="47.534874" lon="7.746551">
        <ele>318.523183</ele>
        <time>2021-11-13T15:27:45.500Z</time>
      </trkpt>
      <trkpt lat="47.535912" lon="7.749669">
        <ele>319.238331</ele>
        <time>2021-11-13T15:28:23.840Z</time>
      </trkpt>
      <trkpt lat="47.537134" lon="7.752309">
        <ele>320.146196</ele>
        <time>2021-11-13T15:28:57.993Z</time>
      </trkpt>
      <trkpt lat="47.537371" lon="7.752851">
        <ele>320.412456</ele>
        <time>2021-11-13T15:29:04.642Z</time>
      </trkpt>
      <trkpt lat="47.537564" lon="7.753073">
        <ele>320.561697</ele>
        <time>2021-11-13T15:29:08.457Z</time>
      </trkpt>
      <trkpt lat="47.537715" lon="7.753194">
        <ele>320.666550</ele>
        <time>2021-11-13T15:29:12.302Z</time>
      </trkpt>
      <trkpt lat="47.538052" lon="7.753460">
        <ele>322.020384</ele>
        <time>2021-11-13T15:29:21.386Z</time>
      </trkpt>
      <trkpt lat="47.538359" lon="7.753900">
        <ele>323.657701</ele>
        <time>2021-11-13T15:29:32.618Z</time>
      </trkpt>
      <trkpt lat="47.538494" lon="7.754103">
        <ele>324.395024</ele>
        <time>2021-11-13T15:29:38.423Z</time>
      </trkpt>
      <trkpt lat="47.538723" lon="7.754445">
        <ele>325.641419</ele>
        <time>2021-11-13T15:29:48.616Z</time>
      </trkpt>
      <trkpt lat="47.538792" lon="7.754549">
        <ele>326.018722</ele>
        <time>2021-11-13T15:29:52.477Z</time>
      </trkpt>
      <trkpt lat="47.539079" lon="7.754976">
        <ele>327.577819</ele>
        <time>2021-11-13T15:30:08.176Z</time>
      </trkpt>
      <trkpt lat="47.539230" lon="7.755294">
        <ele>328.903891</ele>
        <time>2021-11-13T15:30:18.836Z</time>
      </trkpt>
      <trkpt lat="47.539346" lon="7.755736">
        <ele>330.522719</ele>
        <time>2021-11-13T15:30:32.127Z</time>
      </trkpt>
      <trkpt lat="47.539595" lon="7.757548">
        <ele>336.659677</ele>
        <time>2021-11-13T15:31:16.049Z</time>
      </trkpt>
      <trkpt lat="47.539722" lon="7.758107">
        <ele>336.449239</ele>
        <time>2021-11-13T15:31:25.056Z</time>
      </trkpt>
      <trkpt lat="47.539949" lon="7.758688">
        <ele>336.209729</ele>
        <time>2021-11-13T15:31:32.269Z</time>
      </trkpt>
      <trkpt lat="47.540447" lon="7.759585">
        <ele>335.795362</ele>
        <time>2021-11-13T15:31:40.793Z</time>
      </trkpt>
      <trkpt lat="47.540567" lon="7.759901">
        <ele>335.009538</ele>
        <time>2021-11-13T15:31:43.179Z</time>
      </trkpt>
      <trkpt lat="47.540921" lon="7.761599">
        <ele>327.397906</ele>
        <time>2021-11-13T15:31:54.301Z</time>
      </trkpt>
      <trkpt lat="47.541004" lon="7.762306">
        <ele>324.324315</ele>
        <time>2021-11-13T15:31:58.522Z</time>
      </trkpt>
      <trkpt lat="47.541023" lon="7.762922">
        <ele>320.401662</ele>
        <time>2021-11-13T15:32:02.105Z</time>
      </trkpt>
      <trkpt lat="47.541219" lon="7.763853">
        <ele>314.189853</ele>
        <time>2021-11-13T15:32:07.729Z</time>
      </trkpt>
      <trkpt lat="47.541334" lon="7.764020">
        <ele>312.670332</ele>
        <time>2021-11-13T15:32:09.194Z</time>
      </trkpt>
      <trkpt lat="47.541377" lon="7.764045">
        <ele>312.234469</ele>
        <time>2021-11-13T15:32:09.568Z</time>
      </trkpt>
      <trkpt lat="47.541364" lon="7.764150">
        <ele>311.554506</ele>
        <time>2021-11-13T15:32:10.179Z</time>
      </trkpt>
      <trkpt lat="47.541443" lon="7.764512">
        <ele>309.131219</ele>
        <time>2021-11-13T15:32:12.489Z</time>
      </trkpt>
      <trkpt lat="47.541552" lon="7.764869">
        <ele>306.968155</ele>
        <time>2021-11-13T15:32:14.783Z</time>
      </trkpt>
      <trkpt lat="47.541697" lon="7.765479">
        <ele>304.787220</ele>
        <time>2021-11-13T15:32:18.666Z</time>
      </trkpt>
      <trkpt lat="47.542317" lon="7.768533">
        <ele>296.911545</ele>
        <time>2021-11-13T15:32:40.139Z</time>
      </trkpt>
      <trkpt lat="47.542450" lon="7.769311">
        <ele>296.006893</ele>
        <time>2021-11-13T15:32:47.810Z</time>
      </trkpt>
      <trkpt lat="47.542720" lon="7.770771">
        <ele>295.594613</ele>
        <time>2021-11-13T15:33:04.069Z</time>
      </trkpt>
      <trkpt lat="47.543049" lon="7.772721">
        <ele>296.065061</ele>
        <time>2021-11-13T15:33:27.095Z</time>
      </trkpt>
      <trkpt lat="47.543108" lon="7.773069">
        <ele>296.096000</ele>
        <time>2021-11-13T15:33:30.922Z</time>
      </trkpt>
      <trkpt lat="47.543145" lon="7.773277">
        <ele>296.114547</ele>
        <time>2021-11-13T15:33:33.015Z</time>
      </trkpt>
      <trkpt lat="47.543162" lon="7.773378">
        <ele>296.123523</ele>
        <time>2021-11-13T15:33:34.067Z</time>
      </trkpt>
      <trkpt lat="47.543350" lon="7.774507">
        <ele>296.223790</ele>
        <time>2021-11-13T15:33:45.633Z</time>
      </trkpt>
      <trkpt lat="47.543402" lon="7.775016">
        <ele>296.268179</ele>
        <time>2021-11-13T15:33:50.813Z</time>
      </trkpt>
      <trkpt lat="47.543449" lon="7.775478">
        <ele>296.587660</ele>
        <time>2021-11-13T15:33:55.559Z</time>
      </trkpt>
      <trkpt lat="47.543482" lon="7.776095">
        <ele>297.035499</ele>
        <time>2021-11-13T15:34:02.293Z</time>
      </trkpt>
      <trkpt lat="47.543527" lon="7.776532">
        <ele>297.355354</ele>
        <time>2021-11-13T15:34:07.462Z</time>
      </trkpt>
      <trkpt lat="47.543707" lon="7.777394">
        <ele>298.008226</ele>
        <time>2021-11-13T15:34:19.749Z</time>
      </trkpt>
      <trkpt lat="47.543933" lon="7.778374">
        <ele>300.578403</ele>
        <time>2021-11-13T15:34:38.077Z</time>
      </trkpt>
      <trkpt lat="47.544100" lon="7.779438">
        <ele>303.943881</ele>
        <time>2021-11-13T15:35:02.276Z</time>
      </trkpt>
      <trkpt lat="47.544461" lon="7.782254">
        <ele>313.411904</ele>
        <time>2021-11-13T15:36:22.879Z</time>
      </trkpt>
      <trkpt lat="47.544469" lon="7.782455">
        <ele>314.094320</ele>
        <time>2021-11-13T15:36:27.912Z</time>
      </trkpt>
      <trkpt lat="47.544474" lon="7.782623">
        <ele>314.664262</ele>
        <time>2021-11-13T15:36:30.300Z</time>
      </trkpt>
      <trkpt lat="47.544490" lon="7.783060">
        <ele>314.913104</ele>
        <time>2021-11-13T15:36:34.191Z</time>
      </trkpt>
      <trkpt lat="47.544555" lon="7.783372">
        <ele>314.092645</ele>
        <time>2021-11-13T15:36:36.676Z</time>
      </trkpt>
      <trkpt lat="47.544627" lon="7.783499">
        <ele>313.675910</ele>
        <time>2021-11-13T15:36:38.073Z</time>
      </trkpt>
      <trkpt lat="47.544950" lon="7.784008">
        <ele>311.920512</ele>
        <time>2021-11-13T15:36:44.885Z</time>
      </trkpt>
      <trkpt lat="47.545054" lon="7.784227">
        <ele>311.247694</ele>
        <time>2021-11-13T15:36:47.458Z</time>
      </trkpt>
      <trkpt lat="47.545240" lon="7.784746">
        <ele>309.771201</ele>
        <time>2021-11-13T15:36:52.612Z</time>
      </trkpt>
      <trkpt lat="47.545250" lon="7.784778">
        <ele>309.682596</ele>
        <time>2021-11-13T15:36:52.886Z</time>
      </trkpt>
      <trkpt lat="47.545624" lon="7.785548">
        <ele>306.886083</ele>
        <time>2021-11-13T15:37:01.049Z</time>
      </trkpt>
      <trkpt lat="47.545672" lon="7.785654">
        <ele>306.473663</ele>
        <time>2021-11-13T15:37:02.058Z</time>
      </trkpt>
      <trkpt lat="47.545856" lon="7.785973">
        <ele>305.117909</ele>
        <time>2021-11-13T15:37:05.899Z</time>
      </trkpt>
      <trkpt lat="47.546102" lon="7.786217">
        <ele>303.700835</ele>
        <time>2021-11-13T15:37:09.884Z</time>
      </trkpt>
      <trkpt lat="47.546417" lon="7.786331">
        <ele>302.148685</ele>
        <time>2021-11-13T15:37:14.458Z</time>
      </trkpt>
      <trkpt lat="47.546464" lon="7.786335">
        <ele>301.923339</ele>
        <time>2021-11-13T15:37:15.220Z</time>
      </trkpt>
      <trkpt lat="47.546526" lon="7.786353">
        <ele>301.620918</ele>
        <time>2021-11-13T15:37:16.217Z</time>
      </trkpt>
      <trkpt lat="47.546913" lon="7.786470">
        <ele>300.135171</ele>
        <time>2021-11-13T15:37:22.375Z</time>
      </trkpt>
      <trkpt lat="47.546952" lon="7.786540">
        <ele>300.136240</ele>
        <time>2021-11-13T15:37:23.313Z</time>
      </trkpt>
      <trkpt lat="47.546959" lon="7.786598">
        <ele>300.136934</ele>
        <time>2021-11-13T15:37:24.014Z</time>
      </trkpt>
      <trkpt lat="47.546897" lon="7.787133">
        <ele>300.143330</ele>
        <time>2021-11-13T15:37:31.730Z</time>
      </trkpt>
      <trkpt lat="47.546695" lon="7.788763">
        <ele>300.162855</ele>
        <time>2021-11-13T15:37:56.542Z</time>
      </trkpt>
      <trkpt lat="47.546673" lon="7.788921">
        <ele>300.164756</ele>
        <time>2021-11-13T15:37:59.024Z</time>
      </trkpt>
      <trkpt lat="47.546651" lon="7.789085">
        <ele>300.256001</ele>
        <time>2021-11-13T15:38:01.931Z</time>
      </trkpt>
      <trkpt lat="47.546253" lon="7.791998">
        <ele>301.940331</ele>
        <time>2021-11-13T15:38:50.942Z</time>
      </trkpt>
      <trkpt lat="47.546027" lon="7.793254">
        <ele>302.014738</ele>
        <time>2021-11-13T15:39:09.769Z</time>
      </trkpt>
      <trkpt lat="47.545969" lon="7.793663">
        <ele>302.038661</ele>
        <time>2021-11-13T15:39:14.838Z</time>
      </trkpt>
      <trkpt lat="47.545935" lon="7.794234">
        <ele>302.049807</ele>
        <time>2021-11-13T15:39:21.740Z</time>
      </trkpt>
      <trkpt lat="47.545921" lon="7.794468">
        <ele>301.992731</ele>
        <time>2021-11-13T15:39:24.639Z</time>
      </trkpt>
      <trkpt lat="47.545947" lon="7.794710">
        <ele>301.933193</ele>
        <time>2021-11-13T15:39:27.485Z</time>
      </trkpt>
      <trkpt lat="47.546019" lon="7.795020">
        <ele>301.853540</ele>
        <time>2021-11-13T15:39:31.494Z</time>
      </trkpt>
      <trkpt lat="47.546165" lon="7.795511">
        <ele>301.723183</ele>
        <time>2021-11-13T15:39:38.407Z</time>
      </trkpt>
      <trkpt lat="47.546170" lon="7.795612">
        <ele>301.698577</ele>
        <time>2021-11-13T15:39:39.468Z</time>
      </trkpt>
      <trkpt lat="47.546154" lon="7.795747">
        <ele>301.665276</ele>
        <time>2021-11-13T15:39:41.279Z</time>
      </trkpt>
      <trkpt lat="47.546105" lon="7.795928">
        <ele>301.617894</ele>
        <time>2021-11-13T15:39:44.406Z</time>
      </trkpt>
      <trkpt lat="47.546038" lon="7.796107">
        <ele>301.568164</ele>
        <time>2021-11-13T15:39:46.740Z</time>
      </trkpt>
      <trkpt lat="47.545889" lon="7.796500">
        <ele>301.458648</ele>
        <time>2021-11-13T15:39:53.564Z</time>
      </trkpt>
      <trkpt lat="47.545881" lon="7.796520">
        <ele>301.453000</ele>
        <time>2021-11-13T15:39:53.849Z</time>
      </trkpt>
      <trkpt lat="47.545788" lon="7.796748">
        <ele>301.424083</ele>
        <time>2021-11-13T15:39:57.220Z</time>
      </trkpt>
      <trkpt lat="47.545728" lon="7.796950">
        <ele>301.431130</ele>
        <time>2021-11-13T15:40:00.541Z</time>
      </trkpt>
      <trkpt lat="47.545689" lon="7.797076">
        <ele>301.435556</ele>
        <time>2021-11-13T15:40:02.010Z</time>
      </trkpt>
      <trkpt lat="47.545670" lon="7.797142">
        <ele>301.437847</ele>
        <time>2021-11-13T15:40:03.056Z</time>
      </trkpt>
      <trkpt lat="47.545645" lon="7.797258">
        <ele>301.441735</ele>
        <time>2021-11-13T15:40:04.798Z</time>
      </trkpt>
      <trkpt lat="47.545637" lon="7.797310">
        <ele>301.443438</ele>
        <time>2021-11-13T15:40:06.145Z</time>
      </trkpt>
      <trkpt lat="47.545558" lon="7.798144">
        <ele>301.470328</ele>
        <time>2021-11-13T15:40:17.452Z</time>
      </trkpt>
      <trkpt lat="47.545511" lon="7.798680">
        <ele>301.487587</ele>
        <time>2021-11-13T15:40:25.520Z</time>
      </trkpt>
      <trkpt lat="47.545581" lon="7.798713">
        <ele>301.491061</ele>
        <time>2021-11-13T15:40:27.008Z</time>
      </trkpt>
      <trkpt lat="47.545731" lon="7.798810">
        <ele>301.498803</ele>
        <time>2021-11-13T15:40:31.007Z</time>
      </trkpt>
      <trkpt lat="47.545807" lon="7.798846">
        <ele>301.502578</ele>
        <time>2021-11-13T15:40:32.345Z</time>
      </trkpt>
      <trkpt lat="47.546418" lon="7.798980">
        <ele>301.202646</ele>
        <time>2021-11-13T15:40:44.400Z</time>
      </trkpt>
      <trkpt lat="47.547540" lon="7.799538">
        <ele>300.570766</ele>
        <time>2021-11-13T15:41:05.041Z</time>
      </trkpt>
      <trkpt lat="47.547912" lon="7.799646">
        <ele>300.482909</ele>
        <time>2021-11-13T15:41:12.422Z</time>
      </trkpt>
      <trkpt lat="47.548459" lon="7.799691">
        <ele>300.380385</ele>
        <time>2021-11-13T15:41:23.360Z</time>
      </trkpt>
      <trkpt lat="47.548535" lon="7.799720">
        <ele>300.365699</ele>
        <time>2021-11-13T15:41:24.880Z</time>
      </trkpt>
      <trkpt lat="47.548514" lon="7.799795">
        <ele>300.355442</ele>
        <time>2021-11-13T15:41:25.943Z</time>
      </trkpt>
      <trkpt lat="47.548519" lon="7.799896">
        <ele>300.342650</ele>
        <time>2021-11-13T15:41:27.298Z</time>
      </trkpt>
      <trkpt lat="47.548545" lon="7.800404">
        <ele>300.278299</ele>
        <time>2021-11-13T15:41:34.089Z</time>
      </trkpt>
      <trkpt lat="47.548560" lon="7.800672">
        <ele>300.244330</ele>
        <time>2021-11-13T15:41:37.781Z</time>
      </trkpt>
      <trkpt lat="47.548569" lon="7.800838">
        <ele>300.223295</ele>
        <time>2021-11-13T15:41:40.025Z</time>
      </trkpt>
      <trkpt lat="47.548576" lon="7.800968">
        <ele>300.207066</ele>
        <time>2021-11-13T15:41:41.801Z</time>
      </trkpt>
      <trkpt lat="47.548596" lon="7.801213">
        <ele>300.181751</ele>
        <time>2021-11-13T15:41:45.180Z</time>
      </trkpt>
      <trkpt lat="47.548607" lon="7.801690">
        <ele>300.132793</ele>
        <time>2021-11-13T15:41:51.684Z</time>
      </trkpt>
      <trkpt lat="47.548626" lon="7.802129">
        <ele>300.087668</ele>
        <time>2021-11-13T15:41:57.600Z</time>
      </trkpt>
      <trkpt lat="47.548877" lon="7.802168">
        <ele>300.049313</ele>
        <time>2021-11-13T15:42:02.591Z</time>
      </trkpt>
      <trkpt lat="47.549410" lon="7.802226">
        <ele>299.968092</ele>
        <time>2021-11-13T15:42:13.009Z</time>
      </trkpt>
      <trkpt lat="47.549481" lon="7.802234">
        <ele>299.957271</ele>
        <time>2021-11-13T15:42:14.349Z</time>
      </trkpt>
      <trkpt lat="47.549652" lon="7.802240">
        <ele>299.926724</ele>
        <time>2021-11-13T15:42:17.526Z</time>
      </trkpt>
      <trkpt lat="47.549879" lon="7.802247">
        <ele>299.847278</ele>
        <time>2021-11-13T15:42:21.810Z</time>
      </trkpt>
      <trkpt lat="47.549879" lon="7.802247">
        <ele>299.847278</ele>
        <time>2021-11-13T15:42:21.814Z</time>
      </trkpt>
      <trkpt lat="47.550146" lon="7.802262">
        <ele>299.753785</ele>
        <time>2021-11-13T15:42:26.892Z</time>
      </trkpt>
      <trkpt lat="47.550134" lon="7.803051">
        <ele>299.567400</ele>
        <time>2021-11-13T15:42:37.112Z</time>
      </trkpt>
      <trkpt lat="47.550196" lon="7.803120">
        <ele>299.540268</ele>
        <time>2021-11-13T15:42:38.572Z</time>
      </trkpt>
      <trkpt lat="47.550981" lon="7.803132">
        <ele>299.345203</ele>
        <time>2021-11-13T15:42:53.218Z</time>
      </trkpt>
      <trkpt lat="47.551163" lon="7.803129">
        <ele>299.408822</ele>
        <time>2021-11-13T15:42:56.622Z</time>
      </trkpt>
      <trkpt lat="47.551598" lon="7.803160">
        <ele>299.561045</ele>
        <time>2021-11-13T15:43:05.214Z</time>
      </trkpt>
      <trkpt lat="47.551666" lon="7.803144">
        <ele>299.585111</ele>
        <time>2021-11-13T15:43:09.959Z</time>
      </trkpt>
      <trkpt lat="47.551732" lon="7.803125">
        <ele>299.608611</ele>
        <time>2021-11-13T15:43:14.625Z</time>
      </trkpt>
      <trkpt lat="47.551744" lon="7.803277">
        <ele>299.644714</ele>
        <time>2021-11-13T15:43:16.320Z</time>
      </trkpt>
      <trkpt lat="47.551751" lon="7.803369">
        <ele>299.666555</ele>
        <time>2021-11-13T15:43:17.393Z</time>
      </trkpt>
      <trkpt lat="47.551692" lon="7.803510">
        <ele>299.705692</ele>
        <time>2021-11-13T15:43:19.987Z</time>
      </trkpt>
      <trkpt lat="47.551741" lon="7.804294">
        <ele>299.891436</ele>
        <time>2021-11-13T15:43:33.005Z</time>
      </trkpt>
      <trkpt lat="47.551744" lon="7.804473">
        <ele>299.933676</ele>
        <time>2021-11-13T15:43:35.525Z</time>
      </trkpt>
      <trkpt lat="47.551731" lon="7.804667">
        <ele>300.015689</ele>
        <time>2021-11-13T15:43:39.505Z</time>
      </trkpt>
      <trkpt lat="47.551709" lon="7.805000">
        <ele>300.157014</ele>
        <time>2021-11-13T15:43:43.996Z</time>
      </trkpt>
      <trkpt lat="47.551681" lon="7.805477">
        <ele>300.359250</ele>
        <time>2021-11-13T15:43:51.733Z</time>
      </trkpt>
      <trkpt lat="47.551671" lon="7.806117">
        <ele>300.629646</ele>
        <time>2021-11-13T15:44:01.822Z</time>
      </trkpt>
      <trkpt lat="47.551651" lon="7.806246">
        <ele>300.685552</ele>
        <time>2021-11-13T15:44:04.725Z</time>
      </trkpt>
      <trkpt lat="47.551895" lon="7.806278">
        <ele>300.838848</ele>
        <time>2021-11-13T15:44:08.250Z</time>
      </trkpt>
      <trkpt lat="47.552015" lon="7.806307">
        <ele>300.914939</ele>
        <time>2021-11-13T15:44:11.120Z</time>
      </trkpt>
      <trkpt lat="47.552068" lon="7.806445">
        <ele>300.982003</ele>
        <time>2021-11-13T15:44:12.577Z</time>
      </trkpt>
      <trkpt lat="47.552398" lon="7.808880">
        <ele>300.381367</ele>
        <time>2021-11-13T15:44:34.720Z</time>
      </trkpt>
      <trkpt lat="47.552566" lon="7.810386">
        <ele>299.745969</ele>
        <time>2021-11-13T15:44:47.731Z</time>
      </trkpt>
      <trkpt lat="47.552711" lon="7.812955">
        <ele>298.820890</ele>
        <time>2021-11-13T15:45:10.340Z</time>
      </trkpt>
      <trkpt lat="47.552844" lon="7.816432">
        <ele>299.056765</ele>
        <time>2021-11-13T15:45:44.115Z</time>
      </trkpt>
      <trkpt lat="47.552708" lon="7.816445">
        <ele>299.120155</ele>
        <time>2021-11-13T15:45:47.693Z</time>
      </trkpt>
      <trkpt lat="47.552368" lon="7.816478">
        <ele>299.278642</ele>
        <time>2021-11-13T15:45:56.559Z</time>
      </trkpt>
      <trkpt lat="47.551537" lon="7.816539">
        <ele>300.481339</ele>
        <time>2021-11-13T15:46:20.352Z</time>
      </trkpt>
      <trkpt lat="47.550839" lon="7.816590">
        <ele>301.530681</ele>
        <time>2021-11-13T15:46:38.968Z</time>
      </trkpt>
      <trkpt lat="47.550457" lon="7.816559">
        <ele>301.987355</ele>
        <time>2021-11-13T15:46:48.395Z</time>
      </trkpt>
      <trkpt lat="47.550240" lon="7.817600">
        <ele>301.851267</ele>
        <time>2021-11-13T15:47:03.842Z</time>
      </trkpt>
      <trkpt lat="47.549870" lon="7.819908">
        <ele>301.509714</ele>
        <time>2021-11-13T15:47:32.519Z</time>
      </trkpt>
      <trkpt lat="47.549781" lon="7.820506">
        <ele>301.402448</ele>
        <time>2021-11-13T15:47:40.355Z</time>
      </trkpt>
      <trkpt lat="47.549636" lon="7.821487">
        <ele>301.226537</ele>
        <time>2021-11-13T15:47:53.744Z</time>
      </trkpt>
      <trkpt lat="47.549580" lon="7.821865">
        <ele>301.371596</ele>
        <time>2021-11-13T15:47:59.293Z</time>
      </trkpt>
      <trkpt lat="47.549309" lon="7.823603">
        <ele>302.647333</ele>
        <time>2021-11-13T15:48:27.714Z</time>
      </trkpt>
      <trkpt lat="47.548993" lon="7.825343">
        <ele>304.830327</ele>
        <time>2021-11-13T15:49:02.683Z</time>
      </trkpt>
      <trkpt lat="47.548679" lon="7.826710">
        <ele>306.976424</ele>
        <time>2021-11-13T15:49:31.856Z</time>
      </trkpt>
      <trkpt lat="47.548237" lon="7.826410">
        <ele>307.964118</ele>
        <time>2021-11-13T15:49:45.630Z</time>
      </trkpt>
      <trkpt lat="47.547666" lon="7.826091">
        <ele>309.194263</ele>
        <time>2021-11-13T15:50:03.003Z</time>
      </trkpt>
      <trkpt lat="47.547233" lon="7.825872">
        <ele>310.116571</ele>
        <time>2021-11-13T15:50:15.780Z</time>
      </trkpt>
      <trkpt lat="47.546693" lon="7.825618">
        <ele>311.276005</ele>
        <time>2021-11-13T15:50:31.151Z</time>
      </trkpt>
      <trkpt lat="47.546589" lon="7.825597">
        <ele>311.494074</ele>
        <time>2021-11-13T15:50:34.085Z</time>
      </trkpt>
      <trkpt lat="47.546582" lon="7.825922">
        <ele>311.950075</ele>
        <time>2021-11-13T15:50:40.234Z</time>
      </trkpt>
      <trkpt lat="47.546574" lon="7.826239">
        <ele>312.394936</ele>
        <time>2021-11-13T15:50:46.375Z</time>
      </trkpt>
      <trkpt lat="47.546592" lon="7.826850">
        <ele>313.252597</ele>
        <time>2021-11-13T15:50:58.172Z</time>
      </trkpt>
      <trkpt lat="47.546721" lon="7.828140">
        <ele>315.096319</ele>
        <time>2021-11-13T15:51:24.463Z</time>
      </trkpt>
      <trkpt lat="47.546823" lon="7.829336">
        <ele>316.825594</ele>
        <time>2021-11-13T15:51:47.768Z</time>
      </trkpt>
      <trkpt lat="47.546946" lon="7.830852">
        <ele>318.921985</ele>
        <time>2021-11-13T15:52:17.011Z</time>
      </trkpt>
      <trkpt lat="47.547020" lon="7.831965">
        <ele>320.329010</ele>
        <time>2021-11-13T15:52:37.848Z</time>
      </trkpt>
      <trkpt lat="47.547190" lon="7.835066">
        <ele>324.118907</ele>
        <time>2021-11-13T15:53:34.940Z</time>
      </trkpt>
      <trkpt lat="47.547240" lon="7.836221">
        <ele>325.550251</ele>
        <time>2021-11-13T15:53:56.414Z</time>
      </trkpt>
      <trkpt lat="47.547276" lon="7.837287">
        <ele>326.909120</ele>
        <time>2021-11-13T15:54:16.525Z</time>
      </trkpt>
      <trkpt lat="47.547300" lon="7.838688">
        <ele>328.541935</ele>
        <time>2021-11-13T15:54:43.271Z</time>
      </trkpt>
      <trkpt lat="47.547332" lon="7.840572">
        <ele>330.217119</ele>
        <time>2021-11-13T15:55:15.899Z</time>
      </trkpt>
      <trkpt lat="47.547339" lon="7.841072">
        <ele>330.578841</ele>
        <time>2021-11-13T15:55:23.676Z</time>
      </trkpt>
      <trkpt lat="47.547362" lon="7.841665">
        <ele>330.675560</ele>
        <time>2021-11-13T15:55:32.446Z</time>
      </trkpt>
      <trkpt lat="47.547448" lon="7.842262">
        <ele>330.774960</ele>
        <time>2021-11-13T15:55:40.843Z</time>
      </trkpt>
      <trkpt lat="47.547354" lon="7.842839">
        <ele>330.871612</ele>
        <time>2021-11-13T15:55:48.724Z</time>
      </trkpt>
      <trkpt lat="47.547313" lon="7.843735">
        <ele>331.093214</ele>
        <time>2021-11-13T15:56:01.047Z</time>
      </trkpt>
      <trkpt lat="47.547295" lon="7.844722">
        <ele>331.765893</ele>
        <time>2021-11-13T15:56:15.794Z</time>
      </trkpt>
      <trkpt lat="47.547274" lon="7.845536">
        <ele>332.320868</ele>
        <time>2021-11-13T15:56:29.247Z</time>
      </trkpt>
      <trkpt lat="47.547124" lon="7.848795">
        <ele>336.231504</ele>
        <time>2021-11-13T15:57:31.400Z</time>
      </trkpt>
      <trkpt lat="47.547143" lon="7.849985">
        <ele>337.609800</ele>
        <time>2021-11-13T15:57:54.252Z</time>
      </trkpt>
      <trkpt lat="47.547141" lon="7.850355">
        <ele>338.030902</ele>
        <time>2021-11-13T15:58:01.352Z</time>
      </trkpt>
      <trkpt lat="47.546945" lon="7.851719">
        <ele>339.475316</ele>
        <time>2021-11-13T15:58:25.885Z</time>
      </trkpt>
      <trkpt lat="47.546582" lon="7.856413">
        <ele>340.662994</ele>
        <time>2021-11-13T15:59:34.196Z</time>
      </trkpt>
      <trkpt lat="47.546537" lon="7.857497">
        <ele>340.873462</ele>
        <time>2021-11-13T15:59:49.504Z</time>
      </trkpt>
      <trkpt lat="47.546487" lon="7.859119">
        <ele>341.209262</ele>
        <time>2021-11-13T16:00:12.952Z</time>
      </trkpt>
      <trkpt lat="47.546526" lon="7.861665">
        <ele>341.421979</ele>
        <time>2021-11-13T16:00:50.126Z</time>
      </trkpt>
      <trkpt lat="47.546592" lon="7.863006">
        <ele>340.635256</ele>
        <time>2021-11-13T16:01:06.593Z</time>
      </trkpt>
      <trkpt lat="47.546877" lon="7.864345">
        <ele>339.270996</ele>
        <time>2021-11-13T16:01:21.762Z</time>
      </trkpt>
      <trkpt lat="47.546885" lon="7.864500">
        <ele>339.119944</ele>
        <time>2021-11-13T16:01:23.442Z</time>
      </trkpt>
      <trkpt lat="47.546894" lon="7.864837">
        <ele>338.768829</ele>
        <time>2021-11-13T16:01:26.921Z</time>
      </trkpt>
      <trkpt lat="47.546889" lon="7.865225">
        <ele>338.268242</ele>
        <time>2021-11-13T16:01:31.042Z</time>
      </trkpt>
      <trkpt lat="47.546819" lon="7.865489">
        <ele>337.902366</ele>
        <time>2021-11-13T16:01:34.120Z</time>
      </trkpt>
      <trkpt lat="47.546510" lon="7.865766">
        <ele>337.212161</ele>
        <time>2021-11-13T16:01:39.814Z</time>
      </trkpt>
      <trkpt lat="47.546327" lon="7.865959">
        <ele>336.782874</ele>
        <time>2021-11-13T16:01:43.146Z</time>
      </trkpt>
      <trkpt lat="47.546096" lon="7.866147">
        <ele>336.279194</ele>
        <time>2021-11-13T16:01:47.212Z</time>
      </trkpt>
      <trkpt lat="47.545240" lon="7.866887">
        <ele>335.559844</ele>
        <time>2021-11-13T16:02:03.885Z</time>
      </trkpt>
      <trkpt lat="47.545160" lon="7.866985">
        <ele>335.585279</ele>
        <time>2021-11-13T16:02:05.841Z</time>
      </trkpt>
      <trkpt lat="47.545003" lon="7.867278">
        <ele>335.647151</ele>
        <time>2021-11-13T16:02:11.509Z</time>
      </trkpt>
      <trkpt lat="47.544568" lon="7.867693">
        <ele>335.773922</ele>
        <time>2021-11-13T16:02:24.300Z</time>
      </trkpt>
      <trkpt lat="47.544469" lon="7.867776">
        <ele>335.801794</ele>
        <time>2021-11-13T16:02:27.162Z</time>
      </trkpt>
      <trkpt lat="47.544410" lon="7.867825">
        <ele>335.818367</ele>
        <time>2021-11-13T16:02:29.251Z</time>
      </trkpt>
      <trkpt lat="47.544246" lon="7.867967">
        <ele>335.864910</ele>
        <time>2021-11-13T16:02:33.934Z</time>
      </trkpt>
      <trkpt lat="47.544214" lon="7.867988">
        <ele>335.905443</ele>
        <time>2021-11-13T16:02:34.782Z</time>
      </trkpt>
      <trkpt lat="47.543801" lon="7.868269">
        <ele>336.570302</ele>
        <time>2021-11-13T16:02:46.385Z</time>
      </trkpt>
      <trkpt lat="47.543657" lon="7.868359">
        <ele>336.798942</ele>
        <time>2021-11-13T16:02:50.735Z</time>
      </trkpt>
      <trkpt lat="47.543201" lon="7.868657">
        <ele>337.528057</ele>
        <time>2021-11-13T16:03:00.935Z</time>
      </trkpt>
      <trkpt lat="47.543105" lon="7.868711">
        <ele>337.678280</ele>
        <time>2021-11-13T16:03:03.519Z</time>
      </trkpt>
      <trkpt lat="47.543049" lon="7.868759">
        <ele>337.772928</ele>
        <time>2021-11-13T16:03:04.896Z</time>
      </trkpt>
      <trkpt lat="47.542722" lon="7.869201">
        <ele>338.420508</ele>
        <time>2021-11-13T16:03:14.742Z</time>
      </trkpt>
      <trkpt lat="47.542696" lon="7.869257">
        <ele>338.487627</ele>
        <time>2021-11-13T16:03:15.578Z</time>
      </trkpt>
      <trkpt lat="47.542657" lon="7.869354">
        <ele>338.498318</ele>
        <time>2021-11-13T16:03:17.033Z</time>
      </trkpt>
      <trkpt lat="47.542372" lon="7.869746">
        <ele>338.498318</ele>
        <time>2021-11-13T16:03:24.209Z</time>
      </trkpt>
      <trkpt lat="47.542329" lon="7.869820">
        <ele>338.498318</ele>
        <time>2021-11-13T16:03:25.434Z</time>
      </trkpt>
      <trkpt lat="47.542348" lon="7.869983">
        <ele>338.498318</ele>
        <time>2021-11-13T16:03:27.076Z</time>
      </trkpt>
      <trkpt lat="47.542317" lon="7.870012">
        <ele>338.498318</ele>
        <time>2021-11-13T16:03:27.739Z</time>
      </trkpt>
      <trkpt lat="47.542181" lon="7.870131">
        <ele>338.498318</ele>
        <time>2021-11-13T16:03:30.214Z</time>
      </trkpt>
      <trkpt lat="47.542118" lon="7.870135">
        <ele>338.498318</ele>
        <time>2021-11-13T16:03:31.269Z</time>
      </trkpt>
      <trkpt lat="47.542014" lon="7.870126">
        <ele>338.498318</ele>
        <time>2021-11-13T16:03:32.698Z</time>
      </trkpt>
      <trkpt lat="47.541910" lon="7.870106">
        <ele>338.498318</ele>
        <time>2021-11-13T16:03:34.241Z</time>
      </trkpt>
      <trkpt lat="47.541703" lon="7.870322">
        <ele>338.498318</ele>
        <time>2021-11-13T16:03:37.799Z</time>
      </trkpt>
    </trkseg>
  </trk>
</gpx>